<?xml version="1.0" encoding="UTF-8" standalone="no" ?>
<gpx xmlns="http://www.topografix.com/GPX/1/1" xmlns:xsi="http://www.w3.org/2001/XMLSchema-instance" xsi:schemaLocation="http://www.topografix.com/GPX/1/1 http://www.topografix.com/GPX/1/1/gpx.xsd" version="1.1" creator="VisuGPX - https://www.visugpx.com">
  <metadata>
    <name>circuit 14 du 11 juillet 2020.gpx</name>
  </metadata>
  <trk>
    <name><![CDATA[circuit 14 du 11 juillet 2020.gpx]]></name>
    <trkseg>
      <trkpt lat="47.05376" lon="6.59767">
        <ele>760.7</ele>
        <time>2020-07-11T11:53:24Z</time>
      </trkpt>
      <trkpt lat="47.05378" lon="6.59732">
        <ele>756.7451</ele>
        <time>2020-07-11T11:53:30Z</time>
      </trkpt>
      <trkpt lat="47.05381" lon="6.5969">
        <ele>760.9821</ele>
        <time>2020-07-11T11:53:39Z</time>
      </trkpt>
      <trkpt lat="47.05385" lon="6.59663">
        <ele>764.6378</ele>
        <time>2020-07-11T11:53:45Z</time>
      </trkpt>
      <trkpt lat="47.05396" lon="6.59625">
        <ele>770.39325</ele>
        <time>2020-07-11T11:53:55Z</time>
      </trkpt>
      <trkpt lat="47.05411" lon="6.59623">
        <ele>771.7183</ele>
        <time>2020-07-11T11:54:00Z</time>
      </trkpt>
      <trkpt lat="47.05421" lon="6.59638">
        <ele>774.85815</ele>
        <time>2020-07-11T11:54:05Z</time>
      </trkpt>
      <trkpt lat="47.0544" lon="6.59667">
        <ele>778.8469</ele>
        <time>2020-07-11T11:54:15Z</time>
      </trkpt>
      <trkpt lat="47.05447" lon="6.59686">
        <ele>778.84174</ele>
        <time>2020-07-11T11:54:20Z</time>
      </trkpt>
      <trkpt lat="47.05453" lon="6.59682">
        <ele>779.9878</ele>
        <time>2020-07-11T11:54:25Z</time>
      </trkpt>
      <trkpt lat="47.05457" lon="6.59655">
        <ele>781.6934</ele>
        <time>2020-07-11T11:54:30Z</time>
      </trkpt>
      <trkpt lat="47.05458" lon="6.59629">
        <ele>784.0756</ele>
        <time>2020-07-11T11:54:35Z</time>
      </trkpt>
      <trkpt lat="47.0547" lon="6.59625">
        <ele>784.81683</ele>
        <time>2020-07-11T11:54:40Z</time>
      </trkpt>
      <trkpt lat="47.05496" lon="6.5966">
        <ele>786.6335</ele>
        <time>2020-07-11T11:54:50Z</time>
      </trkpt>
      <trkpt lat="47.05509" lon="6.59676">
        <ele>788.40436</ele>
        <time>2020-07-11T11:54:55Z</time>
      </trkpt>
      <trkpt lat="47.05524" lon="6.59691">
        <ele>790.00616</ele>
        <time>2020-07-11T11:55:00Z</time>
      </trkpt>
      <trkpt lat="47.05546" lon="6.59724">
        <ele>793.01166</ele>
        <time>2020-07-11T11:55:09Z</time>
      </trkpt>
      <trkpt lat="47.05557" lon="6.59745">
        <ele>794.01953</ele>
        <time>2020-07-11T11:55:14Z</time>
      </trkpt>
      <trkpt lat="47.05574" lon="6.59762">
        <ele>795.2269</ele>
        <time>2020-07-11T11:55:20Z</time>
      </trkpt>
      <trkpt lat="47.05605" lon="6.59789">
        <ele>796.32574</ele>
        <time>2020-07-11T11:55:29Z</time>
      </trkpt>
      <trkpt lat="47.05622" lon="6.59802">
        <ele>796.4939</ele>
        <time>2020-07-11T11:55:34Z</time>
      </trkpt>
      <trkpt lat="47.05639" lon="6.59819">
        <ele>795.9069</ele>
        <time>2020-07-11T11:55:39Z</time>
      </trkpt>
      <trkpt lat="47.0566" lon="6.59853">
        <ele>794.1856</ele>
        <time>2020-07-11T11:55:45Z</time>
      </trkpt>
      <trkpt lat="47.05681" lon="6.59891">
        <ele>790.48236</ele>
        <time>2020-07-11T11:55:50Z</time>
      </trkpt>
      <trkpt lat="47.05704" lon="6.59947">
        <ele>785.627</ele>
        <time>2020-07-11T11:55:59Z</time>
      </trkpt>
      <trkpt lat="47.05722" lon="6.59954">
        <ele>786.7243</ele>
        <time>2020-07-11T11:56:04Z</time>
      </trkpt>
      <trkpt lat="47.0574" lon="6.5996">
        <ele>789.12585</ele>
        <time>2020-07-11T11:56:09Z</time>
      </trkpt>
      <trkpt lat="47.05761" lon="6.59972">
        <ele>790.95123</ele>
        <time>2020-07-11T11:56:14Z</time>
      </trkpt>
      <trkpt lat="47.05783" lon="6.59969">
        <ele>793.2529</ele>
        <time>2020-07-11T11:56:20Z</time>
      </trkpt>
      <trkpt lat="47.05797" lon="6.59959">
        <ele>794.5877</ele>
        <time>2020-07-11T11:56:25Z</time>
      </trkpt>
      <trkpt lat="47.0582" lon="6.59919">
        <ele>800.12714</ele>
        <time>2020-07-11T11:56:35Z</time>
      </trkpt>
      <trkpt lat="47.0583" lon="6.599">
        <ele>801.53546</ele>
        <time>2020-07-11T11:56:40Z</time>
      </trkpt>
      <trkpt lat="47.05839" lon="6.59882">
        <ele>804.3565</ele>
        <time>2020-07-11T11:56:45Z</time>
      </trkpt>
      <trkpt lat="47.0585" lon="6.59867">
        <ele>807.5082</ele>
        <time>2020-07-11T11:56:50Z</time>
      </trkpt>
      <trkpt lat="47.05878" lon="6.59879">
        <ele>811.9605</ele>
        <time>2020-07-11T11:56:59Z</time>
      </trkpt>
      <trkpt lat="47.05893" lon="6.59892">
        <ele>813.7103</ele>
        <time>2020-07-11T11:57:04Z</time>
      </trkpt>
      <trkpt lat="47.05906" lon="6.59909">
        <ele>816.02374</ele>
        <time>2020-07-11T11:57:09Z</time>
      </trkpt>
      <trkpt lat="47.05936" lon="6.59942">
        <ele>821.3383</ele>
        <time>2020-07-11T11:57:20Z</time>
      </trkpt>
      <trkpt lat="47.05949" lon="6.59955">
        <ele>823.846</ele>
        <time>2020-07-11T11:57:25Z</time>
      </trkpt>
      <trkpt lat="47.05963" lon="6.5997">
        <ele>824.6053</ele>
        <time>2020-07-11T11:57:30Z</time>
      </trkpt>
      <trkpt lat="47.05978" lon="6.59982">
        <ele>827.3256</ele>
        <time>2020-07-11T11:57:35Z</time>
      </trkpt>
      <trkpt lat="47.06008" lon="6.6">
        <ele>830.1551</ele>
        <time>2020-07-11T11:57:45Z</time>
      </trkpt>
      <trkpt lat="47.06042" lon="6.60025">
        <ele>831.0307</ele>
        <time>2020-07-11T11:57:55Z</time>
      </trkpt>
      <trkpt lat="47.06061" lon="6.60045">
        <ele>831.2117</ele>
        <time>2020-07-11T11:58:00Z</time>
      </trkpt>
      <trkpt lat="47.06097" lon="6.60086">
        <ele>830.86127</ele>
        <time>2020-07-11T11:58:10Z</time>
      </trkpt>
      <trkpt lat="47.06142" lon="6.60123">
        <ele>828.0808</ele>
        <time>2020-07-11T11:58:19Z</time>
      </trkpt>
      <trkpt lat="47.06184" lon="6.6014">
        <ele>824.0395</ele>
        <time>2020-07-11T11:58:25Z</time>
      </trkpt>
      <trkpt lat="47.06187" lon="6.6018">
        <ele>818.3019</ele>
        <time>2020-07-11T11:58:30Z</time>
      </trkpt>
      <trkpt lat="47.06185" lon="6.60208">
        <ele>817.5355</ele>
        <time>2020-07-11T11:58:35Z</time>
      </trkpt>
      <trkpt lat="47.06195" lon="6.6023">
        <ele>819.4091</ele>
        <time>2020-07-11T11:58:40Z</time>
      </trkpt>
      <trkpt lat="47.06209" lon="6.60248">
        <ele>821.68756</ele>
        <time>2020-07-11T11:58:45Z</time>
      </trkpt>
      <trkpt lat="47.06225" lon="6.60265">
        <ele>822.87866</ele>
        <time>2020-07-11T11:58:50Z</time>
      </trkpt>
      <trkpt lat="47.06243" lon="6.60291">
        <ele>820.4495</ele>
        <time>2020-07-11T11:58:55Z</time>
      </trkpt>
      <trkpt lat="47.06275" lon="6.60309">
        <ele>815.54706</ele>
        <time>2020-07-11T11:59:00Z</time>
      </trkpt>
      <trkpt lat="47.06311" lon="6.6031">
        <ele>811.8936</ele>
        <time>2020-07-11T11:59:05Z</time>
      </trkpt>
      <trkpt lat="47.06326" lon="6.60363">
        <ele>807.3211</ele>
        <time>2020-07-11T11:59:10Z</time>
      </trkpt>
      <trkpt lat="47.0633" lon="6.60428">
        <ele>801.6096</ele>
        <time>2020-07-11T11:59:15Z</time>
      </trkpt>
      <trkpt lat="47.0633" lon="6.60475">
        <ele>796.89087</ele>
        <time>2020-07-11T11:59:20Z</time>
      </trkpt>
      <trkpt lat="47.06355" lon="6.60516">
        <ele>797.43195</ele>
        <time>2020-07-11T11:59:29Z</time>
      </trkpt>
      <trkpt lat="47.0637" lon="6.60524">
        <ele>797.75055</ele>
        <time>2020-07-11T11:59:34Z</time>
      </trkpt>
      <trkpt lat="47.06396" lon="6.60533">
        <ele>799.57556</ele>
        <time>2020-07-11T11:59:40Z</time>
      </trkpt>
      <trkpt lat="47.06408" lon="6.60547">
        <ele>800.26605</ele>
        <time>2020-07-11T11:59:45Z</time>
      </trkpt>
      <trkpt lat="47.06426" lon="6.60578">
        <ele>798.04095</ele>
        <time>2020-07-11T11:59:50Z</time>
      </trkpt>
      <trkpt lat="47.06444" lon="6.60596">
        <ele>802.94073</ele>
        <time>2020-07-11T11:59:55Z</time>
      </trkpt>
      <trkpt lat="47.06456" lon="6.60609">
        <ele>805.4829</ele>
        <time>2020-07-11T12:00:00Z</time>
      </trkpt>
      <trkpt lat="47.06477" lon="6.60627">
        <ele>812.30334</ele>
        <time>2020-07-11T12:00:09Z</time>
      </trkpt>
      <trkpt lat="47.06492" lon="6.60638">
        <ele>814.88007</ele>
        <time>2020-07-11T12:00:15Z</time>
      </trkpt>
      <trkpt lat="47.06503" lon="6.6065">
        <ele>816.9375</ele>
        <time>2020-07-11T12:00:20Z</time>
      </trkpt>
      <trkpt lat="47.06512" lon="6.60664">
        <ele>819.2575</ele>
        <time>2020-07-11T12:00:25Z</time>
      </trkpt>
      <trkpt lat="47.06521" lon="6.60678">
        <ele>820.8772</ele>
        <time>2020-07-11T12:00:30Z</time>
      </trkpt>
      <trkpt lat="47.06529" lon="6.60693">
        <ele>822.30975</ele>
        <time>2020-07-11T12:00:35Z</time>
      </trkpt>
      <trkpt lat="47.06538" lon="6.60706">
        <ele>824.7799</ele>
        <time>2020-07-11T12:00:40Z</time>
      </trkpt>
      <trkpt lat="47.06546" lon="6.60721">
        <ele>826.6165</ele>
        <time>2020-07-11T12:00:45Z</time>
      </trkpt>
      <trkpt lat="47.06554" lon="6.60736">
        <ele>828.1122</ele>
        <time>2020-07-11T12:00:50Z</time>
      </trkpt>
      <trkpt lat="47.06564" lon="6.60749">
        <ele>830.0076</ele>
        <time>2020-07-11T12:00:55Z</time>
      </trkpt>
      <trkpt lat="47.06574" lon="6.6076">
        <ele>832.2579</ele>
        <time>2020-07-11T12:01:00Z</time>
      </trkpt>
      <trkpt lat="47.06585" lon="6.60768">
        <ele>834.07513</ele>
        <time>2020-07-11T12:01:05Z</time>
      </trkpt>
      <trkpt lat="47.06597" lon="6.60774">
        <ele>836.6041</ele>
        <time>2020-07-11T12:01:10Z</time>
      </trkpt>
      <trkpt lat="47.06606" lon="6.60785">
        <ele>837.42865</ele>
        <time>2020-07-11T12:01:15Z</time>
      </trkpt>
      <trkpt lat="47.06626" lon="6.60805">
        <ele>838.49603</ele>
        <time>2020-07-11T12:01:24Z</time>
      </trkpt>
      <trkpt lat="47.06639" lon="6.60815">
        <ele>839.5844</ele>
        <time>2020-07-11T12:01:29Z</time>
      </trkpt>
      <trkpt lat="47.06663" lon="6.6084">
        <ele>842.1527</ele>
        <time>2020-07-11T12:01:39Z</time>
      </trkpt>
      <trkpt lat="47.06675" lon="6.6085">
        <ele>843.976</ele>
        <time>2020-07-11T12:01:44Z</time>
      </trkpt>
      <trkpt lat="47.06687" lon="6.60858">
        <ele>844.7202</ele>
        <time>2020-07-11T12:01:49Z</time>
      </trkpt>
      <trkpt lat="47.06698" lon="6.60895">
        <ele>842.93036</ele>
        <time>2020-07-11T12:01:55Z</time>
      </trkpt>
      <trkpt lat="47.06709" lon="6.60934">
        <ele>842.5106</ele>
        <time>2020-07-11T12:02:00Z</time>
      </trkpt>
      <trkpt lat="47.06727" lon="6.60969">
        <ele>842.5012</ele>
        <time>2020-07-11T12:02:09Z</time>
      </trkpt>
      <trkpt lat="47.06738" lon="6.60984">
        <ele>842.14954</ele>
        <time>2020-07-11T12:02:14Z</time>
      </trkpt>
      <trkpt lat="47.06751" lon="6.61001">
        <ele>842.16736</ele>
        <time>2020-07-11T12:02:19Z</time>
      </trkpt>
      <trkpt lat="47.06763" lon="6.61018">
        <ele>842.3589</ele>
        <time>2020-07-11T12:02:24Z</time>
      </trkpt>
      <trkpt lat="47.06776" lon="6.61038">
        <ele>842.18097</ele>
        <time>2020-07-11T12:02:29Z</time>
      </trkpt>
      <trkpt lat="47.06792" lon="6.61063">
        <ele>842.39136</ele>
        <time>2020-07-11T12:02:34Z</time>
      </trkpt>
      <trkpt lat="47.06812" lon="6.61092">
        <ele>842.96173</ele>
        <time>2020-07-11T12:02:40Z</time>
      </trkpt>
      <trkpt lat="47.06827" lon="6.61119">
        <ele>842.45624</ele>
        <time>2020-07-11T12:02:45Z</time>
      </trkpt>
      <trkpt lat="47.0684" lon="6.61152">
        <ele>841.9852</ele>
        <time>2020-07-11T12:02:50Z</time>
      </trkpt>
      <trkpt lat="47.06853" lon="6.6118">
        <ele>841.9078</ele>
        <time>2020-07-11T12:02:55Z</time>
      </trkpt>
      <trkpt lat="47.06867" lon="6.61202">
        <ele>840.9742</ele>
        <time>2020-07-11T12:03:00Z</time>
      </trkpt>
      <trkpt lat="47.06883" lon="6.61222">
        <ele>840.67175</ele>
        <time>2020-07-11T12:03:05Z</time>
      </trkpt>
      <trkpt lat="47.06901" lon="6.6124">
        <ele>840.2615</ele>
        <time>2020-07-11T12:03:10Z</time>
      </trkpt>
      <trkpt lat="47.06921" lon="6.61264">
        <ele>839.64197</ele>
        <time>2020-07-11T12:03:15Z</time>
      </trkpt>
      <trkpt lat="47.06945" lon="6.61286">
        <ele>838.91254</ele>
        <time>2020-07-11T12:03:20Z</time>
      </trkpt>
      <trkpt lat="47.06968" lon="6.61312">
        <ele>837.6694</ele>
        <time>2020-07-11T12:03:25Z</time>
      </trkpt>
      <trkpt lat="47.06982" lon="6.61333">
        <ele>835.45416</ele>
        <time>2020-07-11T12:03:30Z</time>
      </trkpt>
      <trkpt lat="47.06993" lon="6.61344">
        <ele>835.27</ele>
        <time>2020-07-11T12:03:35Z</time>
      </trkpt>
      <trkpt lat="47.06999" lon="6.61359">
        <ele>833.80414</ele>
        <time>2020-07-11T12:03:40Z</time>
      </trkpt>
      <trkpt lat="47.07017" lon="6.61377">
        <ele>835.26373</ele>
        <time>2020-07-11T12:03:45Z</time>
      </trkpt>
      <trkpt lat="47.07032" lon="6.61396">
        <ele>835.90094</ele>
        <time>2020-07-11T12:03:50Z</time>
      </trkpt>
      <trkpt lat="47.07048" lon="6.61417">
        <ele>836.63654</ele>
        <time>2020-07-11T12:03:55Z</time>
      </trkpt>
      <trkpt lat="47.07063" lon="6.61436">
        <ele>838.0722</ele>
        <time>2020-07-11T12:04:00Z</time>
      </trkpt>
      <trkpt lat="47.0709" lon="6.61469">
        <ele>840.02185</ele>
        <time>2020-07-11T12:04:09Z</time>
      </trkpt>
      <trkpt lat="47.07105" lon="6.61488">
        <ele>840.77954</ele>
        <time>2020-07-11T12:04:14Z</time>
      </trkpt>
      <trkpt lat="47.07121" lon="6.61505">
        <ele>841.16156</ele>
        <time>2020-07-11T12:04:19Z</time>
      </trkpt>
      <trkpt lat="47.07138" lon="6.61524">
        <ele>842.27203</ele>
        <time>2020-07-11T12:04:24Z</time>
      </trkpt>
      <trkpt lat="47.07154" lon="6.61541">
        <ele>842.91046</ele>
        <time>2020-07-11T12:04:29Z</time>
      </trkpt>
      <trkpt lat="47.0717" lon="6.61558">
        <ele>843.3668</ele>
        <time>2020-07-11T12:04:34Z</time>
      </trkpt>
      <trkpt lat="47.07187" lon="6.61572">
        <ele>844.1194</ele>
        <time>2020-07-11T12:04:39Z</time>
      </trkpt>
      <trkpt lat="47.07204" lon="6.61589">
        <ele>845.7785</ele>
        <time>2020-07-11T12:04:45Z</time>
      </trkpt>
      <trkpt lat="47.07217" lon="6.61603">
        <ele>846.7175</ele>
        <time>2020-07-11T12:04:50Z</time>
      </trkpt>
      <trkpt lat="47.0723" lon="6.61618">
        <ele>846.23285</ele>
        <time>2020-07-11T12:04:55Z</time>
      </trkpt>
      <trkpt lat="47.07259" lon="6.61639">
        <ele>848.0848</ele>
        <time>2020-07-11T12:05:05Z</time>
      </trkpt>
      <trkpt lat="47.07289" lon="6.61657">
        <ele>850.4603</ele>
        <time>2020-07-11T12:05:15Z</time>
      </trkpt>
      <trkpt lat="47.07307" lon="6.61663">
        <ele>851.02045</ele>
        <time>2020-07-11T12:05:20Z</time>
      </trkpt>
      <trkpt lat="47.07327" lon="6.61676">
        <ele>851.5974</ele>
        <time>2020-07-11T12:05:25Z</time>
      </trkpt>
      <trkpt lat="47.07345" lon="6.6169">
        <ele>852.64557</ele>
        <time>2020-07-11T12:05:30Z</time>
      </trkpt>
      <trkpt lat="47.07363" lon="6.61701">
        <ele>854.0927</ele>
        <time>2020-07-11T12:05:35Z</time>
      </trkpt>
      <trkpt lat="47.07384" lon="6.61716">
        <ele>854.5545</ele>
        <time>2020-07-11T12:05:40Z</time>
      </trkpt>
      <trkpt lat="47.07406" lon="6.61732">
        <ele>856.18195</ele>
        <time>2020-07-11T12:05:45Z</time>
      </trkpt>
      <trkpt lat="47.07447" lon="6.6175">
        <ele>857.8273</ele>
        <time>2020-07-11T12:05:54Z</time>
      </trkpt>
      <trkpt lat="47.07468" lon="6.61755">
        <ele>858.28394</ele>
        <time>2020-07-11T12:05:59Z</time>
      </trkpt>
      <trkpt lat="47.07489" lon="6.61754">
        <ele>859.1271</ele>
        <time>2020-07-11T12:06:04Z</time>
      </trkpt>
      <trkpt lat="47.07509" lon="6.61752">
        <ele>860.68884</ele>
        <time>2020-07-11T12:06:09Z</time>
      </trkpt>
      <trkpt lat="47.07529" lon="6.61749">
        <ele>860.7831</ele>
        <time>2020-07-11T12:06:14Z</time>
      </trkpt>
      <trkpt lat="47.07552" lon="6.61744">
        <ele>862.2653</ele>
        <time>2020-07-11T12:06:19Z</time>
      </trkpt>
      <trkpt lat="47.07575" lon="6.61743">
        <ele>863.3873</ele>
        <time>2020-07-11T12:06:24Z</time>
      </trkpt>
      <trkpt lat="47.07595" lon="6.61737">
        <ele>864.70416</ele>
        <time>2020-07-11T12:06:29Z</time>
      </trkpt>
      <trkpt lat="47.07615" lon="6.61737">
        <ele>865.57166</ele>
        <time>2020-07-11T12:06:34Z</time>
      </trkpt>
      <trkpt lat="47.07636" lon="6.61738">
        <ele>865.92896</ele>
        <time>2020-07-11T12:06:39Z</time>
      </trkpt>
      <trkpt lat="47.07656" lon="6.61749">
        <ele>867.15063</ele>
        <time>2020-07-11T12:06:44Z</time>
      </trkpt>
      <trkpt lat="47.07678" lon="6.61766">
        <ele>868.1167</ele>
        <time>2020-07-11T12:06:50Z</time>
      </trkpt>
      <trkpt lat="47.07699" lon="6.61781">
        <ele>868.89</ele>
        <time>2020-07-11T12:06:55Z</time>
      </trkpt>
      <trkpt lat="47.07719" lon="6.61794">
        <ele>869.9159</ele>
        <time>2020-07-11T12:07:00Z</time>
      </trkpt>
      <trkpt lat="47.0774" lon="6.61805">
        <ele>871.22375</ele>
        <time>2020-07-11T12:07:05Z</time>
      </trkpt>
      <trkpt lat="47.07755" lon="6.61821">
        <ele>871.70056</ele>
        <time>2020-07-11T12:07:10Z</time>
      </trkpt>
      <trkpt lat="47.07771" lon="6.61841">
        <ele>872.68884</ele>
        <time>2020-07-11T12:07:15Z</time>
      </trkpt>
      <trkpt lat="47.07788" lon="6.61866">
        <ele>873.5231</ele>
        <time>2020-07-11T12:07:20Z</time>
      </trkpt>
      <trkpt lat="47.07805" lon="6.6189">
        <ele>874.44543</ele>
        <time>2020-07-11T12:07:25Z</time>
      </trkpt>
      <trkpt lat="47.0782" lon="6.61911">
        <ele>875.8835</ele>
        <time>2020-07-11T12:07:30Z</time>
      </trkpt>
      <trkpt lat="47.07834" lon="6.61934">
        <ele>877.31744</ele>
        <time>2020-07-11T12:07:35Z</time>
      </trkpt>
      <trkpt lat="47.0785" lon="6.61956">
        <ele>877.7902</ele>
        <time>2020-07-11T12:07:40Z</time>
      </trkpt>
      <trkpt lat="47.07865" lon="6.61983">
        <ele>878.87415</ele>
        <time>2020-07-11T12:07:45Z</time>
      </trkpt>
      <trkpt lat="47.0789" lon="6.62028">
        <ele>880.2517</ele>
        <time>2020-07-11T12:07:54Z</time>
      </trkpt>
      <trkpt lat="47.07902" lon="6.6205">
        <ele>881.6555</ele>
        <time>2020-07-11T12:07:59Z</time>
      </trkpt>
      <trkpt lat="47.07912" lon="6.62078">
        <ele>882.1063</ele>
        <time>2020-07-11T12:08:04Z</time>
      </trkpt>
      <trkpt lat="47.07921" lon="6.62107">
        <ele>883.0668</ele>
        <time>2020-07-11T12:08:09Z</time>
      </trkpt>
      <trkpt lat="47.07929" lon="6.62136">
        <ele>884.53894</ele>
        <time>2020-07-11T12:08:14Z</time>
      </trkpt>
      <trkpt lat="47.0794" lon="6.6217">
        <ele>885.2415</ele>
        <time>2020-07-11T12:08:20Z</time>
      </trkpt>
      <trkpt lat="47.07952" lon="6.62216">
        <ele>885.75006</ele>
        <time>2020-07-11T12:08:29Z</time>
      </trkpt>
      <trkpt lat="47.07951" lon="6.62241">
        <ele>885.37885</ele>
        <time>2020-07-11T12:08:34Z</time>
      </trkpt>
      <trkpt lat="47.07964" lon="6.62271">
        <ele>885.7134</ele>
        <time>2020-07-11T12:08:40Z</time>
      </trkpt>
      <trkpt lat="47.07983" lon="6.62321">
        <ele>887.69855</ele>
        <time>2020-07-11T12:08:50Z</time>
      </trkpt>
      <trkpt lat="47.07988" lon="6.6235">
        <ele>888.25543</ele>
        <time>2020-07-11T12:08:55Z</time>
      </trkpt>
      <trkpt lat="47.07995" lon="6.62404">
        <ele>890.911</ele>
        <time>2020-07-11T12:09:04Z</time>
      </trkpt>
      <trkpt lat="47.07998" lon="6.62435">
        <ele>891.87177</ele>
        <time>2020-07-11T12:09:09Z</time>
      </trkpt>
      <trkpt lat="47.07999" lon="6.62465">
        <ele>893.64246</ele>
        <time>2020-07-11T12:09:14Z</time>
      </trkpt>
      <trkpt lat="47.08006" lon="6.62499">
        <ele>894.36835</ele>
        <time>2020-07-11T12:09:20Z</time>
      </trkpt>
      <trkpt lat="47.08024" lon="6.62512">
        <ele>895.4793</ele>
        <time>2020-07-11T12:09:25Z</time>
      </trkpt>
      <trkpt lat="47.08042" lon="6.62501">
        <ele>897.4538</ele>
        <time>2020-07-11T12:09:30Z</time>
      </trkpt>
      <trkpt lat="47.08083" lon="6.6249">
        <ele>903.4285</ele>
        <time>2020-07-11T12:09:44Z</time>
      </trkpt>
      <trkpt lat="47.08089" lon="6.62517">
        <ele>904.32477</ele>
        <time>2020-07-11T12:09:49Z</time>
      </trkpt>
      <trkpt lat="47.08094" lon="6.62545">
        <ele>906.0807</ele>
        <time>2020-07-11T12:09:54Z</time>
      </trkpt>
      <trkpt lat="47.08101" lon="6.62573">
        <ele>906.9707</ele>
        <time>2020-07-11T12:09:59Z</time>
      </trkpt>
      <trkpt lat="47.08108" lon="6.626">
        <ele>908.62915</ele>
        <time>2020-07-11T12:10:04Z</time>
      </trkpt>
      <trkpt lat="47.08115" lon="6.62632">
        <ele>908.5672</ele>
        <time>2020-07-11T12:10:10Z</time>
      </trkpt>
      <trkpt lat="47.08122" lon="6.62657">
        <ele>909.9949</ele>
        <time>2020-07-11T12:10:15Z</time>
      </trkpt>
      <trkpt lat="47.0813" lon="6.6268">
        <ele>911.20526</ele>
        <time>2020-07-11T12:10:20Z</time>
      </trkpt>
      <trkpt lat="47.08144" lon="6.62697">
        <ele>912.03564</ele>
        <time>2020-07-11T12:10:25Z</time>
      </trkpt>
      <trkpt lat="47.08164" lon="6.62702">
        <ele>913.1517</ele>
        <time>2020-07-11T12:10:30Z</time>
      </trkpt>
      <trkpt lat="47.08206" lon="6.62703">
        <ele>914.6436</ele>
        <time>2020-07-11T12:10:40Z</time>
      </trkpt>
      <trkpt lat="47.08246" lon="6.62702">
        <ele>915.80176</ele>
        <time>2020-07-11T12:10:49Z</time>
      </trkpt>
      <trkpt lat="47.08266" lon="6.62714">
        <ele>917.4682</ele>
        <time>2020-07-11T12:10:54Z</time>
      </trkpt>
      <trkpt lat="47.08281" lon="6.62736">
        <ele>918.5897</ele>
        <time>2020-07-11T12:10:59Z</time>
      </trkpt>
      <trkpt lat="47.08295" lon="6.62767">
        <ele>918.805</ele>
        <time>2020-07-11T12:11:05Z</time>
      </trkpt>
      <trkpt lat="47.08318" lon="6.62813">
        <ele>920.0253</ele>
        <time>2020-07-11T12:11:14Z</time>
      </trkpt>
      <trkpt lat="47.08331" lon="6.62838">
        <ele>920.49896</ele>
        <time>2020-07-11T12:11:19Z</time>
      </trkpt>
      <trkpt lat="47.08341" lon="6.62863">
        <ele>922.0712</ele>
        <time>2020-07-11T12:11:24Z</time>
      </trkpt>
      <trkpt lat="47.08352" lon="6.62881">
        <ele>923.1362</ele>
        <time>2020-07-11T12:11:29Z</time>
      </trkpt>
      <trkpt lat="47.08366" lon="6.62904">
        <ele>924.8852</ele>
        <time>2020-07-11T12:11:34Z</time>
      </trkpt>
      <trkpt lat="47.08379" lon="6.62926">
        <ele>924.861</ele>
        <time>2020-07-11T12:11:39Z</time>
      </trkpt>
      <trkpt lat="47.08382" lon="6.62953">
        <ele>924.507</ele>
        <time>2020-07-11T12:11:45Z</time>
      </trkpt>
      <trkpt lat="47.08369" lon="6.6301">
        <ele>920.14716</ele>
        <time>2020-07-11T12:11:50Z</time>
      </trkpt>
      <trkpt lat="47.08354" lon="6.63081">
        <ele>914.76855</ele>
        <time>2020-07-11T12:11:55Z</time>
      </trkpt>
      <trkpt lat="47.08343" lon="6.63148">
        <ele>912.4965</ele>
        <time>2020-07-11T12:12:00Z</time>
      </trkpt>
      <trkpt lat="47.08328" lon="6.6328">
        <ele>909.4605</ele>
        <time>2020-07-11T12:12:10Z</time>
      </trkpt>
      <trkpt lat="47.08315" lon="6.63381">
        <ele>905.6986</ele>
        <time>2020-07-11T12:12:19Z</time>
      </trkpt>
      <trkpt lat="47.08305" lon="6.63411">
        <ele>904.87366</ele>
        <time>2020-07-11T12:12:24Z</time>
      </trkpt>
      <trkpt lat="47.08291" lon="6.63414">
        <ele>903.46106</ele>
        <time>2020-07-11T12:12:29Z</time>
      </trkpt>
      <trkpt lat="47.08284" lon="6.63415">
        <ele>902.2553</ele>
        <time>2020-07-11T12:12:34Z</time>
      </trkpt>
      <trkpt lat="47.08278" lon="6.63429">
        <ele>902.0979</ele>
        <time>2020-07-11T12:12:54Z</time>
      </trkpt>
      <trkpt lat="47.08271" lon="6.63442">
        <ele>901.4116</ele>
        <time>2020-07-11T12:12:59Z</time>
      </trkpt>
      <trkpt lat="47.08273" lon="6.63475">
        <ele>901.57635</ele>
        <time>2020-07-11T12:13:04Z</time>
      </trkpt>
      <trkpt lat="47.08284" lon="6.6351">
        <ele>901.5354</ele>
        <time>2020-07-11T12:13:09Z</time>
      </trkpt>
      <trkpt lat="47.08307" lon="6.63544">
        <ele>902.9332</ele>
        <time>2020-07-11T12:13:15Z</time>
      </trkpt>
      <trkpt lat="47.08341" lon="6.63589">
        <ele>902.61</ele>
        <time>2020-07-11T12:13:24Z</time>
      </trkpt>
      <trkpt lat="47.08349" lon="6.63617">
        <ele>902.4778</ele>
        <time>2020-07-11T12:13:29Z</time>
      </trkpt>
      <trkpt lat="47.08353" lon="6.63655">
        <ele>903.5786</ele>
        <time>2020-07-11T12:13:34Z</time>
      </trkpt>
      <trkpt lat="47.08352" lon="6.63696">
        <ele>904.55566</ele>
        <time>2020-07-11T12:13:39Z</time>
      </trkpt>
      <trkpt lat="47.08341" lon="6.63735">
        <ele>904.60815</ele>
        <time>2020-07-11T12:13:44Z</time>
      </trkpt>
      <trkpt lat="47.08328" lon="6.63783">
        <ele>905.0815</ele>
        <time>2020-07-11T12:13:50Z</time>
      </trkpt>
      <trkpt lat="47.08326" lon="6.63822">
        <ele>906.6516</ele>
        <time>2020-07-11T12:13:55Z</time>
      </trkpt>
      <trkpt lat="47.0833" lon="6.63888">
        <ele>909.82587</ele>
        <time>2020-07-11T12:14:04Z</time>
      </trkpt>
      <trkpt lat="47.0832" lon="6.63923">
        <ele>909.5214</ele>
        <time>2020-07-11T12:14:09Z</time>
      </trkpt>
      <trkpt lat="47.08296" lon="6.63946">
        <ele>909.0291</ele>
        <time>2020-07-11T12:14:14Z</time>
      </trkpt>
      <trkpt lat="47.08261" lon="6.63959">
        <ele>908.9997</ele>
        <time>2020-07-11T12:14:20Z</time>
      </trkpt>
      <trkpt lat="47.08233" lon="6.63968">
        <ele>909.49725</ele>
        <time>2020-07-11T12:14:25Z</time>
      </trkpt>
      <trkpt lat="47.08205" lon="6.63979">
        <ele>909.42487</ele>
        <time>2020-07-11T12:14:30Z</time>
      </trkpt>
      <trkpt lat="47.08178" lon="6.63989">
        <ele>909.6264</ele>
        <time>2020-07-11T12:14:35Z</time>
      </trkpt>
      <trkpt lat="47.08148" lon="6.63998">
        <ele>909.7618</ele>
        <time>2020-07-11T12:14:40Z</time>
      </trkpt>
      <trkpt lat="47.08118" lon="6.6401">
        <ele>910.3927</ele>
        <time>2020-07-11T12:14:45Z</time>
      </trkpt>
      <trkpt lat="47.08065" lon="6.64031">
        <ele>910.4872</ele>
        <time>2020-07-11T12:14:54Z</time>
      </trkpt>
      <trkpt lat="47.0804" lon="6.64055">
        <ele>908.7436</ele>
        <time>2020-07-11T12:14:59Z</time>
      </trkpt>
      <trkpt lat="47.08024" lon="6.64105">
        <ele>906.75555</ele>
        <time>2020-07-11T12:15:04Z</time>
      </trkpt>
      <trkpt lat="47.08015" lon="6.6416">
        <ele>906.3378</ele>
        <time>2020-07-11T12:15:09Z</time>
      </trkpt>
      <trkpt lat="47.08011" lon="6.64221">
        <ele>906.7146</ele>
        <time>2020-07-11T12:15:15Z</time>
      </trkpt>
      <trkpt lat="47.08009" lon="6.64268">
        <ele>906.28534</ele>
        <time>2020-07-11T12:15:20Z</time>
      </trkpt>
      <trkpt lat="47.08012" lon="6.64359">
        <ele>906.2811</ele>
        <time>2020-07-11T12:15:30Z</time>
      </trkpt>
      <trkpt lat="47.0802" lon="6.64441">
        <ele>906.46375</ele>
        <time>2020-07-11T12:15:40Z</time>
      </trkpt>
      <trkpt lat="47.08023" lon="6.64478">
        <ele>907.15753</ele>
        <time>2020-07-11T12:15:45Z</time>
      </trkpt>
      <trkpt lat="47.08023" lon="6.64521">
        <ele>907.062</ele>
        <time>2020-07-11T12:15:50Z</time>
      </trkpt>
      <trkpt lat="47.08023" lon="6.64566">
        <ele>907.844</ele>
        <time>2020-07-11T12:15:55Z</time>
      </trkpt>
      <trkpt lat="47.08016" lon="6.64646">
        <ele>907.68134</ele>
        <time>2020-07-11T12:16:05Z</time>
      </trkpt>
      <trkpt lat="47.08013" lon="6.64687">
        <ele>907.67084</ele>
        <time>2020-07-11T12:16:10Z</time>
      </trkpt>
      <trkpt lat="47.07999" lon="6.64726">
        <ele>908.7719</ele>
        <time>2020-07-11T12:16:15Z</time>
      </trkpt>
      <trkpt lat="47.07972" lon="6.64732">
        <ele>908.5714</ele>
        <time>2020-07-11T12:16:20Z</time>
      </trkpt>
      <trkpt lat="47.07926" lon="6.64722">
        <ele>907.9322</ele>
        <time>2020-07-11T12:16:30Z</time>
      </trkpt>
      <trkpt lat="47.07894" lon="6.64724">
        <ele>907.43256</ele>
        <time>2020-07-11T12:16:35Z</time>
      </trkpt>
      <trkpt lat="47.07873" lon="6.64697">
        <ele>907.0652</ele>
        <time>2020-07-11T12:16:40Z</time>
      </trkpt>
      <trkpt lat="47.07847" lon="6.64677">
        <ele>907.1145</ele>
        <time>2020-07-11T12:16:45Z</time>
      </trkpt>
      <trkpt lat="47.07818" lon="6.6466">
        <ele>906.1741</ele>
        <time>2020-07-11T12:16:50Z</time>
      </trkpt>
      <trkpt lat="47.0779" lon="6.6464">
        <ele>905.9442</ele>
        <time>2020-07-11T12:16:55Z</time>
      </trkpt>
      <trkpt lat="47.07771" lon="6.64605">
        <ele>905.9568</ele>
        <time>2020-07-11T12:17:00Z</time>
      </trkpt>
      <trkpt lat="47.07719" lon="6.64567">
        <ele>906.5404</ele>
        <time>2020-07-11T12:17:10Z</time>
      </trkpt>
      <trkpt lat="47.07687" lon="6.6455">
        <ele>906.4963</ele>
        <time>2020-07-11T12:17:15Z</time>
      </trkpt>
      <trkpt lat="47.07655" lon="6.6453">
        <ele>906.7429</ele>
        <time>2020-07-11T12:17:20Z</time>
      </trkpt>
      <trkpt lat="47.07625" lon="6.64512">
        <ele>906.3525</ele>
        <time>2020-07-11T12:17:25Z</time>
      </trkpt>
      <trkpt lat="47.07596" lon="6.64494">
        <ele>906.40393</ele>
        <time>2020-07-11T12:17:30Z</time>
      </trkpt>
      <trkpt lat="47.07569" lon="6.64481">
        <ele>906.4973</ele>
        <time>2020-07-11T12:17:35Z</time>
      </trkpt>
      <trkpt lat="47.07541" lon="6.64475">
        <ele>906.37244</ele>
        <time>2020-07-11T12:17:40Z</time>
      </trkpt>
      <trkpt lat="47.0749" lon="6.64453">
        <ele>906.92346</ele>
        <time>2020-07-11T12:17:49Z</time>
      </trkpt>
      <trkpt lat="47.07463" lon="6.64436">
        <ele>906.0943</ele>
        <time>2020-07-11T12:17:54Z</time>
      </trkpt>
      <trkpt lat="47.07434" lon="6.64416">
        <ele>904.4382</ele>
        <time>2020-07-11T12:17:59Z</time>
      </trkpt>
      <trkpt lat="47.07401" lon="6.64397">
        <ele>902.4641</ele>
        <time>2020-07-11T12:18:04Z</time>
      </trkpt>
      <trkpt lat="47.07364" lon="6.64379">
        <ele>902.3109</ele>
        <time>2020-07-11T12:18:09Z</time>
      </trkpt>
      <trkpt lat="47.07317" lon="6.64362">
        <ele>900.4945</ele>
        <time>2020-07-11T12:18:15Z</time>
      </trkpt>
      <trkpt lat="47.0728" lon="6.64351">
        <ele>898.14624</ele>
        <time>2020-07-11T12:18:20Z</time>
      </trkpt>
      <trkpt lat="47.07237" lon="6.64338">
        <ele>895.7112</ele>
        <time>2020-07-11T12:18:25Z</time>
      </trkpt>
      <trkpt lat="47.07194" lon="6.64326">
        <ele>893.0309</ele>
        <time>2020-07-11T12:18:30Z</time>
      </trkpt>
      <trkpt lat="47.0715" lon="6.64312">
        <ele>889.859</ele>
        <time>2020-07-11T12:18:35Z</time>
      </trkpt>
      <trkpt lat="47.07111" lon="6.64304">
        <ele>887.8726</ele>
        <time>2020-07-11T12:18:40Z</time>
      </trkpt>
      <trkpt lat="47.0708" lon="6.64315">
        <ele>889.0588</ele>
        <time>2020-07-11T12:18:45Z</time>
      </trkpt>
      <trkpt lat="47.07059" lon="6.6433">
        <ele>890.9498</ele>
        <time>2020-07-11T12:18:50Z</time>
      </trkpt>
      <trkpt lat="47.07041" lon="6.64346">
        <ele>893.78406</ele>
        <time>2020-07-11T12:18:55Z</time>
      </trkpt>
      <trkpt lat="47.07023" lon="6.64365">
        <ele>895.03345</ele>
        <time>2020-07-11T12:19:00Z</time>
      </trkpt>
      <trkpt lat="47.06987" lon="6.64385">
        <ele>899.06537</ele>
        <time>2020-07-11T12:19:10Z</time>
      </trkpt>
      <trkpt lat="47.06966" lon="6.64387">
        <ele>900.8544</ele>
        <time>2020-07-11T12:19:15Z</time>
      </trkpt>
      <trkpt lat="47.06919" lon="6.64376">
        <ele>904.39825</ele>
        <time>2020-07-11T12:19:24Z</time>
      </trkpt>
      <trkpt lat="47.06894" lon="6.64367">
        <ele>906.5278</ele>
        <time>2020-07-11T12:19:29Z</time>
      </trkpt>
      <trkpt lat="47.06874" lon="6.64357">
        <ele>908.51685</ele>
        <time>2020-07-11T12:19:34Z</time>
      </trkpt>
      <trkpt lat="47.0686" lon="6.64345">
        <ele>910.4809</ele>
        <time>2020-07-11T12:19:39Z</time>
      </trkpt>
      <trkpt lat="47.06825" lon="6.64317">
        <ele>912.82513</ele>
        <time>2020-07-11T12:19:45Z</time>
      </trkpt>
      <trkpt lat="47.06791" lon="6.64287">
        <ele>914.2761</ele>
        <time>2020-07-11T12:19:50Z</time>
      </trkpt>
      <trkpt lat="47.06765" lon="6.6427">
        <ele>916.038</ele>
        <time>2020-07-11T12:19:55Z</time>
      </trkpt>
      <trkpt lat="47.06742" lon="6.64247">
        <ele>918.93945</ele>
        <time>2020-07-11T12:20:00Z</time>
      </trkpt>
      <trkpt lat="47.06697" lon="6.6422">
        <ele>921.8895</ele>
        <time>2020-07-11T12:20:10Z</time>
      </trkpt>
      <trkpt lat="47.06679" lon="6.6421">
        <ele>923.3663</ele>
        <time>2020-07-11T12:20:15Z</time>
      </trkpt>
      <trkpt lat="47.06662" lon="6.64192">
        <ele>925.10785</ele>
        <time>2020-07-11T12:20:20Z</time>
      </trkpt>
      <trkpt lat="47.06644" lon="6.6417">
        <ele>926.43353</ele>
        <time>2020-07-11T12:20:25Z</time>
      </trkpt>
      <trkpt lat="47.06621" lon="6.64168">
        <ele>927.30444</ele>
        <time>2020-07-11T12:20:30Z</time>
      </trkpt>
      <trkpt lat="47.066" lon="6.64171">
        <ele>929.6021</ele>
        <time>2020-07-11T12:20:35Z</time>
      </trkpt>
      <trkpt lat="47.06585" lon="6.64179">
        <ele>931.1971</ele>
        <time>2020-07-11T12:20:40Z</time>
      </trkpt>
      <trkpt lat="47.06567" lon="6.64196">
        <ele>933.45306</ele>
        <time>2020-07-11T12:20:45Z</time>
      </trkpt>
      <trkpt lat="47.06553" lon="6.64216">
        <ele>935.8249</ele>
        <time>2020-07-11T12:20:50Z</time>
      </trkpt>
      <trkpt lat="47.06531" lon="6.64237">
        <ele>940.32965</ele>
        <time>2020-07-11T12:21:00Z</time>
      </trkpt>
      <trkpt lat="47.06516" lon="6.64238">
        <ele>941.53326</ele>
        <time>2020-07-11T12:21:05Z</time>
      </trkpt>
      <trkpt lat="47.06498" lon="6.64241">
        <ele>943.95013</ele>
        <time>2020-07-11T12:21:10Z</time>
      </trkpt>
      <trkpt lat="47.0648" lon="6.64247">
        <ele>946.42926</ele>
        <time>2020-07-11T12:21:15Z</time>
      </trkpt>
      <trkpt lat="47.06462" lon="6.64251">
        <ele>947.4544</ele>
        <time>2020-07-11T12:21:20Z</time>
      </trkpt>
      <trkpt lat="47.0644" lon="6.64252">
        <ele>948.10736</ele>
        <time>2020-07-11T12:21:25Z</time>
      </trkpt>
      <trkpt lat="47.06413" lon="6.64252">
        <ele>949.5375</ele>
        <time>2020-07-11T12:21:30Z</time>
      </trkpt>
      <trkpt lat="47.06384" lon="6.64269">
        <ele>953.58844</ele>
        <time>2020-07-11T12:21:39Z</time>
      </trkpt>
      <trkpt lat="47.06373" lon="6.64289">
        <ele>955.1546</ele>
        <time>2020-07-11T12:21:44Z</time>
      </trkpt>
      <trkpt lat="47.06365" lon="6.64306">
        <ele>956.45886</ele>
        <time>2020-07-11T12:21:49Z</time>
      </trkpt>
      <trkpt lat="47.06364" lon="6.64313">
        <ele>956.8859</ele>
        <time>2020-07-11T12:21:55Z</time>
      </trkpt>
      <trkpt lat="47.06366" lon="6.64328">
        <ele>957.3225</ele>
        <time>2020-07-11T12:23:14Z</time>
      </trkpt>
      <trkpt lat="47.06364" lon="6.64348">
        <ele>957.7864</ele>
        <time>2020-07-11T12:23:19Z</time>
      </trkpt>
      <trkpt lat="47.0636" lon="6.6439">
        <ele>961.1529</ele>
        <time>2020-07-11T12:23:29Z</time>
      </trkpt>
      <trkpt lat="47.06355" lon="6.64408">
        <ele>962.83734</ele>
        <time>2020-07-11T12:23:34Z</time>
      </trkpt>
      <trkpt lat="47.06349" lon="6.64428">
        <ele>963.12885</ele>
        <time>2020-07-11T12:23:39Z</time>
      </trkpt>
      <trkpt lat="47.0634" lon="6.64448">
        <ele>963.1825</ele>
        <time>2020-07-11T12:23:44Z</time>
      </trkpt>
      <trkpt lat="47.06328" lon="6.64468">
        <ele>963.3845</ele>
        <time>2020-07-11T12:23:49Z</time>
      </trkpt>
      <trkpt lat="47.06311" lon="6.64491">
        <ele>962.992</ele>
        <time>2020-07-11T12:23:55Z</time>
      </trkpt>
      <trkpt lat="47.06298" lon="6.6451">
        <ele>963.10986</ele>
        <time>2020-07-11T12:24:00Z</time>
      </trkpt>
      <trkpt lat="47.06271" lon="6.64552">
        <ele>963.7223</ele>
        <time>2020-07-11T12:24:10Z</time>
      </trkpt>
      <trkpt lat="47.06253" lon="6.6458">
        <ele>964.65875</ele>
        <time>2020-07-11T12:24:19Z</time>
      </trkpt>
      <trkpt lat="47.06258" lon="6.64583">
        <ele>964.7356</ele>
        <time>2020-07-11T12:24:35Z</time>
      </trkpt>
      <trkpt lat="47.06263" lon="6.64584">
        <ele>963.78436</ele>
        <time>2020-07-11T12:24:45Z</time>
      </trkpt>
      <trkpt lat="47.06273" lon="6.646">
        <ele>962.9363</ele>
        <time>2020-07-11T12:24:55Z</time>
      </trkpt>
      <trkpt lat="47.06287" lon="6.64617">
        <ele>963.8222</ele>
        <time>2020-07-11T12:25:00Z</time>
      </trkpt>
      <trkpt lat="47.063" lon="6.64633">
        <ele>962.93835</ele>
        <time>2020-07-11T12:25:05Z</time>
      </trkpt>
      <trkpt lat="47.06313" lon="6.64647">
        <ele>964.865</ele>
        <time>2020-07-11T12:25:10Z</time>
      </trkpt>
      <trkpt lat="47.06326" lon="6.64662">
        <ele>965.97205</ele>
        <time>2020-07-11T12:25:15Z</time>
      </trkpt>
      <trkpt lat="47.06339" lon="6.64679">
        <ele>967.3327</ele>
        <time>2020-07-11T12:25:20Z</time>
      </trkpt>
      <trkpt lat="47.06352" lon="6.64695">
        <ele>968.784</ele>
        <time>2020-07-11T12:25:25Z</time>
      </trkpt>
      <trkpt lat="47.06377" lon="6.6472">
        <ele>971.38055</ele>
        <time>2020-07-11T12:25:34Z</time>
      </trkpt>
      <trkpt lat="47.06395" lon="6.6473">
        <ele>972.6342</ele>
        <time>2020-07-11T12:25:40Z</time>
      </trkpt>
      <trkpt lat="47.06427" lon="6.64747">
        <ele>976.2082</ele>
        <time>2020-07-11T12:25:50Z</time>
      </trkpt>
      <trkpt lat="47.06459" lon="6.64768">
        <ele>977.33154</ele>
        <time>2020-07-11T12:26:00Z</time>
      </trkpt>
      <trkpt lat="47.0649" lon="6.64787">
        <ele>979.3057</ele>
        <time>2020-07-11T12:26:10Z</time>
      </trkpt>
      <trkpt lat="47.06505" lon="6.64795">
        <ele>980.445</ele>
        <time>2020-07-11T12:26:15Z</time>
      </trkpt>
      <trkpt lat="47.06519" lon="6.64805">
        <ele>982.22675</ele>
        <time>2020-07-11T12:26:20Z</time>
      </trkpt>
      <trkpt lat="47.06533" lon="6.64813">
        <ele>983.19556</ele>
        <time>2020-07-11T12:26:25Z</time>
      </trkpt>
      <trkpt lat="47.0654" lon="6.6483">
        <ele>985.3146</ele>
        <time>2020-07-11T12:27:09Z</time>
      </trkpt>
      <trkpt lat="47.06549" lon="6.64848">
        <ele>987.0261</ele>
        <time>2020-07-11T12:27:50Z</time>
      </trkpt>
      <trkpt lat="47.06557" lon="6.64864">
        <ele>986.6617</ele>
        <time>2020-07-11T12:27:55Z</time>
      </trkpt>
      <trkpt lat="47.06569" lon="6.64887">
        <ele>986.8491</ele>
        <time>2020-07-11T12:28:00Z</time>
      </trkpt>
      <trkpt lat="47.0658" lon="6.64906">
        <ele>987.67596</ele>
        <time>2020-07-11T12:28:05Z</time>
      </trkpt>
      <trkpt lat="47.06594" lon="6.64929">
        <ele>988.5187</ele>
        <time>2020-07-11T12:28:10Z</time>
      </trkpt>
      <trkpt lat="47.06612" lon="6.64942">
        <ele>987.70233</ele>
        <time>2020-07-11T12:28:15Z</time>
      </trkpt>
      <trkpt lat="47.06647" lon="6.64963">
        <ele>988.42596</ele>
        <time>2020-07-11T12:28:25Z</time>
      </trkpt>
      <trkpt lat="47.06663" lon="6.64977">
        <ele>987.8066</ele>
        <time>2020-07-11T12:28:30Z</time>
      </trkpt>
      <trkpt lat="47.06679" lon="6.6499">
        <ele>989.0043</ele>
        <time>2020-07-11T12:28:35Z</time>
      </trkpt>
      <trkpt lat="47.06694" lon="6.65005">
        <ele>991.03424</ele>
        <time>2020-07-11T12:28:40Z</time>
      </trkpt>
      <trkpt lat="47.06709" lon="6.65022">
        <ele>991.49774</ele>
        <time>2020-07-11T12:28:45Z</time>
      </trkpt>
      <trkpt lat="47.06722" lon="6.65041">
        <ele>993.9515</ele>
        <time>2020-07-11T12:28:50Z</time>
      </trkpt>
      <trkpt lat="47.06746" lon="6.65071">
        <ele>996.88916</ele>
        <time>2020-07-11T12:28:59Z</time>
      </trkpt>
      <trkpt lat="47.06759" lon="6.65089">
        <ele>998.00824</ele>
        <time>2020-07-11T12:29:04Z</time>
      </trkpt>
      <trkpt lat="47.06771" lon="6.65104">
        <ele>998.4772</ele>
        <time>2020-07-11T12:29:09Z</time>
      </trkpt>
      <trkpt lat="47.06784" lon="6.65121">
        <ele>999.2012</ele>
        <time>2020-07-11T12:29:14Z</time>
      </trkpt>
      <trkpt lat="47.06797" lon="6.65142">
        <ele>1000.38574</ele>
        <time>2020-07-11T12:29:19Z</time>
      </trkpt>
      <trkpt lat="47.06809" lon="6.6516">
        <ele>1000.85474</ele>
        <time>2020-07-11T12:29:24Z</time>
      </trkpt>
      <trkpt lat="47.06824" lon="6.6518">
        <ele>1002.07837</ele>
        <time>2020-07-11T12:29:29Z</time>
      </trkpt>
      <trkpt lat="47.06837" lon="6.65197">
        <ele>1002.44727</ele>
        <time>2020-07-11T12:29:34Z</time>
      </trkpt>
      <trkpt lat="47.06853" lon="6.65212">
        <ele>1004.1738</ele>
        <time>2020-07-11T12:29:39Z</time>
      </trkpt>
      <trkpt lat="47.06869" lon="6.65229">
        <ele>1004.4932</ele>
        <time>2020-07-11T12:29:44Z</time>
      </trkpt>
      <trkpt lat="47.06883" lon="6.65245">
        <ele>1004.5491</ele>
        <time>2020-07-11T12:29:49Z</time>
      </trkpt>
      <trkpt lat="47.06899" lon="6.65262">
        <ele>1005.7265</ele>
        <time>2020-07-11T12:29:55Z</time>
      </trkpt>
      <trkpt lat="47.06909" lon="6.65278">
        <ele>1005.4851</ele>
        <time>2020-07-11T12:30:00Z</time>
      </trkpt>
      <trkpt lat="47.06925" lon="6.65297">
        <ele>1005.79504</ele>
        <time>2020-07-11T12:30:05Z</time>
      </trkpt>
      <trkpt lat="47.0694" lon="6.65313">
        <ele>1005.9964</ele>
        <time>2020-07-11T12:30:10Z</time>
      </trkpt>
      <trkpt lat="47.06955" lon="6.6533">
        <ele>1005.7086</ele>
        <time>2020-07-11T12:30:15Z</time>
      </trkpt>
      <trkpt lat="47.06968" lon="6.65346">
        <ele>1005.67487</ele>
        <time>2020-07-11T12:30:20Z</time>
      </trkpt>
      <trkpt lat="47.06995" lon="6.65386">
        <ele>1003.6352</ele>
        <time>2020-07-11T12:30:29Z</time>
      </trkpt>
      <trkpt lat="47.07011" lon="6.65415">
        <ele>1002.1142</ele>
        <time>2020-07-11T12:30:34Z</time>
      </trkpt>
      <trkpt lat="47.07021" lon="6.65438">
        <ele>1001.73376</ele>
        <time>2020-07-11T12:30:39Z</time>
      </trkpt>
      <trkpt lat="47.07027" lon="6.65451">
        <ele>1002.51263</ele>
        <time>2020-07-11T12:30:44Z</time>
      </trkpt>
      <trkpt lat="47.07036" lon="6.65459">
        <ele>1002.85516</ele>
        <time>2020-07-11T12:30:50Z</time>
      </trkpt>
      <trkpt lat="47.07072" lon="6.65477">
        <ele>1007.1908</ele>
        <time>2020-07-11T12:31:04Z</time>
      </trkpt>
      <trkpt lat="47.07089" lon="6.6549">
        <ele>1008.7416</ele>
        <time>2020-07-11T12:31:09Z</time>
      </trkpt>
      <trkpt lat="47.07104" lon="6.65498">
        <ele>1012.221</ele>
        <time>2020-07-11T12:31:14Z</time>
      </trkpt>
      <trkpt lat="47.0712" lon="6.6551">
        <ele>1012.8126</ele>
        <time>2020-07-11T12:31:19Z</time>
      </trkpt>
      <trkpt lat="47.0714" lon="6.65523">
        <ele>1013.0151</ele>
        <time>2020-07-11T12:31:25Z</time>
      </trkpt>
      <trkpt lat="47.07171" lon="6.65524">
        <ele>1017.6036</ele>
        <time>2020-07-11T12:31:35Z</time>
      </trkpt>
      <trkpt lat="47.07194" lon="6.65481">
        <ele>1021.16034</ele>
        <time>2020-07-11T12:31:45Z</time>
      </trkpt>
      <trkpt lat="47.07203" lon="6.65454">
        <ele>1022.93256</ele>
        <time>2020-07-11T12:31:50Z</time>
      </trkpt>
      <trkpt lat="47.07225" lon="6.65414">
        <ele>1023.9601</ele>
        <time>2020-07-11T12:32:00Z</time>
      </trkpt>
      <trkpt lat="47.07254" lon="6.65371">
        <ele>1023.9443</ele>
        <time>2020-07-11T12:32:09Z</time>
      </trkpt>
      <trkpt lat="47.0727" lon="6.65348">
        <ele>1025.071</ele>
        <time>2020-07-11T12:32:14Z</time>
      </trkpt>
      <trkpt lat="47.07285" lon="6.65324">
        <ele>1025.8529</ele>
        <time>2020-07-11T12:32:19Z</time>
      </trkpt>
      <trkpt lat="47.073" lon="6.65302">
        <ele>1027.1675</ele>
        <time>2020-07-11T12:32:24Z</time>
      </trkpt>
      <trkpt lat="47.07315" lon="6.65279">
        <ele>1027.9283</ele>
        <time>2020-07-11T12:32:29Z</time>
      </trkpt>
      <trkpt lat="47.07348" lon="6.65244">
        <ele>1031.0192</ele>
        <time>2020-07-11T12:32:39Z</time>
      </trkpt>
      <trkpt lat="47.0737" lon="6.65242">
        <ele>1032.065</ele>
        <time>2020-07-11T12:32:44Z</time>
      </trkpt>
      <trkpt lat="47.07392" lon="6.65244">
        <ele>1033.6027</ele>
        <time>2020-07-11T12:32:49Z</time>
      </trkpt>
      <trkpt lat="47.0741" lon="6.65253">
        <ele>1035.1405</ele>
        <time>2020-07-11T12:32:54Z</time>
      </trkpt>
      <trkpt lat="47.07423" lon="6.65276">
        <ele>1037.3699</ele>
        <time>2020-07-11T12:32:59Z</time>
      </trkpt>
      <trkpt lat="47.07433" lon="6.65309">
        <ele>1038.7697</ele>
        <time>2020-07-11T12:33:04Z</time>
      </trkpt>
      <trkpt lat="47.07441" lon="6.65346">
        <ele>1040.1251</ele>
        <time>2020-07-11T12:33:10Z</time>
      </trkpt>
      <trkpt lat="47.07448" lon="6.6538">
        <ele>1040.8462</ele>
        <time>2020-07-11T12:33:15Z</time>
      </trkpt>
      <trkpt lat="47.07457" lon="6.65412">
        <ele>1041.9105</ele>
        <time>2020-07-11T12:33:20Z</time>
      </trkpt>
      <trkpt lat="47.07467" lon="6.65443">
        <ele>1043.0317</ele>
        <time>2020-07-11T12:33:25Z</time>
      </trkpt>
      <trkpt lat="47.07475" lon="6.65472">
        <ele>1043.4141</ele>
        <time>2020-07-11T12:33:30Z</time>
      </trkpt>
      <trkpt lat="47.0749" lon="6.65531">
        <ele>1044.054</ele>
        <time>2020-07-11T12:33:39Z</time>
      </trkpt>
      <trkpt lat="47.07505" lon="6.65565">
        <ele>1045.96</ele>
        <time>2020-07-11T12:33:45Z</time>
      </trkpt>
      <trkpt lat="47.07518" lon="6.65588">
        <ele>1047.9453</ele>
        <time>2020-07-11T12:33:50Z</time>
      </trkpt>
      <trkpt lat="47.07528" lon="6.65607">
        <ele>1048.6423</ele>
        <time>2020-07-11T12:33:55Z</time>
      </trkpt>
      <trkpt lat="47.07535" lon="6.65608">
        <ele>1050.1262</ele>
        <time>2020-07-11T12:34:00Z</time>
      </trkpt>
      <trkpt lat="47.07555" lon="6.65585">
        <ele>1051.6715</ele>
        <time>2020-07-11T12:34:10Z</time>
      </trkpt>
      <trkpt lat="47.07541" lon="6.65587">
        <ele>1049.5464</ele>
        <time>2020-07-11T12:34:20Z</time>
      </trkpt>
      <trkpt lat="47.07534" lon="6.65607">
        <ele>1048.9666</ele>
        <time>2020-07-11T12:34:25Z</time>
      </trkpt>
      <trkpt lat="47.07544" lon="6.65637">
        <ele>1049.0986</ele>
        <time>2020-07-11T12:34:30Z</time>
      </trkpt>
      <trkpt lat="47.07552" lon="6.65659">
        <ele>1048.5831</ele>
        <time>2020-07-11T12:34:35Z</time>
      </trkpt>
      <trkpt lat="47.07548" lon="6.65672">
        <ele>1047.2926</ele>
        <time>2020-07-11T12:34:45Z</time>
      </trkpt>
      <trkpt lat="47.07544" lon="6.65678">
        <ele>1046.7372</ele>
        <time>2020-07-11T12:34:50Z</time>
      </trkpt>
      <trkpt lat="47.07536" lon="6.65694">
        <ele>1045.737</ele>
        <time>2020-07-11T12:34:55Z</time>
      </trkpt>
      <trkpt lat="47.07522" lon="6.65703">
        <ele>1041.3308</ele>
        <time>2020-07-11T12:35:00Z</time>
      </trkpt>
      <trkpt lat="47.07508" lon="6.65708">
        <ele>1041.165</ele>
        <time>2020-07-11T12:35:05Z</time>
      </trkpt>
      <trkpt lat="47.07489" lon="6.65716">
        <ele>1037.9758</ele>
        <time>2020-07-11T12:35:10Z</time>
      </trkpt>
      <trkpt lat="47.07468" lon="6.6574">
        <ele>1035.3157</ele>
        <time>2020-07-11T12:35:20Z</time>
      </trkpt>
      <trkpt lat="47.07459" lon="6.65772">
        <ele>1034.9199</ele>
        <time>2020-07-11T12:35:29Z</time>
      </trkpt>
      <trkpt lat="47.0746" lon="6.65789">
        <ele>1032.8787</ele>
        <time>2020-07-11T12:35:34Z</time>
      </trkpt>
      <trkpt lat="47.07463" lon="6.6581">
        <ele>1031.397</ele>
        <time>2020-07-11T12:35:39Z</time>
      </trkpt>
      <trkpt lat="47.0746" lon="6.65843">
        <ele>1030.3088</ele>
        <time>2020-07-11T12:35:45Z</time>
      </trkpt>
      <trkpt lat="47.07465" lon="6.65869">
        <ele>1031.3452</ele>
        <time>2020-07-11T12:35:50Z</time>
      </trkpt>
      <trkpt lat="47.07475" lon="6.65913">
        <ele>1030.7827</ele>
        <time>2020-07-11T12:35:59Z</time>
      </trkpt>
      <trkpt lat="47.07467" lon="6.6594">
        <ele>1029.3877</ele>
        <time>2020-07-11T12:36:04Z</time>
      </trkpt>
      <trkpt lat="47.07465" lon="6.65976">
        <ele>1028.9529</ele>
        <time>2020-07-11T12:36:10Z</time>
      </trkpt>
      <trkpt lat="47.07468" lon="6.66001">
        <ele>1028.7229</ele>
        <time>2020-07-11T12:36:15Z</time>
      </trkpt>
      <trkpt lat="47.07474" lon="6.66043">
        <ele>1022.2015</ele>
        <time>2020-07-11T12:36:24Z</time>
      </trkpt>
      <trkpt lat="47.0748" lon="6.66063">
        <ele>1020.26685</ele>
        <time>2020-07-11T12:36:29Z</time>
      </trkpt>
      <trkpt lat="47.07484" lon="6.66087">
        <ele>1018.9695</ele>
        <time>2020-07-11T12:36:34Z</time>
      </trkpt>
      <trkpt lat="47.07489" lon="6.66108">
        <ele>1017.91473</ele>
        <time>2020-07-11T12:36:39Z</time>
      </trkpt>
      <trkpt lat="47.07495" lon="6.66135">
        <ele>1015.5871</ele>
        <time>2020-07-11T12:36:44Z</time>
      </trkpt>
      <trkpt lat="47.07499" lon="6.66163">
        <ele>1014.67065</ele>
        <time>2020-07-11T12:36:50Z</time>
      </trkpt>
      <trkpt lat="47.07499" lon="6.66183">
        <ele>1012.6702</ele>
        <time>2020-07-11T12:36:55Z</time>
      </trkpt>
      <trkpt lat="47.07499" lon="6.66208">
        <ele>1011.28577</ele>
        <time>2020-07-11T12:37:00Z</time>
      </trkpt>
      <trkpt lat="47.07499" lon="6.66233">
        <ele>1011.3037</ele>
        <time>2020-07-11T12:37:05Z</time>
      </trkpt>
      <trkpt lat="47.075" lon="6.66259">
        <ele>1009.88025</ele>
        <time>2020-07-11T12:37:10Z</time>
      </trkpt>
      <trkpt lat="47.07498" lon="6.66308">
        <ele>1006.72797</ele>
        <time>2020-07-11T12:37:19Z</time>
      </trkpt>
      <trkpt lat="47.07497" lon="6.66337">
        <ele>1004.8579</ele>
        <time>2020-07-11T12:37:25Z</time>
      </trkpt>
      <trkpt lat="47.07497" lon="6.66365">
        <ele>1003.6046</ele>
        <time>2020-07-11T12:37:30Z</time>
      </trkpt>
      <trkpt lat="47.07501" lon="6.66394">
        <ele>1001.9045</ele>
        <time>2020-07-11T12:37:35Z</time>
      </trkpt>
      <trkpt lat="47.07502" lon="6.66415">
        <ele>998.2696</ele>
        <time>2020-07-11T12:37:40Z</time>
      </trkpt>
      <trkpt lat="47.07503" lon="6.66436">
        <ele>998.4298</ele>
        <time>2020-07-11T12:37:45Z</time>
      </trkpt>
      <trkpt lat="47.07507" lon="6.6648">
        <ele>996.0093</ele>
        <time>2020-07-11T12:37:54Z</time>
      </trkpt>
      <trkpt lat="47.0751" lon="6.66496">
        <ele>995.6131</ele>
        <time>2020-07-11T12:37:59Z</time>
      </trkpt>
      <trkpt lat="47.07535" lon="6.66539">
        <ele>995.4466</ele>
        <time>2020-07-11T12:38:50Z</time>
      </trkpt>
      <trkpt lat="47.07546" lon="6.66549">
        <ele>996.01666</ele>
        <time>2020-07-11T12:38:55Z</time>
      </trkpt>
      <trkpt lat="47.07561" lon="6.66562">
        <ele>997.3381</ele>
        <time>2020-07-11T12:39:00Z</time>
      </trkpt>
      <trkpt lat="47.07571" lon="6.66571">
        <ele>998.5299</ele>
        <time>2020-07-11T12:39:05Z</time>
      </trkpt>
      <trkpt lat="47.07582" lon="6.66576">
        <ele>998.30225</ele>
        <time>2020-07-11T12:39:10Z</time>
      </trkpt>
      <trkpt lat="47.07623" lon="6.66581">
        <ele>1004.72723</ele>
        <time>2020-07-11T12:40:00Z</time>
      </trkpt>
      <trkpt lat="47.07634" lon="6.66587">
        <ele>1005.8815</ele>
        <time>2020-07-11T12:40:05Z</time>
      </trkpt>
      <trkpt lat="47.07647" lon="6.66594">
        <ele>1008.50226</ele>
        <time>2020-07-11T12:40:10Z</time>
      </trkpt>
      <trkpt lat="47.07671" lon="6.66604">
        <ele>1009.8318</ele>
        <time>2020-07-11T12:40:19Z</time>
      </trkpt>
      <trkpt lat="47.07685" lon="6.66613">
        <ele>1012.355</ele>
        <time>2020-07-11T12:40:24Z</time>
      </trkpt>
      <trkpt lat="47.07708" lon="6.66624">
        <ele>1014.07697</ele>
        <time>2020-07-11T12:40:30Z</time>
      </trkpt>
      <trkpt lat="47.07724" lon="6.66633">
        <ele>1016.8305</ele>
        <time>2020-07-11T12:40:35Z</time>
      </trkpt>
      <trkpt lat="47.07737" lon="6.66644">
        <ele>1019.1456</ele>
        <time>2020-07-11T12:40:40Z</time>
      </trkpt>
      <trkpt lat="47.07758" lon="6.66659">
        <ele>1023.5961</ele>
        <time>2020-07-11T12:40:49Z</time>
      </trkpt>
      <trkpt lat="47.07771" lon="6.66672">
        <ele>1024.4286</ele>
        <time>2020-07-11T12:40:54Z</time>
      </trkpt>
      <trkpt lat="47.07782" lon="6.66677">
        <ele>1027.2435</ele>
        <time>2020-07-11T12:40:59Z</time>
      </trkpt>
      <trkpt lat="47.07791" lon="6.66668">
        <ele>1028.67</ele>
        <time>2020-07-11T12:41:04Z</time>
      </trkpt>
      <trkpt lat="47.07794" lon="6.66649">
        <ele>1031.6628</ele>
        <time>2020-07-11T12:41:09Z</time>
      </trkpt>
      <trkpt lat="47.07797" lon="6.66625">
        <ele>1034.5009</ele>
        <time>2020-07-11T12:41:15Z</time>
      </trkpt>
      <trkpt lat="47.07801" lon="6.66606">
        <ele>1036.3892</ele>
        <time>2020-07-11T12:41:20Z</time>
      </trkpt>
      <trkpt lat="47.07808" lon="6.6659">
        <ele>1038.6145</ele>
        <time>2020-07-11T12:41:25Z</time>
      </trkpt>
      <trkpt lat="47.07813" lon="6.66577">
        <ele>1040.5907</ele>
        <time>2020-07-11T12:41:30Z</time>
      </trkpt>
      <trkpt lat="47.07824" lon="6.66574">
        <ele>1041.125</ele>
        <time>2020-07-11T12:41:35Z</time>
      </trkpt>
      <trkpt lat="47.07848" lon="6.66549">
        <ele>1044.0983</ele>
        <time>2020-07-11T12:41:49Z</time>
      </trkpt>
      <trkpt lat="47.07861" lon="6.66532">
        <ele>1045.1594</ele>
        <time>2020-07-11T12:41:55Z</time>
      </trkpt>
      <trkpt lat="47.07878" lon="6.66504">
        <ele>1046.168</ele>
        <time>2020-07-11T12:42:04Z</time>
      </trkpt>
      <trkpt lat="47.07889" lon="6.66488">
        <ele>1047.4004</ele>
        <time>2020-07-11T12:42:09Z</time>
      </trkpt>
      <trkpt lat="47.07901" lon="6.66471">
        <ele>1048.146</ele>
        <time>2020-07-11T12:42:14Z</time>
      </trkpt>
      <trkpt lat="47.07914" lon="6.66455">
        <ele>1048.8103</ele>
        <time>2020-07-11T12:42:19Z</time>
      </trkpt>
      <trkpt lat="47.07935" lon="6.66439">
        <ele>1047.0117</ele>
        <time>2020-07-11T12:42:25Z</time>
      </trkpt>
      <trkpt lat="47.07962" lon="6.66431">
        <ele>1043.7667</ele>
        <time>2020-07-11T12:42:34Z</time>
      </trkpt>
      <trkpt lat="47.07975" lon="6.66418">
        <ele>1043.2567</ele>
        <time>2020-07-11T12:42:39Z</time>
      </trkpt>
      <trkpt lat="47.07992" lon="6.664">
        <ele>1043.2377</ele>
        <time>2020-07-11T12:42:44Z</time>
      </trkpt>
      <trkpt lat="47.08006" lon="6.66381">
        <ele>1042.8016</ele>
        <time>2020-07-11T12:42:49Z</time>
      </trkpt>
      <trkpt lat="47.08024" lon="6.66361">
        <ele>1042.7372</ele>
        <time>2020-07-11T12:42:54Z</time>
      </trkpt>
      <trkpt lat="47.08039" lon="6.66332">
        <ele>1043.4795</ele>
        <time>2020-07-11T12:43:00Z</time>
      </trkpt>
      <trkpt lat="47.08051" lon="6.66309">
        <ele>1044.2979</ele>
        <time>2020-07-11T12:43:05Z</time>
      </trkpt>
      <trkpt lat="47.08065" lon="6.66288">
        <ele>1044.1775</ele>
        <time>2020-07-11T12:43:10Z</time>
      </trkpt>
      <trkpt lat="47.0808" lon="6.66266">
        <ele>1044.4266</ele>
        <time>2020-07-11T12:43:15Z</time>
      </trkpt>
      <trkpt lat="47.08091" lon="6.66241">
        <ele>1045.9325</ele>
        <time>2020-07-11T12:43:20Z</time>
      </trkpt>
      <trkpt lat="47.08109" lon="6.66187">
        <ele>1047.036</ele>
        <time>2020-07-11T12:43:30Z</time>
      </trkpt>
      <trkpt lat="47.08118" lon="6.66161">
        <ele>1047.0392</ele>
        <time>2020-07-11T12:43:35Z</time>
      </trkpt>
      <trkpt lat="47.08124" lon="6.66148">
        <ele>1046.8955</ele>
        <time>2020-07-11T12:43:40Z</time>
      </trkpt>
      <trkpt lat="47.08128" lon="6.66139">
        <ele>1046.8501</ele>
        <time>2020-07-11T12:43:45Z</time>
      </trkpt>
      <trkpt lat="47.08138" lon="6.66104">
        <ele>1047.3793</ele>
        <time>2020-07-11T12:46:14Z</time>
      </trkpt>
      <trkpt lat="47.08154" lon="6.66096">
        <ele>1048.0087</ele>
        <time>2020-07-11T12:46:19Z</time>
      </trkpt>
      <trkpt lat="47.08169" lon="6.66086">
        <ele>1048.9518</ele>
        <time>2020-07-11T12:46:24Z</time>
      </trkpt>
      <trkpt lat="47.08189" lon="6.66071">
        <ele>1048.5885</ele>
        <time>2020-07-11T12:46:29Z</time>
      </trkpt>
      <trkpt lat="47.08212" lon="6.66055">
        <ele>1046.2355</ele>
        <time>2020-07-11T12:46:34Z</time>
      </trkpt>
      <trkpt lat="47.08246" lon="6.66056">
        <ele>1044.5734</ele>
        <time>2020-07-11T12:46:40Z</time>
      </trkpt>
      <trkpt lat="47.08264" lon="6.66063">
        <ele>1044.1226</ele>
        <time>2020-07-11T12:46:45Z</time>
      </trkpt>
      <trkpt lat="47.08281" lon="6.66097">
        <ele>1043.9282</ele>
        <time>2020-07-11T12:46:54Z</time>
      </trkpt>
      <trkpt lat="47.08303" lon="6.66123">
        <ele>1043.7551</ele>
        <time>2020-07-11T12:46:59Z</time>
      </trkpt>
      <trkpt lat="47.08325" lon="6.66154">
        <ele>1044.4362</ele>
        <time>2020-07-11T12:47:04Z</time>
      </trkpt>
      <trkpt lat="47.08348" lon="6.66184">
        <ele>1044.8226</ele>
        <time>2020-07-11T12:47:10Z</time>
      </trkpt>
      <trkpt lat="47.0837" lon="6.66206">
        <ele>1045.4087</ele>
        <time>2020-07-11T12:47:15Z</time>
      </trkpt>
      <trkpt lat="47.08395" lon="6.66217">
        <ele>1046.3274</ele>
        <time>2020-07-11T12:47:20Z</time>
      </trkpt>
      <trkpt lat="47.08424" lon="6.66222">
        <ele>1047.5344</ele>
        <time>2020-07-11T12:47:25Z</time>
      </trkpt>
      <trkpt lat="47.08453" lon="6.66228">
        <ele>1046.828</ele>
        <time>2020-07-11T12:47:30Z</time>
      </trkpt>
      <trkpt lat="47.08479" lon="6.66244">
        <ele>1048.3392</ele>
        <time>2020-07-11T12:47:35Z</time>
      </trkpt>
      <trkpt lat="47.08518" lon="6.66281">
        <ele>1051.2649</ele>
        <time>2020-07-11T12:47:45Z</time>
      </trkpt>
      <trkpt lat="47.08524" lon="6.6631">
        <ele>1053.0288</ele>
        <time>2020-07-11T12:47:50Z</time>
      </trkpt>
      <trkpt lat="47.08536" lon="6.66381">
        <ele>1055.0011</ele>
        <time>2020-07-11T12:48:00Z</time>
      </trkpt>
      <trkpt lat="47.08555" lon="6.66447">
        <ele>1056.5869</ele>
        <time>2020-07-11T12:48:09Z</time>
      </trkpt>
      <trkpt lat="47.08569" lon="6.66487">
        <ele>1055.6012</ele>
        <time>2020-07-11T12:48:14Z</time>
      </trkpt>
      <trkpt lat="47.08585" lon="6.66528">
        <ele>1055.6149</ele>
        <time>2020-07-11T12:48:19Z</time>
      </trkpt>
      <trkpt lat="47.086" lon="6.66568">
        <ele>1055.6677</ele>
        <time>2020-07-11T12:48:24Z</time>
      </trkpt>
      <trkpt lat="47.08617" lon="6.66606">
        <ele>1056.5679</ele>
        <time>2020-07-11T12:48:29Z</time>
      </trkpt>
      <trkpt lat="47.08645" lon="6.66639">
        <ele>1057.5579</ele>
        <time>2020-07-11T12:48:35Z</time>
      </trkpt>
      <trkpt lat="47.08671" lon="6.66657">
        <ele>1059.3497</ele>
        <time>2020-07-11T12:48:40Z</time>
      </trkpt>
      <trkpt lat="47.08694" lon="6.66676">
        <ele>1059.8792</ele>
        <time>2020-07-11T12:48:45Z</time>
      </trkpt>
      <trkpt lat="47.08718" lon="6.66696">
        <ele>1060.9412</ele>
        <time>2020-07-11T12:48:50Z</time>
      </trkpt>
      <trkpt lat="47.08743" lon="6.66708">
        <ele>1062.5483</ele>
        <time>2020-07-11T12:48:55Z</time>
      </trkpt>
      <trkpt lat="47.08762" lon="6.66739">
        <ele>1063.7849</ele>
        <time>2020-07-11T12:49:00Z</time>
      </trkpt>
      <trkpt lat="47.08774" lon="6.66777">
        <ele>1063.2649</ele>
        <time>2020-07-11T12:49:05Z</time>
      </trkpt>
      <trkpt lat="47.08783" lon="6.66812">
        <ele>1064.0343</ele>
        <time>2020-07-11T12:49:10Z</time>
      </trkpt>
      <trkpt lat="47.08793" lon="6.66836">
        <ele>1065.1398</ele>
        <time>2020-07-11T12:49:15Z</time>
      </trkpt>
      <trkpt lat="47.08804" lon="6.66862">
        <ele>1066.2506</ele>
        <time>2020-07-11T12:49:20Z</time>
      </trkpt>
      <trkpt lat="47.08809" lon="6.66887">
        <ele>1066.5338</ele>
        <time>2020-07-11T12:49:25Z</time>
      </trkpt>
      <trkpt lat="47.08811" lon="6.66911">
        <ele>1066.2643</ele>
        <time>2020-07-11T12:49:30Z</time>
      </trkpt>
      <trkpt lat="47.08823" lon="6.66973">
        <ele>1064.7604</ele>
        <time>2020-07-11T12:49:39Z</time>
      </trkpt>
      <trkpt lat="47.08831" lon="6.67003">
        <ele>1062.654</ele>
        <time>2020-07-11T12:49:44Z</time>
      </trkpt>
      <trkpt lat="47.08847" lon="6.67031">
        <ele>1062.1267</ele>
        <time>2020-07-11T12:49:49Z</time>
      </trkpt>
      <trkpt lat="47.0887" lon="6.67069">
        <ele>1060.3884</ele>
        <time>2020-07-11T12:49:55Z</time>
      </trkpt>
      <trkpt lat="47.08887" lon="6.67106">
        <ele>1059.9542</ele>
        <time>2020-07-11T12:50:00Z</time>
      </trkpt>
      <trkpt lat="47.089" lon="6.67176">
        <ele>1061.6512</ele>
        <time>2020-07-11T12:50:09Z</time>
      </trkpt>
      <trkpt lat="47.08909" lon="6.67198">
        <ele>1062.2515</ele>
        <time>2020-07-11T12:50:14Z</time>
      </trkpt>
      <trkpt lat="47.08916" lon="6.67206">
        <ele>1062.4882</ele>
        <time>2020-07-11T12:50:20Z</time>
      </trkpt>
      <trkpt lat="47.08915" lon="6.67212">
        <ele>1062.763</ele>
        <time>2020-07-11T12:50:39Z</time>
      </trkpt>
      <trkpt lat="47.0892" lon="6.67207">
        <ele>1062.8358</ele>
        <time>2020-07-11T12:50:49Z</time>
      </trkpt>
      <trkpt lat="47.08932" lon="6.67195">
        <ele>1063.4255</ele>
        <time>2020-07-11T12:50:54Z</time>
      </trkpt>
      <trkpt lat="47.0895" lon="6.67184">
        <ele>1063.8292</ele>
        <time>2020-07-11T12:51:00Z</time>
      </trkpt>
      <trkpt lat="47.08968" lon="6.67173">
        <ele>1062.763</ele>
        <time>2020-07-11T12:51:05Z</time>
      </trkpt>
      <trkpt lat="47.0898" lon="6.6716">
        <ele>1062.188</ele>
        <time>2020-07-11T12:51:10Z</time>
      </trkpt>
      <trkpt lat="47.08997" lon="6.67148">
        <ele>1063.7426</ele>
        <time>2020-07-11T12:51:15Z</time>
      </trkpt>
      <trkpt lat="47.09015" lon="6.67137">
        <ele>1063.08</ele>
        <time>2020-07-11T12:51:20Z</time>
      </trkpt>
      <trkpt lat="47.0905" lon="6.67081">
        <ele>1061.7759</ele>
        <time>2020-07-11T12:51:30Z</time>
      </trkpt>
      <trkpt lat="47.09056" lon="6.6704">
        <ele>1066.5106</ele>
        <time>2020-07-11T12:51:39Z</time>
      </trkpt>
      <trkpt lat="47.09066" lon="6.67029">
        <ele>1066.2917</ele>
        <time>2020-07-11T12:51:44Z</time>
      </trkpt>
      <trkpt lat="47.09086" lon="6.67017">
        <ele>1070.5094</ele>
        <time>2020-07-11T12:51:50Z</time>
      </trkpt>
      <trkpt lat="47.09098" lon="6.67">
        <ele>1072.7612</ele>
        <time>2020-07-11T12:51:55Z</time>
      </trkpt>
      <trkpt lat="47.09107" lon="6.66981">
        <ele>1073.1387</ele>
        <time>2020-07-11T12:52:00Z</time>
      </trkpt>
      <trkpt lat="47.09121" lon="6.66969">
        <ele>1074.6527</ele>
        <time>2020-07-11T12:52:05Z</time>
      </trkpt>
      <trkpt lat="47.0913" lon="6.66961">
        <ele>1074.5829</ele>
        <time>2020-07-11T12:52:10Z</time>
      </trkpt>
      <trkpt lat="47.09139" lon="6.66963">
        <ele>1074.4656</ele>
        <time>2020-07-11T12:52:15Z</time>
      </trkpt>
      <trkpt lat="47.09145" lon="6.66964">
        <ele>1074.474</ele>
        <time>2020-07-11T12:52:20Z</time>
      </trkpt>
      <trkpt lat="47.09157" lon="6.66967">
        <ele>1074.4783</ele>
        <time>2020-07-11T12:52:25Z</time>
      </trkpt>
      <trkpt lat="47.09171" lon="6.6696">
        <ele>1073.8829</ele>
        <time>2020-07-11T12:52:30Z</time>
      </trkpt>
      <trkpt lat="47.09183" lon="6.66961">
        <ele>1073.792</ele>
        <time>2020-07-11T12:52:35Z</time>
      </trkpt>
      <trkpt lat="47.09192" lon="6.66982">
        <ele>1070.5791</ele>
        <time>2020-07-11T12:52:49Z</time>
      </trkpt>
      <trkpt lat="47.09194" lon="6.66993">
        <ele>1067.6384</ele>
        <time>2020-07-11T12:52:54Z</time>
      </trkpt>
      <trkpt lat="47.09194" lon="6.67005">
        <ele>1066.3373</ele>
        <time>2020-07-11T12:52:59Z</time>
      </trkpt>
      <trkpt lat="47.09195" lon="6.67021">
        <ele>1066.1649</ele>
        <time>2020-07-11T12:53:04Z</time>
      </trkpt>
      <trkpt lat="47.09197" lon="6.67036">
        <ele>1066.7421</ele>
        <time>2020-07-11T12:53:09Z</time>
      </trkpt>
      <trkpt lat="47.09201" lon="6.67072">
        <ele>1070.0104</ele>
        <time>2020-07-11T12:53:19Z</time>
      </trkpt>
      <trkpt lat="47.09199" lon="6.67087">
        <ele>1070.7716</ele>
        <time>2020-07-11T12:53:24Z</time>
      </trkpt>
      <trkpt lat="47.09212" lon="6.67093">
        <ele>1069.7324</ele>
        <time>2020-07-11T12:53:34Z</time>
      </trkpt>
      <trkpt lat="47.09223" lon="6.67092">
        <ele>1066.1459</ele>
        <time>2020-07-11T12:53:39Z</time>
      </trkpt>
      <trkpt lat="47.09238" lon="6.67087">
        <ele>1066.5624</ele>
        <time>2020-07-11T12:53:44Z</time>
      </trkpt>
      <trkpt lat="47.09258" lon="6.67088">
        <ele>1062.9246</ele>
        <time>2020-07-11T12:53:50Z</time>
      </trkpt>
      <trkpt lat="47.09274" lon="6.67091">
        <ele>1061.2444</ele>
        <time>2020-07-11T12:53:55Z</time>
      </trkpt>
      <trkpt lat="47.09296" lon="6.6709">
        <ele>1059.1606</ele>
        <time>2020-07-11T12:54:00Z</time>
      </trkpt>
      <trkpt lat="47.0932" lon="6.67084">
        <ele>1056.8816</ele>
        <time>2020-07-11T12:54:05Z</time>
      </trkpt>
      <trkpt lat="47.09347" lon="6.6708">
        <ele>1055.7333</ele>
        <time>2020-07-11T12:54:10Z</time>
      </trkpt>
      <trkpt lat="47.09371" lon="6.67083">
        <ele>1055.4998</ele>
        <time>2020-07-11T12:54:15Z</time>
      </trkpt>
      <trkpt lat="47.09398" lon="6.67083">
        <ele>1055.1014</ele>
        <time>2020-07-11T12:54:25Z</time>
      </trkpt>
      <trkpt lat="47.09432" lon="6.67079">
        <ele>1054.4624</ele>
        <time>2020-07-11T12:54:55Z</time>
      </trkpt>
      <trkpt lat="47.09456" lon="6.67089">
        <ele>1055.6202</ele>
        <time>2020-07-11T12:55:40Z</time>
      </trkpt>
      <trkpt lat="47.09459" lon="6.67107">
        <ele>1056.6217</ele>
        <time>2020-07-11T12:55:45Z</time>
      </trkpt>
      <trkpt lat="47.09464" lon="6.67122">
        <ele>1056.852</ele>
        <time>2020-07-11T12:55:50Z</time>
      </trkpt>
      <trkpt lat="47.09469" lon="6.67137">
        <ele>1057.5663</ele>
        <time>2020-07-11T12:55:55Z</time>
      </trkpt>
      <trkpt lat="47.09477" lon="6.67156">
        <ele>1058.5468</ele>
        <time>2020-07-11T12:56:00Z</time>
      </trkpt>
      <trkpt lat="47.09486" lon="6.67176">
        <ele>1059.15</ele>
        <time>2020-07-11T12:56:05Z</time>
      </trkpt>
      <trkpt lat="47.09493" lon="6.67194">
        <ele>1059.7301</ele>
        <time>2020-07-11T12:56:10Z</time>
      </trkpt>
      <trkpt lat="47.095" lon="6.67214">
        <ele>1060.1031</ele>
        <time>2020-07-11T12:56:15Z</time>
      </trkpt>
      <trkpt lat="47.09509" lon="6.6724">
        <ele>1060.5713</ele>
        <time>2020-07-11T12:56:20Z</time>
      </trkpt>
      <trkpt lat="47.09517" lon="6.67266">
        <ele>1060.53</ele>
        <time>2020-07-11T12:56:25Z</time>
      </trkpt>
      <trkpt lat="47.09524" lon="6.6731">
        <ele>1062.0327</ele>
        <time>2020-07-11T12:56:34Z</time>
      </trkpt>
      <trkpt lat="47.09531" lon="6.67336">
        <ele>1062.3899</ele>
        <time>2020-07-11T12:56:39Z</time>
      </trkpt>
      <trkpt lat="47.09534" lon="6.67361">
        <ele>1062.9912</ele>
        <time>2020-07-11T12:56:44Z</time>
      </trkpt>
      <trkpt lat="47.09538" lon="6.67395">
        <ele>1062.4332</ele>
        <time>2020-07-11T12:56:50Z</time>
      </trkpt>
      <trkpt lat="47.09547" lon="6.6744">
        <ele>1060.9823</ele>
        <time>2020-07-11T12:56:55Z</time>
      </trkpt>
      <trkpt lat="47.09568" lon="6.6749">
        <ele>1057.7543</ele>
        <time>2020-07-11T12:57:00Z</time>
      </trkpt>
      <trkpt lat="47.09593" lon="6.67579">
        <ele>1056.9608</ele>
        <time>2020-07-11T12:57:10Z</time>
      </trkpt>
      <trkpt lat="47.09644" lon="6.67656">
        <ele>1055.1627</ele>
        <time>2020-07-11T12:57:24Z</time>
      </trkpt>
      <trkpt lat="47.09671" lon="6.67683">
        <ele>1052.8535</ele>
        <time>2020-07-11T12:57:29Z</time>
      </trkpt>
      <trkpt lat="47.09692" lon="6.6771">
        <ele>1053.7556</ele>
        <time>2020-07-11T12:57:34Z</time>
      </trkpt>
      <trkpt lat="47.0971" lon="6.67747">
        <ele>1053.7377</ele>
        <time>2020-07-11T12:57:39Z</time>
      </trkpt>
      <trkpt lat="47.09729" lon="6.67779">
        <ele>1052.4764</ele>
        <time>2020-07-11T12:57:44Z</time>
      </trkpt>
      <trkpt lat="47.09752" lon="6.67816">
        <ele>1052.2726</ele>
        <time>2020-07-11T12:57:50Z</time>
      </trkpt>
      <trkpt lat="47.09781" lon="6.67884">
        <ele>1049.8717</ele>
        <time>2020-07-11T12:57:59Z</time>
      </trkpt>
      <trkpt lat="47.09795" lon="6.67939">
        <ele>1044.6094</ele>
        <time>2020-07-11T12:58:04Z</time>
      </trkpt>
      <trkpt lat="47.09811" lon="6.67976">
        <ele>1041.8356</ele>
        <time>2020-07-11T12:58:09Z</time>
      </trkpt>
      <trkpt lat="47.09824" lon="6.67982">
        <ele>1042.3867</ele>
        <time>2020-07-11T12:58:14Z</time>
      </trkpt>
      <trkpt lat="47.09835" lon="6.67992">
        <ele>1042.8956</ele>
        <time>2020-07-11T12:58:19Z</time>
      </trkpt>
      <trkpt lat="47.0984" lon="6.6807">
        <ele>1044.15</ele>
        <time>2020-07-11T13:02:00Z</time>
      </trkpt>
      <trkpt lat="47.09822" lon="6.68102">
        <ele>1048.5463</ele>
        <time>2020-07-11T13:02:10Z</time>
      </trkpt>
      <trkpt lat="47.09811" lon="6.68114">
        <ele>1051.6134</ele>
        <time>2020-07-11T13:02:15Z</time>
      </trkpt>
      <trkpt lat="47.098" lon="6.68126">
        <ele>1054.1</ele>
        <time>2020-07-11T13:02:20Z</time>
      </trkpt>
      <trkpt lat="47.09779" lon="6.68152">
        <ele>1058.738</ele>
        <time>2020-07-11T13:02:29Z</time>
      </trkpt>
      <trkpt lat="47.09773" lon="6.68172">
        <ele>1061.3564</ele>
        <time>2020-07-11T13:02:34Z</time>
      </trkpt>
      <trkpt lat="47.09767" lon="6.6819">
        <ele>1063.4414</ele>
        <time>2020-07-11T13:02:39Z</time>
      </trkpt>
      <trkpt lat="47.09758" lon="6.68207">
        <ele>1066.0656</ele>
        <time>2020-07-11T13:02:44Z</time>
      </trkpt>
      <trkpt lat="47.09752" lon="6.68224">
        <ele>1067.6975</ele>
        <time>2020-07-11T13:02:49Z</time>
      </trkpt>
      <trkpt lat="47.09743" lon="6.68238">
        <ele>1069.6837</ele>
        <time>2020-07-11T13:02:54Z</time>
      </trkpt>
      <trkpt lat="47.09739" lon="6.68253">
        <ele>1070.8497</ele>
        <time>2020-07-11T13:02:59Z</time>
      </trkpt>
      <trkpt lat="47.09736" lon="6.68269">
        <ele>1073.0688</ele>
        <time>2020-07-11T13:03:04Z</time>
      </trkpt>
      <trkpt lat="47.09737" lon="6.68283">
        <ele>1073.6588</ele>
        <time>2020-07-11T13:03:09Z</time>
      </trkpt>
      <trkpt lat="47.09734" lon="6.68299">
        <ele>1074.2107</ele>
        <time>2020-07-11T13:03:14Z</time>
      </trkpt>
      <trkpt lat="47.09732" lon="6.68313">
        <ele>1075.7122</ele>
        <time>2020-07-11T13:03:20Z</time>
      </trkpt>
      <trkpt lat="47.0972" lon="6.68352">
        <ele>1075.4858</ele>
        <time>2020-07-11T13:04:00Z</time>
      </trkpt>
      <trkpt lat="47.09717" lon="6.6837">
        <ele>1075.7988</ele>
        <time>2020-07-11T13:04:05Z</time>
      </trkpt>
      <trkpt lat="47.09716" lon="6.68389">
        <ele>1076.8531</ele>
        <time>2020-07-11T13:04:10Z</time>
      </trkpt>
      <trkpt lat="47.09716" lon="6.6841">
        <ele>1076.7083</ele>
        <time>2020-07-11T13:04:15Z</time>
      </trkpt>
      <trkpt lat="47.09712" lon="6.68434">
        <ele>1074.012</ele>
        <time>2020-07-11T13:04:20Z</time>
      </trkpt>
      <trkpt lat="47.09704" lon="6.68456">
        <ele>1075.3347</ele>
        <time>2020-07-11T13:04:25Z</time>
      </trkpt>
      <trkpt lat="47.09695" lon="6.6849">
        <ele>1075.1665</ele>
        <time>2020-07-11T13:04:30Z</time>
      </trkpt>
      <trkpt lat="47.09684" lon="6.68514">
        <ele>1075.0946</ele>
        <time>2020-07-11T13:04:35Z</time>
      </trkpt>
      <trkpt lat="47.09672" lon="6.68538">
        <ele>1075.7344</ele>
        <time>2020-07-11T13:04:40Z</time>
      </trkpt>
      <trkpt lat="47.09654" lon="6.6857">
        <ele>1074.7267</ele>
        <time>2020-07-11T13:04:49Z</time>
      </trkpt>
      <trkpt lat="47.09642" lon="6.68582">
        <ele>1073.1249</ele>
        <time>2020-07-11T13:04:54Z</time>
      </trkpt>
      <trkpt lat="47.09621" lon="6.68588">
        <ele>1070.8118</ele>
        <time>2020-07-11T13:04:59Z</time>
      </trkpt>
      <trkpt lat="47.09592" lon="6.68607">
        <ele>1068.5759</ele>
        <time>2020-07-11T13:05:05Z</time>
      </trkpt>
      <trkpt lat="47.09581" lon="6.68616">
        <ele>1066.9957</ele>
        <time>2020-07-11T13:05:10Z</time>
      </trkpt>
      <trkpt lat="47.09541" lon="6.68638">
        <ele>1062.6477</ele>
        <time>2020-07-11T13:05:54Z</time>
      </trkpt>
      <trkpt lat="47.09511" lon="6.68649">
        <ele>1060.8481</ele>
        <time>2020-07-11T13:05:59Z</time>
      </trkpt>
      <trkpt lat="47.0948" lon="6.68668">
        <ele>1060.1835</ele>
        <time>2020-07-11T13:06:05Z</time>
      </trkpt>
      <trkpt lat="47.09465" lon="6.68677">
        <ele>1059.1997</ele>
        <time>2020-07-11T13:06:10Z</time>
      </trkpt>
      <trkpt lat="47.09453" lon="6.68706">
        <ele>1059.2758</ele>
        <time>2020-07-11T13:06:15Z</time>
      </trkpt>
      <trkpt lat="47.09444" lon="6.68734">
        <ele>1059.5304</ele>
        <time>2020-07-11T13:06:20Z</time>
      </trkpt>
      <trkpt lat="47.09438" lon="6.68762">
        <ele>1059.5093</ele>
        <time>2020-07-11T13:06:25Z</time>
      </trkpt>
      <trkpt lat="47.09435" lon="6.6879">
        <ele>1058.5658</ele>
        <time>2020-07-11T13:06:30Z</time>
      </trkpt>
      <trkpt lat="47.09432" lon="6.68818">
        <ele>1058.9884</ele>
        <time>2020-07-11T13:06:35Z</time>
      </trkpt>
      <trkpt lat="47.09432" lon="6.6884">
        <ele>1058.8827</ele>
        <time>2020-07-11T13:06:40Z</time>
      </trkpt>
      <trkpt lat="47.09433" lon="6.6886">
        <ele>1058.6884</ele>
        <time>2020-07-11T13:06:45Z</time>
      </trkpt>
      <trkpt lat="47.09435" lon="6.68875">
        <ele>1060.2881</ele>
        <time>2020-07-11T13:06:50Z</time>
      </trkpt>
      <trkpt lat="47.09439" lon="6.68886">
        <ele>1061.3944</ele>
        <time>2020-07-11T13:06:55Z</time>
      </trkpt>
      <trkpt lat="47.09445" lon="6.68908">
        <ele>1061.9048</ele>
        <time>2020-07-11T13:07:05Z</time>
      </trkpt>
      <trkpt lat="47.09449" lon="6.68926">
        <ele>1062.4089</ele>
        <time>2020-07-11T13:07:10Z</time>
      </trkpt>
      <trkpt lat="47.0945" lon="6.68941">
        <ele>1061.9735</ele>
        <time>2020-07-11T13:07:15Z</time>
      </trkpt>
      <trkpt lat="47.09451" lon="6.68956">
        <ele>1062.4142</ele>
        <time>2020-07-11T13:07:20Z</time>
      </trkpt>
      <trkpt lat="47.09451" lon="6.68973">
        <ele>1062.0845</ele>
        <time>2020-07-11T13:07:25Z</time>
      </trkpt>
      <trkpt lat="47.0945" lon="6.6899">
        <ele>1062.3518</ele>
        <time>2020-07-11T13:07:30Z</time>
      </trkpt>
      <trkpt lat="47.09451" lon="6.69018">
        <ele>1062.2874</ele>
        <time>2020-07-11T13:07:40Z</time>
      </trkpt>
      <trkpt lat="47.09451" lon="6.69038">
        <ele>1063.602</ele>
        <time>2020-07-11T13:07:48Z</time>
      </trkpt>
      <trkpt lat="47.09454" lon="6.69047">
        <ele>1063.2955</ele>
        <time>2020-07-11T13:08:25Z</time>
      </trkpt>
      <trkpt lat="47.09458" lon="6.69063">
        <ele>1063.3684</ele>
        <time>2020-07-11T13:08:50Z</time>
      </trkpt>
      <trkpt lat="47.09464" lon="6.69097">
        <ele>1064.0745</ele>
        <time>2020-07-11T13:09:00Z</time>
      </trkpt>
      <trkpt lat="47.09472" lon="6.69104">
        <ele>1065.7866</ele>
        <time>2020-07-11T13:09:09Z</time>
      </trkpt>
      <trkpt lat="47.09472" lon="6.69111">
        <ele>1065.6809</ele>
        <time>2020-07-11T13:09:35Z</time>
      </trkpt>
      <trkpt lat="47.0946" lon="6.6914">
        <ele>1064.9125</ele>
        <time>2020-07-11T13:09:40Z</time>
      </trkpt>
      <trkpt lat="47.09446" lon="6.69178">
        <ele>1063.0736</ele>
        <time>2020-07-11T13:09:45Z</time>
      </trkpt>
      <trkpt lat="47.09433" lon="6.69218">
        <ele>1062.9426</ele>
        <time>2020-07-11T13:09:50Z</time>
      </trkpt>
      <trkpt lat="47.09428" lon="6.69254">
        <ele>1061.4557</ele>
        <time>2020-07-11T13:09:55Z</time>
      </trkpt>
      <trkpt lat="47.09428" lon="6.69297">
        <ele>1060.007</ele>
        <time>2020-07-11T13:10:00Z</time>
      </trkpt>
      <trkpt lat="47.09429" lon="6.69345">
        <ele>1055.5874</ele>
        <time>2020-07-11T13:10:05Z</time>
      </trkpt>
      <trkpt lat="47.09422" lon="6.69387">
        <ele>1052.6486</ele>
        <time>2020-07-11T13:10:10Z</time>
      </trkpt>
      <trkpt lat="47.09421" lon="6.6943">
        <ele>1049.2644</ele>
        <time>2020-07-11T13:10:15Z</time>
      </trkpt>
      <trkpt lat="47.09423" lon="6.69518">
        <ele>1041.6465</ele>
        <time>2020-07-11T13:10:24Z</time>
      </trkpt>
      <trkpt lat="47.09415" lon="6.6957">
        <ele>1038.891</ele>
        <time>2020-07-11T13:10:29Z</time>
      </trkpt>
      <trkpt lat="47.0941" lon="6.6962">
        <ele>1034.2898</ele>
        <time>2020-07-11T13:10:34Z</time>
      </trkpt>
      <trkpt lat="47.09403" lon="6.69672">
        <ele>1028.8484</ele>
        <time>2020-07-11T13:10:39Z</time>
      </trkpt>
      <trkpt lat="47.09399" lon="6.69723">
        <ele>1024.8442</ele>
        <time>2020-07-11T13:10:45Z</time>
      </trkpt>
      <trkpt lat="47.09392" lon="6.69752">
        <ele>1021.6783</ele>
        <time>2020-07-11T13:10:50Z</time>
      </trkpt>
      <trkpt lat="47.09411" lon="6.69812">
        <ele>1022.3903</ele>
        <time>2020-07-11T13:11:00Z</time>
      </trkpt>
      <trkpt lat="47.0944" lon="6.69876">
        <ele>1023.9369</ele>
        <time>2020-07-11T13:11:09Z</time>
      </trkpt>
      <trkpt lat="47.09457" lon="6.69907">
        <ele>1025.5605</ele>
        <time>2020-07-11T13:11:14Z</time>
      </trkpt>
      <trkpt lat="47.09473" lon="6.6994">
        <ele>1026.1788</ele>
        <time>2020-07-11T13:11:19Z</time>
      </trkpt>
      <trkpt lat="47.09489" lon="6.69971">
        <ele>1026.3951</ele>
        <time>2020-07-11T13:11:24Z</time>
      </trkpt>
      <trkpt lat="47.0951" lon="6.70009">
        <ele>1028.1995</ele>
        <time>2020-07-11T13:11:30Z</time>
      </trkpt>
      <trkpt lat="47.09529" lon="6.7004">
        <ele>1029.6958</ele>
        <time>2020-07-11T13:11:35Z</time>
      </trkpt>
      <trkpt lat="47.09549" lon="6.70067">
        <ele>1030.1221</ele>
        <time>2020-07-11T13:11:40Z</time>
      </trkpt>
      <trkpt lat="47.09567" lon="6.70095">
        <ele>1030.5991</ele>
        <time>2020-07-11T13:11:45Z</time>
      </trkpt>
      <trkpt lat="47.09585" lon="6.70125">
        <ele>1031.4138</ele>
        <time>2020-07-11T13:11:50Z</time>
      </trkpt>
      <trkpt lat="47.09625" lon="6.70168">
        <ele>1033.6544</ele>
        <time>2020-07-11T13:12:00Z</time>
      </trkpt>
      <trkpt lat="47.09651" lon="6.70168">
        <ele>1034.3098</ele>
        <time>2020-07-11T13:12:05Z</time>
      </trkpt>
      <trkpt lat="47.09676" lon="6.70153">
        <ele>1035.2936</ele>
        <time>2020-07-11T13:12:10Z</time>
      </trkpt>
      <trkpt lat="47.097" lon="6.70135">
        <ele>1035.6134</ele>
        <time>2020-07-11T13:12:15Z</time>
      </trkpt>
      <trkpt lat="47.09727" lon="6.7012">
        <ele>1035.3663</ele>
        <time>2020-07-11T13:12:20Z</time>
      </trkpt>
      <trkpt lat="47.09759" lon="6.7012">
        <ele>1035.0508</ele>
        <time>2020-07-11T13:12:25Z</time>
      </trkpt>
      <trkpt lat="47.09781" lon="6.70173">
        <ele>1032.524</ele>
        <time>2020-07-11T13:12:35Z</time>
      </trkpt>
      <trkpt lat="47.09776" lon="6.70223">
        <ele>1030.7806</ele>
        <time>2020-07-11T13:12:40Z</time>
      </trkpt>
      <trkpt lat="47.09769" lon="6.70272">
        <ele>1029.4141</ele>
        <time>2020-07-11T13:12:45Z</time>
      </trkpt>
      <trkpt lat="47.09766" lon="6.70308">
        <ele>1028.6891</ele>
        <time>2020-07-11T13:12:50Z</time>
      </trkpt>
      <trkpt lat="47.09759" lon="6.70343">
        <ele>1029.7833</ele>
        <time>2020-07-11T13:12:55Z</time>
      </trkpt>
      <trkpt lat="47.09754" lon="6.7041">
        <ele>1030.8134</ele>
        <time>2020-07-11T13:13:04Z</time>
      </trkpt>
      <trkpt lat="47.0976" lon="6.70456">
        <ele>1029.049</ele>
        <time>2020-07-11T13:13:09Z</time>
      </trkpt>
      <trkpt lat="47.09769" lon="6.70506">
        <ele>1027.3627</ele>
        <time>2020-07-11T13:13:14Z</time>
      </trkpt>
      <trkpt lat="47.09783" lon="6.7056">
        <ele>1026.621</ele>
        <time>2020-07-11T13:13:19Z</time>
      </trkpt>
      <trkpt lat="47.09799" lon="6.70627">
        <ele>1024.5752</ele>
        <time>2020-07-11T13:13:25Z</time>
      </trkpt>
      <trkpt lat="47.09825" lon="6.70722">
        <ele>1021.3375</ele>
        <time>2020-07-11T13:13:35Z</time>
      </trkpt>
      <trkpt lat="47.09833" lon="6.70769">
        <ele>1020.53796</ele>
        <time>2020-07-11T13:13:44Z</time>
      </trkpt>
      <trkpt lat="47.09834" lon="6.70799">
        <ele>1019.81647</ele>
        <time>2020-07-11T13:13:49Z</time>
      </trkpt>
      <trkpt lat="47.09834" lon="6.70828">
        <ele>1020.05066</ele>
        <time>2020-07-11T13:13:54Z</time>
      </trkpt>
      <trkpt lat="47.09834" lon="6.7086">
        <ele>1019.4895</ele>
        <time>2020-07-11T13:13:59Z</time>
      </trkpt>
      <trkpt lat="47.09833" lon="6.70883">
        <ele>1018.5708</ele>
        <time>2020-07-11T13:14:04Z</time>
      </trkpt>
      <trkpt lat="47.09834" lon="6.7091">
        <ele>1017.55194</ele>
        <time>2020-07-11T13:14:09Z</time>
      </trkpt>
      <trkpt lat="47.09836" lon="6.70946">
        <ele>1015.92566</ele>
        <time>2020-07-11T13:14:14Z</time>
      </trkpt>
      <trkpt lat="47.09846" lon="6.70978">
        <ele>1015.43207</ele>
        <time>2020-07-11T13:14:19Z</time>
      </trkpt>
      <trkpt lat="47.09871" lon="6.70995">
        <ele>1014.46185</ele>
        <time>2020-07-11T13:14:24Z</time>
      </trkpt>
      <trkpt lat="47.099" lon="6.71005">
        <ele>1014.0422</ele>
        <time>2020-07-11T13:14:29Z</time>
      </trkpt>
      <trkpt lat="47.09926" lon="6.71018">
        <ele>1011.94476</ele>
        <time>2020-07-11T13:14:34Z</time>
      </trkpt>
      <trkpt lat="47.09949" lon="6.71057">
        <ele>1009.6473</ele>
        <time>2020-07-11T13:14:40Z</time>
      </trkpt>
      <trkpt lat="47.09964" lon="6.71087">
        <ele>1010.64154</ele>
        <time>2020-07-11T13:14:45Z</time>
      </trkpt>
      <trkpt lat="47.09977" lon="6.71112">
        <ele>1012.6776</ele>
        <time>2020-07-11T13:14:50Z</time>
      </trkpt>
      <trkpt lat="47.0999" lon="6.7114">
        <ele>1014.70123</ele>
        <time>2020-07-11T13:14:55Z</time>
      </trkpt>
      <trkpt lat="47.10004" lon="6.71169">
        <ele>1016.03955</ele>
        <time>2020-07-11T13:15:00Z</time>
      </trkpt>
      <trkpt lat="47.10017" lon="6.71199">
        <ele>1017.86725</ele>
        <time>2020-07-11T13:15:05Z</time>
      </trkpt>
      <trkpt lat="47.1003" lon="6.71228">
        <ele>1018.8429</ele>
        <time>2020-07-11T13:15:10Z</time>
      </trkpt>
      <trkpt lat="47.10045" lon="6.7126">
        <ele>1019.8808</ele>
        <time>2020-07-11T13:15:15Z</time>
      </trkpt>
      <trkpt lat="47.10061" lon="6.71292">
        <ele>1021.0116</ele>
        <time>2020-07-11T13:15:20Z</time>
      </trkpt>
      <trkpt lat="47.10075" lon="6.71322">
        <ele>1021.99054</ele>
        <time>2020-07-11T13:15:25Z</time>
      </trkpt>
      <trkpt lat="47.10098" lon="6.71332">
        <ele>1022.45044</ele>
        <time>2020-07-11T13:15:34Z</time>
      </trkpt>
      <trkpt lat="47.10116" lon="6.71317">
        <ele>1021.4683</ele>
        <time>2020-07-11T13:15:39Z</time>
      </trkpt>
      <trkpt lat="47.10139" lon="6.71328">
        <ele>1021.3291</ele>
        <time>2020-07-11T13:15:44Z</time>
      </trkpt>
      <trkpt lat="47.10162" lon="6.71332">
        <ele>1020.93774</ele>
        <time>2020-07-11T13:15:49Z</time>
      </trkpt>
      <trkpt lat="47.10183" lon="6.71312">
        <ele>1020.91876</ele>
        <time>2020-07-11T13:15:54Z</time>
      </trkpt>
      <trkpt lat="47.10223" lon="6.71276">
        <ele>1022.80493</ele>
        <time>2020-07-11T13:16:04Z</time>
      </trkpt>
      <trkpt lat="47.10236" lon="6.71261">
        <ele>1024.2155</ele>
        <time>2020-07-11T13:16:09Z</time>
      </trkpt>
      <trkpt lat="47.10254" lon="6.71249">
        <ele>1026.7339</ele>
        <time>2020-07-11T13:16:14Z</time>
      </trkpt>
      <trkpt lat="47.1027" lon="6.71235">
        <ele>1028.6416</ele>
        <time>2020-07-11T13:16:19Z</time>
      </trkpt>
      <trkpt lat="47.10289" lon="6.71221">
        <ele>1030.5358</ele>
        <time>2020-07-11T13:16:24Z</time>
      </trkpt>
      <trkpt lat="47.10308" lon="6.71204">
        <ele>1033.2892</ele>
        <time>2020-07-11T13:16:30Z</time>
      </trkpt>
      <trkpt lat="47.10342" lon="6.71208">
        <ele>1035.5553</ele>
        <time>2020-07-11T13:17:29Z</time>
      </trkpt>
      <trkpt lat="47.10357" lon="6.71232">
        <ele>1035.9069</ele>
        <time>2020-07-11T13:17:35Z</time>
      </trkpt>
      <trkpt lat="47.1037" lon="6.71251">
        <ele>1034.6317</ele>
        <time>2020-07-11T13:17:40Z</time>
      </trkpt>
      <trkpt lat="47.1038" lon="6.71272">
        <ele>1033.9763</ele>
        <time>2020-07-11T13:17:45Z</time>
      </trkpt>
      <trkpt lat="47.1039" lon="6.71292">
        <ele>1033.7029</ele>
        <time>2020-07-11T13:17:50Z</time>
      </trkpt>
      <trkpt lat="47.10407" lon="6.71315">
        <ele>1031.7241</ele>
        <time>2020-07-11T13:18:15Z</time>
      </trkpt>
      <trkpt lat="47.10418" lon="6.71327">
        <ele>1030.7743</ele>
        <time>2020-07-11T13:18:30Z</time>
      </trkpt>
      <trkpt lat="47.10447" lon="6.7135">
        <ele>1030.2393</ele>
        <time>2020-07-11T13:18:39Z</time>
      </trkpt>
      <trkpt lat="47.10462" lon="6.71369">
        <ele>1029.5986</ele>
        <time>2020-07-11T13:18:45Z</time>
      </trkpt>
      <trkpt lat="47.10479" lon="6.71387">
        <ele>1029.1533</ele>
        <time>2020-07-11T13:18:50Z</time>
      </trkpt>
      <trkpt lat="47.10495" lon="6.71404">
        <ele>1029.452</ele>
        <time>2020-07-11T13:18:55Z</time>
      </trkpt>
      <trkpt lat="47.10513" lon="6.71419">
        <ele>1030.6423</ele>
        <time>2020-07-11T13:19:00Z</time>
      </trkpt>
      <trkpt lat="47.10551" lon="6.71437">
        <ele>1030.9917</ele>
        <time>2020-07-11T13:19:09Z</time>
      </trkpt>
      <trkpt lat="47.1057" lon="6.71446">
        <ele>1030.7922</ele>
        <time>2020-07-11T13:19:14Z</time>
      </trkpt>
      <trkpt lat="47.1059" lon="6.71462">
        <ele>1030.4017</ele>
        <time>2020-07-11T13:19:19Z</time>
      </trkpt>
      <trkpt lat="47.10612" lon="6.71476">
        <ele>1028.8536</ele>
        <time>2020-07-11T13:19:24Z</time>
      </trkpt>
      <trkpt lat="47.10638" lon="6.7149">
        <ele>1030.0841</ele>
        <time>2020-07-11T13:19:29Z</time>
      </trkpt>
      <trkpt lat="47.10663" lon="6.71506">
        <ele>1031.8866</ele>
        <time>2020-07-11T13:19:34Z</time>
      </trkpt>
      <trkpt lat="47.10695" lon="6.71524">
        <ele>1032.1283</ele>
        <time>2020-07-11T13:19:40Z</time>
      </trkpt>
      <trkpt lat="47.10741" lon="6.71574">
        <ele>1031.2375</ele>
        <time>2020-07-11T13:19:49Z</time>
      </trkpt>
      <trkpt lat="47.1077" lon="6.71609">
        <ele>1028.0886</ele>
        <time>2020-07-11T13:19:54Z</time>
      </trkpt>
      <trkpt lat="47.10792" lon="6.71636">
        <ele>1026.0892</ele>
        <time>2020-07-11T13:19:59Z</time>
      </trkpt>
      <trkpt lat="47.10811" lon="6.71659">
        <ele>1024.3325</ele>
        <time>2020-07-11T13:20:04Z</time>
      </trkpt>
      <trkpt lat="47.10824" lon="6.71684">
        <ele>1023.07074</ele>
        <time>2020-07-11T13:20:10Z</time>
      </trkpt>
      <trkpt lat="47.10848" lon="6.71734">
        <ele>1019.8059</ele>
        <time>2020-07-11T13:20:39Z</time>
      </trkpt>
      <trkpt lat="47.10868" lon="6.7177">
        <ele>1017.9854</ele>
        <time>2020-07-11T13:20:44Z</time>
      </trkpt>
      <trkpt lat="47.10881" lon="6.71812">
        <ele>1017.10474</ele>
        <time>2020-07-11T13:20:49Z</time>
      </trkpt>
      <trkpt lat="47.1089" lon="6.71836">
        <ele>1016.4751</ele>
        <time>2020-07-11T13:20:54Z</time>
      </trkpt>
      <trkpt lat="47.10895" lon="6.71864">
        <ele>1015.6873</ele>
        <time>2020-07-11T13:20:59Z</time>
      </trkpt>
      <trkpt lat="47.10904" lon="6.7189">
        <ele>1014.9691</ele>
        <time>2020-07-11T13:21:05Z</time>
      </trkpt>
      <trkpt lat="47.10913" lon="6.71914">
        <ele>1014.2362</ele>
        <time>2020-07-11T13:21:14Z</time>
      </trkpt>
      <trkpt lat="47.10915" lon="6.71938">
        <ele>1014.1212</ele>
        <time>2020-07-11T13:21:19Z</time>
      </trkpt>
      <trkpt lat="47.10915" lon="6.71973">
        <ele>1014.33</ele>
        <time>2020-07-11T13:21:24Z</time>
      </trkpt>
      <trkpt lat="47.10915" lon="6.72009">
        <ele>1015.4943</ele>
        <time>2020-07-11T13:21:29Z</time>
      </trkpt>
      <trkpt lat="47.10918" lon="6.72042">
        <ele>1016.72186</ele>
        <time>2020-07-11T13:21:34Z</time>
      </trkpt>
      <trkpt lat="47.10921" lon="6.72085">
        <ele>1015.547</ele>
        <time>2020-07-11T13:21:40Z</time>
      </trkpt>
      <trkpt lat="47.10925" lon="6.72141">
        <ele>1017.4591</ele>
        <time>2020-07-11T13:21:49Z</time>
      </trkpt>
      <trkpt lat="47.10934" lon="6.7218">
        <ele>1016.47406</ele>
        <time>2020-07-11T13:21:55Z</time>
      </trkpt>
      <trkpt lat="47.10942" lon="6.72214">
        <ele>1017.9654</ele>
        <time>2020-07-11T13:22:00Z</time>
      </trkpt>
      <trkpt lat="47.1095" lon="6.72243">
        <ele>1021.0358</ele>
        <time>2020-07-11T13:22:05Z</time>
      </trkpt>
      <trkpt lat="47.10965" lon="6.72296">
        <ele>1025.1797</ele>
        <time>2020-07-11T13:22:15Z</time>
      </trkpt>
      <trkpt lat="47.10975" lon="6.72319">
        <ele>1026.144</ele>
        <time>2020-07-11T13:22:20Z</time>
      </trkpt>
      <trkpt lat="47.10984" lon="6.72341">
        <ele>1027.6814</ele>
        <time>2020-07-11T13:22:25Z</time>
      </trkpt>
      <trkpt lat="47.10997" lon="6.72365">
        <ele>1030.5432</ele>
        <time>2020-07-11T13:22:30Z</time>
      </trkpt>
      <trkpt lat="47.11007" lon="6.7239">
        <ele>1032.6444</ele>
        <time>2020-07-11T13:22:35Z</time>
      </trkpt>
      <trkpt lat="47.11017" lon="6.72415">
        <ele>1033.7789</ele>
        <time>2020-07-11T13:22:40Z</time>
      </trkpt>
      <trkpt lat="47.11046" lon="6.72458">
        <ele>1033.7029</ele>
        <time>2020-07-11T13:22:50Z</time>
      </trkpt>
      <trkpt lat="47.11063" lon="6.72486">
        <ele>1034.3911</ele>
        <time>2020-07-11T13:22:55Z</time>
      </trkpt>
      <trkpt lat="47.11076" lon="6.72512">
        <ele>1034.332</ele>
        <time>2020-07-11T13:23:00Z</time>
      </trkpt>
      <trkpt lat="47.11084" lon="6.72532">
        <ele>1035.1753</ele>
        <time>2020-07-11T13:23:05Z</time>
      </trkpt>
      <trkpt lat="47.11091" lon="6.72547">
        <ele>1034.3668</ele>
        <time>2020-07-11T13:23:10Z</time>
      </trkpt>
      <trkpt lat="47.11099" lon="6.72556">
        <ele>1035.1362</ele>
        <time>2020-07-11T13:23:15Z</time>
      </trkpt>
      <trkpt lat="47.11135" lon="6.72574">
        <ele>1038.3284</ele>
        <time>2020-07-11T13:23:25Z</time>
      </trkpt>
      <trkpt lat="47.11174" lon="6.72594">
        <ele>1039.1697</ele>
        <time>2020-07-11T13:23:34Z</time>
      </trkpt>
      <trkpt lat="47.11198" lon="6.72608">
        <ele>1036.9803</ele>
        <time>2020-07-11T13:23:39Z</time>
      </trkpt>
      <trkpt lat="47.11229" lon="6.72623">
        <ele>1034.1737</ele>
        <time>2020-07-11T13:23:44Z</time>
      </trkpt>
      <trkpt lat="47.11264" lon="6.72634">
        <ele>1030.7078</ele>
        <time>2020-07-11T13:23:49Z</time>
      </trkpt>
      <trkpt lat="47.1129" lon="6.72635">
        <ele>1028.7123</ele>
        <time>2020-07-11T13:23:54Z</time>
      </trkpt>
      <trkpt lat="47.11326" lon="6.72634">
        <ele>1026.8289</ele>
        <time>2020-07-11T13:23:59Z</time>
      </trkpt>
      <trkpt lat="47.11365" lon="6.72633">
        <ele>1024.59</ele>
        <time>2020-07-11T13:24:04Z</time>
      </trkpt>
      <trkpt lat="47.11403" lon="6.72646">
        <ele>1021.21094</ele>
        <time>2020-07-11T13:24:09Z</time>
      </trkpt>
      <trkpt lat="47.11427" lon="6.72653">
        <ele>1018.53595</ele>
        <time>2020-07-11T13:24:14Z</time>
      </trkpt>
      <trkpt lat="47.11435" lon="6.72662">
        <ele>1018.9389</ele>
        <time>2020-07-11T13:24:19Z</time>
      </trkpt>
      <trkpt lat="47.11449" lon="6.72679">
        <ele>1019.4061</ele>
        <time>2020-07-11T13:24:39Z</time>
      </trkpt>
      <trkpt lat="47.11466" lon="6.72701">
        <ele>1017.746</ele>
        <time>2020-07-11T13:24:44Z</time>
      </trkpt>
      <trkpt lat="47.11477" lon="6.72727">
        <ele>1018.15625</ele>
        <time>2020-07-11T13:24:49Z</time>
      </trkpt>
      <trkpt lat="47.11485" lon="6.72754">
        <ele>1018.50116</ele>
        <time>2020-07-11T13:24:54Z</time>
      </trkpt>
      <trkpt lat="47.11495" lon="6.7278">
        <ele>1017.6679</ele>
        <time>2020-07-11T13:24:59Z</time>
      </trkpt>
      <trkpt lat="47.11504" lon="6.72807">
        <ele>1017.515</ele>
        <time>2020-07-11T13:25:04Z</time>
      </trkpt>
      <trkpt lat="47.11511" lon="6.72822">
        <ele>1017.30615</ele>
        <time>2020-07-11T13:25:09Z</time>
      </trkpt>
      <trkpt lat="47.11514" lon="6.72824">
        <ele>1016.48773</ele>
        <time>2020-07-11T13:25:25Z</time>
      </trkpt>
      <trkpt lat="47.11522" lon="6.72853">
        <ele>1017.4855</ele>
        <time>2020-07-11T13:26:40Z</time>
      </trkpt>
      <trkpt lat="47.11532" lon="6.72871">
        <ele>1018.08875</ele>
        <time>2020-07-11T13:26:45Z</time>
      </trkpt>
      <trkpt lat="47.11553" lon="6.72916">
        <ele>1019.7078</ele>
        <time>2020-07-11T13:26:54Z</time>
      </trkpt>
      <trkpt lat="47.11565" lon="6.72944">
        <ele>1019.68567</ele>
        <time>2020-07-11T13:26:59Z</time>
      </trkpt>
      <trkpt lat="47.11577" lon="6.7297">
        <ele>1021.1709</ele>
        <time>2020-07-11T13:27:04Z</time>
      </trkpt>
      <trkpt lat="47.11597" lon="6.72992">
        <ele>1018.97473</ele>
        <time>2020-07-11T13:27:09Z</time>
      </trkpt>
      <trkpt lat="47.11615" lon="6.73015">
        <ele>1018.7037</ele>
        <time>2020-07-11T13:27:14Z</time>
      </trkpt>
      <trkpt lat="47.11634" lon="6.73047">
        <ele>1020.2933</ele>
        <time>2020-07-11T13:27:20Z</time>
      </trkpt>
      <trkpt lat="47.11648" lon="6.73079">
        <ele>1020.7648</ele>
        <time>2020-07-11T13:27:25Z</time>
      </trkpt>
      <trkpt lat="47.11663" lon="6.73112">
        <ele>1020.904</ele>
        <time>2020-07-11T13:27:30Z</time>
      </trkpt>
      <trkpt lat="47.11678" lon="6.73142">
        <ele>1021.0875</ele>
        <time>2020-07-11T13:27:35Z</time>
      </trkpt>
      <trkpt lat="47.11692" lon="6.73171">
        <ele>1020.47363</ele>
        <time>2020-07-11T13:27:40Z</time>
      </trkpt>
      <trkpt lat="47.11718" lon="6.73226">
        <ele>1022.14667</ele>
        <time>2020-07-11T13:27:49Z</time>
      </trkpt>
      <trkpt lat="47.1174" lon="6.73255">
        <ele>1022.36816</ele>
        <time>2020-07-11T13:27:55Z</time>
      </trkpt>
      <trkpt lat="47.11758" lon="6.73281">
        <ele>1021.3776</ele>
        <time>2020-07-11T13:28:00Z</time>
      </trkpt>
      <trkpt lat="47.11775" lon="6.73312">
        <ele>1021.31433</ele>
        <time>2020-07-11T13:28:05Z</time>
      </trkpt>
      <trkpt lat="47.11789" lon="6.73345">
        <ele>1020.7943</ele>
        <time>2020-07-11T13:28:10Z</time>
      </trkpt>
      <trkpt lat="47.11805" lon="6.73381">
        <ele>1021.4177</ele>
        <time>2020-07-11T13:28:15Z</time>
      </trkpt>
      <trkpt lat="47.1182" lon="6.73415">
        <ele>1021.6118</ele>
        <time>2020-07-11T13:28:20Z</time>
      </trkpt>
      <trkpt lat="47.11861" lon="6.73462">
        <ele>1020.82697</ele>
        <time>2020-07-11T13:28:29Z</time>
      </trkpt>
      <trkpt lat="47.11884" lon="6.73488">
        <ele>1020.135</ele>
        <time>2020-07-11T13:28:34Z</time>
      </trkpt>
      <trkpt lat="47.1191" lon="6.73517">
        <ele>1020.4631</ele>
        <time>2020-07-11T13:28:40Z</time>
      </trkpt>
      <trkpt lat="47.11933" lon="6.73535">
        <ele>1020.366</ele>
        <time>2020-07-11T13:28:45Z</time>
      </trkpt>
      <trkpt lat="47.11956" lon="6.73565">
        <ele>1020.4241</ele>
        <time>2020-07-11T13:28:50Z</time>
      </trkpt>
      <trkpt lat="47.11994" lon="6.73616">
        <ele>1022.48</ele>
        <time>2020-07-11T13:28:59Z</time>
      </trkpt>
      <trkpt lat="47.12017" lon="6.73634">
        <ele>1023.9327</ele>
        <time>2020-07-11T13:29:04Z</time>
      </trkpt>
      <trkpt lat="47.12029" lon="6.73642">
        <ele>1024.8073</ele>
        <time>2020-07-11T13:29:09Z</time>
      </trkpt>
      <trkpt lat="47.12035" lon="6.7366">
        <ele>1026.3488</ele>
        <time>2020-07-11T13:29:30Z</time>
      </trkpt>
      <trkpt lat="47.12048" lon="6.73678">
        <ele>1027.2847</ele>
        <time>2020-07-11T13:29:35Z</time>
      </trkpt>
      <trkpt lat="47.12064" lon="6.73702">
        <ele>1029.5629</ele>
        <time>2020-07-11T13:29:40Z</time>
      </trkpt>
      <trkpt lat="47.12072" lon="6.73742">
        <ele>1029.5713</ele>
        <time>2020-07-11T13:29:45Z</time>
      </trkpt>
      <trkpt lat="47.12072" lon="6.73802">
        <ele>1032.599</ele>
        <time>2020-07-11T13:29:54Z</time>
      </trkpt>
      <trkpt lat="47.12074" lon="6.73834">
        <ele>1033.4191</ele>
        <time>2020-07-11T13:29:59Z</time>
      </trkpt>
      <trkpt lat="47.12085" lon="6.73868">
        <ele>1032.5695</ele>
        <time>2020-07-11T13:30:04Z</time>
      </trkpt>
      <trkpt lat="47.121" lon="6.73906">
        <ele>1031.4497</ele>
        <time>2020-07-11T13:30:10Z</time>
      </trkpt>
      <trkpt lat="47.12107" lon="6.73923">
        <ele>1031.2925</ele>
        <time>2020-07-11T13:30:15Z</time>
      </trkpt>
      <trkpt lat="47.12111" lon="6.73949">
        <ele>1030.139</ele>
        <time>2020-07-11T13:31:35Z</time>
      </trkpt>
      <trkpt lat="47.12106" lon="6.73977">
        <ele>1027.3047</ele>
        <time>2020-07-11T13:31:40Z</time>
      </trkpt>
      <trkpt lat="47.12098" lon="6.74034">
        <ele>1026.8816</ele>
        <time>2020-07-11T13:31:50Z</time>
      </trkpt>
      <trkpt lat="47.12099" lon="6.74066">
        <ele>1026.8837</ele>
        <time>2020-07-11T13:31:55Z</time>
      </trkpt>
      <trkpt lat="47.12103" lon="6.7409">
        <ele>1026.7771</ele>
        <time>2020-07-11T13:32:00Z</time>
      </trkpt>
      <trkpt lat="47.12101" lon="6.74128">
        <ele>1027.8618</ele>
        <time>2020-07-11T13:32:05Z</time>
      </trkpt>
      <trkpt lat="47.12104" lon="6.74167">
        <ele>1029.7106</ele>
        <time>2020-07-11T13:32:10Z</time>
      </trkpt>
      <trkpt lat="47.12105" lon="6.74213">
        <ele>1030.5621</ele>
        <time>2020-07-11T13:32:15Z</time>
      </trkpt>
      <trkpt lat="47.12111" lon="6.74297">
        <ele>1031.5299</ele>
        <time>2020-07-11T13:32:25Z</time>
      </trkpt>
      <trkpt lat="47.12108" lon="6.74331">
        <ele>1030.1095</ele>
        <time>2020-07-11T13:32:30Z</time>
      </trkpt>
      <trkpt lat="47.12111" lon="6.74369">
        <ele>1027.2625</ele>
        <time>2020-07-11T13:32:35Z</time>
      </trkpt>
      <trkpt lat="47.12111" lon="6.74409">
        <ele>1023.85144</ele>
        <time>2020-07-11T13:32:40Z</time>
      </trkpt>
      <trkpt lat="47.12107" lon="6.7444">
        <ele>1017.53186</ele>
        <time>2020-07-11T13:32:45Z</time>
      </trkpt>
      <trkpt lat="47.12115" lon="6.74497">
        <ele>1018.07086</ele>
        <time>2020-07-11T13:32:54Z</time>
      </trkpt>
      <trkpt lat="47.1212" lon="6.74533">
        <ele>1019.0391</ele>
        <time>2020-07-11T13:32:59Z</time>
      </trkpt>
      <trkpt lat="47.1212" lon="6.74565">
        <ele>1018.4073</ele>
        <time>2020-07-11T13:33:04Z</time>
      </trkpt>
      <trkpt lat="47.12118" lon="6.74603">
        <ele>1017.4264</ele>
        <time>2020-07-11T13:33:09Z</time>
      </trkpt>
      <trkpt lat="47.12118" lon="6.74642">
        <ele>1016.67126</ele>
        <time>2020-07-11T13:33:14Z</time>
      </trkpt>
      <trkpt lat="47.12109" lon="6.74686">
        <ele>1015.45844</ele>
        <time>2020-07-11T13:33:19Z</time>
      </trkpt>
      <trkpt lat="47.12105" lon="6.74732">
        <ele>1014.18555</ele>
        <time>2020-07-11T13:33:24Z</time>
      </trkpt>
      <trkpt lat="47.12105" lon="6.74778">
        <ele>1014.3459</ele>
        <time>2020-07-11T13:33:29Z</time>
      </trkpt>
      <trkpt lat="47.12104" lon="6.74822">
        <ele>1014.2035</ele>
        <time>2020-07-11T13:33:34Z</time>
      </trkpt>
      <trkpt lat="47.12099" lon="6.74872">
        <ele>1009.4522</ele>
        <time>2020-07-11T13:33:39Z</time>
      </trkpt>
      <trkpt lat="47.12094" lon="6.74909">
        <ele>1005.92365</ele>
        <time>2020-07-11T13:33:44Z</time>
      </trkpt>
      <trkpt lat="47.12085" lon="6.74946">
        <ele>1002.78564</ele>
        <time>2020-07-11T13:33:49Z</time>
      </trkpt>
      <trkpt lat="47.12089" lon="6.74998">
        <ele>998.7923</ele>
        <time>2020-07-11T13:33:54Z</time>
      </trkpt>
      <trkpt lat="47.12097" lon="6.75053">
        <ele>999.3698</ele>
        <time>2020-07-11T13:33:59Z</time>
      </trkpt>
      <trkpt lat="47.12097" lon="6.75106">
        <ele>997.02295</ele>
        <time>2020-07-11T13:34:05Z</time>
      </trkpt>
      <trkpt lat="47.12085" lon="6.75116">
        <ele>994.95667</ele>
        <time>2020-07-11T13:34:39Z</time>
      </trkpt>
      <trkpt lat="47.1207" lon="6.75092">
        <ele>992.4733</ele>
        <time>2020-07-11T13:34:44Z</time>
      </trkpt>
      <trkpt lat="47.12058" lon="6.75078">
        <ele>990.9278</ele>
        <time>2020-07-11T13:34:49Z</time>
      </trkpt>
      <trkpt lat="47.12047" lon="6.75063">
        <ele>988.1595</ele>
        <time>2020-07-11T13:35:10Z</time>
      </trkpt>
      <trkpt lat="47.1203" lon="6.7503">
        <ele>987.67285</ele>
        <time>2020-07-11T13:35:15Z</time>
      </trkpt>
      <trkpt lat="47.12015" lon="6.74994">
        <ele>986.3762</ele>
        <time>2020-07-11T13:35:20Z</time>
      </trkpt>
      <trkpt lat="47.11998" lon="6.74954">
        <ele>988.091</ele>
        <time>2020-07-11T13:35:25Z</time>
      </trkpt>
      <trkpt lat="47.11976" lon="6.74906">
        <ele>981.716</ele>
        <time>2020-07-11T13:35:30Z</time>
      </trkpt>
      <trkpt lat="47.11955" lon="6.74863">
        <ele>978.01904</ele>
        <time>2020-07-11T13:35:35Z</time>
      </trkpt>
      <trkpt lat="47.11939" lon="6.74824">
        <ele>978.8193</ele>
        <time>2020-07-11T13:35:40Z</time>
      </trkpt>
      <trkpt lat="47.11926" lon="6.74782">
        <ele>976.45557</ele>
        <time>2020-07-11T13:35:45Z</time>
      </trkpt>
      <trkpt lat="47.11911" lon="6.74755">
        <ele>976.53033</ele>
        <time>2020-07-11T13:35:50Z</time>
      </trkpt>
      <trkpt lat="47.11892" lon="6.74735">
        <ele>972.0469</ele>
        <time>2020-07-11T13:35:55Z</time>
      </trkpt>
      <trkpt lat="47.11873" lon="6.74713">
        <ele>967.2327</ele>
        <time>2020-07-11T13:36:00Z</time>
      </trkpt>
      <trkpt lat="47.11844" lon="6.74692">
        <ele>961.7873</ele>
        <time>2020-07-11T13:36:09Z</time>
      </trkpt>
      <trkpt lat="47.11825" lon="6.74678">
        <ele>957.04584</ele>
        <time>2020-07-11T13:36:14Z</time>
      </trkpt>
      <trkpt lat="47.11799" lon="6.74652">
        <ele>953.6505</ele>
        <time>2020-07-11T13:36:19Z</time>
      </trkpt>
      <trkpt lat="47.11771" lon="6.74622">
        <ele>949.04114</ele>
        <time>2020-07-11T13:36:24Z</time>
      </trkpt>
      <trkpt lat="47.1175" lon="6.74598">
        <ele>947.32825</ele>
        <time>2020-07-11T13:36:29Z</time>
      </trkpt>
      <trkpt lat="47.11727" lon="6.74569">
        <ele>935.5359</ele>
        <time>2020-07-11T13:36:39Z</time>
      </trkpt>
      <trkpt lat="47.11708" lon="6.74552">
        <ele>934.02997</ele>
        <time>2020-07-11T13:36:44Z</time>
      </trkpt>
      <trkpt lat="47.11691" lon="6.74536">
        <ele>931.9462</ele>
        <time>2020-07-11T13:36:49Z</time>
      </trkpt>
      <trkpt lat="47.11668" lon="6.74504">
        <ele>927.08594</ele>
        <time>2020-07-11T13:36:54Z</time>
      </trkpt>
      <trkpt lat="47.11629" lon="6.74485">
        <ele>919.8436</ele>
        <time>2020-07-11T13:37:04Z</time>
      </trkpt>
      <trkpt lat="47.11602" lon="6.74497">
        <ele>917.28125</ele>
        <time>2020-07-11T13:37:10Z</time>
      </trkpt>
      <trkpt lat="47.11583" lon="6.74514">
        <ele>916.6113</ele>
        <time>2020-07-11T13:37:15Z</time>
      </trkpt>
      <trkpt lat="47.11583" lon="6.74544">
        <ele>914.76227</ele>
        <time>2020-07-11T13:37:20Z</time>
      </trkpt>
      <trkpt lat="47.11606" lon="6.74589">
        <ele>910.13654</ele>
        <time>2020-07-11T13:37:29Z</time>
      </trkpt>
      <trkpt lat="47.11623" lon="6.74614">
        <ele>908.1295</ele>
        <time>2020-07-11T13:37:34Z</time>
      </trkpt>
      <trkpt lat="47.11636" lon="6.74633">
        <ele>905.23364</ele>
        <time>2020-07-11T13:37:40Z</time>
      </trkpt>
      <trkpt lat="47.11654" lon="6.74658">
        <ele>902.64044</ele>
        <time>2020-07-11T13:37:45Z</time>
      </trkpt>
      <trkpt lat="47.11663" lon="6.74681">
        <ele>900.2668</ele>
        <time>2020-07-11T13:37:50Z</time>
      </trkpt>
      <trkpt lat="47.11677" lon="6.74722">
        <ele>893.11896</ele>
        <time>2020-07-11T13:38:00Z</time>
      </trkpt>
      <trkpt lat="47.11715" lon="6.74814">
        <ele>882.7365</ele>
        <time>2020-07-11T13:38:14Z</time>
      </trkpt>
      <trkpt lat="47.1171" lon="6.74827">
        <ele>880.68884</ele>
        <time>2020-07-11T13:38:19Z</time>
      </trkpt>
      <trkpt lat="47.11688" lon="6.74845">
        <ele>873.38055</ele>
        <time>2020-07-11T13:38:30Z</time>
      </trkpt>
      <trkpt lat="47.11662" lon="6.74837">
        <ele>864.3941</ele>
        <time>2020-07-11T13:38:39Z</time>
      </trkpt>
      <trkpt lat="47.11647" lon="6.74829">
        <ele>861.6955</ele>
        <time>2020-07-11T13:38:44Z</time>
      </trkpt>
      <trkpt lat="47.11617" lon="6.74815">
        <ele>857.92993</ele>
        <time>2020-07-11T13:38:49Z</time>
      </trkpt>
      <trkpt lat="47.11592" lon="6.74791">
        <ele>856.2919</ele>
        <time>2020-07-11T13:38:55Z</time>
      </trkpt>
      <trkpt lat="47.11577" lon="6.74775">
        <ele>851.72095</ele>
        <time>2020-07-11T13:39:00Z</time>
      </trkpt>
      <trkpt lat="47.11562" lon="6.7476">
        <ele>850.5723</ele>
        <time>2020-07-11T13:39:05Z</time>
      </trkpt>
      <trkpt lat="47.11536" lon="6.74741">
        <ele>847.6325</ele>
        <time>2020-07-11T13:39:14Z</time>
      </trkpt>
      <trkpt lat="47.11514" lon="6.74728">
        <ele>846.42126</ele>
        <time>2020-07-11T13:39:19Z</time>
      </trkpt>
      <trkpt lat="47.11489" lon="6.74713">
        <ele>844.783</ele>
        <time>2020-07-11T13:39:24Z</time>
      </trkpt>
      <trkpt lat="47.11464" lon="6.74698">
        <ele>844.2136</ele>
        <time>2020-07-11T13:39:29Z</time>
      </trkpt>
      <trkpt lat="47.1144" lon="6.7468">
        <ele>842.46356</ele>
        <time>2020-07-11T13:39:34Z</time>
      </trkpt>
      <trkpt lat="47.11415" lon="6.7466">
        <ele>844.021</ele>
        <time>2020-07-11T13:39:40Z</time>
      </trkpt>
      <trkpt lat="47.11392" lon="6.74647">
        <ele>844.88983</ele>
        <time>2020-07-11T13:39:45Z</time>
      </trkpt>
      <trkpt lat="47.11376" lon="6.74622">
        <ele>844.15186</ele>
        <time>2020-07-11T13:39:50Z</time>
      </trkpt>
      <trkpt lat="47.11342" lon="6.74583">
        <ele>841.04645</ele>
        <time>2020-07-11T13:39:55Z</time>
      </trkpt>
      <trkpt lat="47.11297" lon="6.74516">
        <ele>835.8319</ele>
        <time>2020-07-11T13:40:04Z</time>
      </trkpt>
      <trkpt lat="47.11277" lon="6.74464">
        <ele>834.5941</ele>
        <time>2020-07-11T13:40:10Z</time>
      </trkpt>
      <trkpt lat="47.11268" lon="6.74426">
        <ele>830.923</ele>
        <time>2020-07-11T13:40:15Z</time>
      </trkpt>
      <trkpt lat="47.11267" lon="6.74381">
        <ele>827.5746</ele>
        <time>2020-07-11T13:40:20Z</time>
      </trkpt>
      <trkpt lat="47.11262" lon="6.74345">
        <ele>824.00183</ele>
        <time>2020-07-11T13:40:25Z</time>
      </trkpt>
      <trkpt lat="47.11256" lon="6.743">
        <ele>820.6837</ele>
        <time>2020-07-11T13:40:30Z</time>
      </trkpt>
      <trkpt lat="47.11256" lon="6.74246">
        <ele>821.48157</ele>
        <time>2020-07-11T13:40:35Z</time>
      </trkpt>
      <trkpt lat="47.11255" lon="6.74207">
        <ele>820.5342</ele>
        <time>2020-07-11T13:40:40Z</time>
      </trkpt>
      <trkpt lat="47.11236" lon="6.74165">
        <ele>817.6829</ele>
        <time>2020-07-11T13:40:45Z</time>
      </trkpt>
      <trkpt lat="47.11223" lon="6.74116">
        <ele>817.3829</ele>
        <time>2020-07-11T13:40:50Z</time>
      </trkpt>
      <trkpt lat="47.1124" lon="6.74079">
        <ele>815.19684</ele>
        <time>2020-07-11T13:40:55Z</time>
      </trkpt>
      <trkpt lat="47.11277" lon="6.74026">
        <ele>816.8758</ele>
        <time>2020-07-11T13:41:05Z</time>
      </trkpt>
      <trkpt lat="47.11263" lon="6.73959">
        <ele>819.3401</ele>
        <time>2020-07-11T13:41:14Z</time>
      </trkpt>
      <trkpt lat="47.11226" lon="6.73907">
        <ele>818.29767</ele>
        <time>2020-07-11T13:41:20Z</time>
      </trkpt>
      <trkpt lat="47.11201" lon="6.73876">
        <ele>817.07025</ele>
        <time>2020-07-11T13:41:25Z</time>
      </trkpt>
      <trkpt lat="47.11185" lon="6.73859">
        <ele>815.81256</ele>
        <time>2020-07-11T13:41:30Z</time>
      </trkpt>
      <trkpt lat="47.11166" lon="6.73835">
        <ele>817.0974</ele>
        <time>2020-07-11T13:41:35Z</time>
      </trkpt>
      <trkpt lat="47.11148" lon="6.7379">
        <ele>817.845</ele>
        <time>2020-07-11T13:41:44Z</time>
      </trkpt>
      <trkpt lat="47.11134" lon="6.73769">
        <ele>818.4545</ele>
        <time>2020-07-11T13:41:49Z</time>
      </trkpt>
      <trkpt lat="47.11113" lon="6.7374">
        <ele>818.01855</ele>
        <time>2020-07-11T13:41:54Z</time>
      </trkpt>
      <trkpt lat="47.11098" lon="6.73719">
        <ele>817.8617</ele>
        <time>2020-07-11T13:41:59Z</time>
      </trkpt>
      <trkpt lat="47.11086" lon="6.73694">
        <ele>817.4435</ele>
        <time>2020-07-11T13:42:04Z</time>
      </trkpt>
      <trkpt lat="47.11073" lon="6.73678">
        <ele>820.1871</ele>
        <time>2020-07-11T13:42:09Z</time>
      </trkpt>
      <trkpt lat="47.11054" lon="6.73666">
        <ele>822.41644</ele>
        <time>2020-07-11T13:42:14Z</time>
      </trkpt>
      <trkpt lat="47.11037" lon="6.73652">
        <ele>825.2422</ele>
        <time>2020-07-11T13:42:19Z</time>
      </trkpt>
      <trkpt lat="47.11017" lon="6.73645">
        <ele>826.85284</ele>
        <time>2020-07-11T13:42:25Z</time>
      </trkpt>
      <trkpt lat="47.10984" lon="6.73676">
        <ele>828.57245</ele>
        <time>2020-07-11T13:42:35Z</time>
      </trkpt>
      <trkpt lat="47.10947" lon="6.73662">
        <ele>830.0139</ele>
        <time>2020-07-11T13:42:44Z</time>
      </trkpt>
      <trkpt lat="47.10918" lon="6.73647">
        <ele>830.2106</ele>
        <time>2020-07-11T13:42:49Z</time>
      </trkpt>
      <trkpt lat="47.10886" lon="6.73634">
        <ele>831.3728</ele>
        <time>2020-07-11T13:42:54Z</time>
      </trkpt>
      <trkpt lat="47.10849" lon="6.73624">
        <ele>831.4868</ele>
        <time>2020-07-11T13:42:59Z</time>
      </trkpt>
      <trkpt lat="47.10818" lon="6.73618">
        <ele>831.4094</ele>
        <time>2020-07-11T13:43:04Z</time>
      </trkpt>
      <trkpt lat="47.1079" lon="6.73605">
        <ele>831.17505</ele>
        <time>2020-07-11T13:43:09Z</time>
      </trkpt>
      <trkpt lat="47.10756" lon="6.73583">
        <ele>830.65094</ele>
        <time>2020-07-11T13:43:15Z</time>
      </trkpt>
      <trkpt lat="47.10733" lon="6.73564">
        <ele>828.88416</ele>
        <time>2020-07-11T13:43:20Z</time>
      </trkpt>
      <trkpt lat="47.10704" lon="6.73544">
        <ele>827.91974</ele>
        <time>2020-07-11T13:43:25Z</time>
      </trkpt>
      <trkpt lat="47.10677" lon="6.73526">
        <ele>828.15717</ele>
        <time>2020-07-11T13:43:30Z</time>
      </trkpt>
      <trkpt lat="47.10651" lon="6.73522">
        <ele>828.5557</ele>
        <time>2020-07-11T13:43:35Z</time>
      </trkpt>
      <trkpt lat="47.10628" lon="6.73515">
        <ele>827.62476</ele>
        <time>2020-07-11T13:43:40Z</time>
      </trkpt>
      <trkpt lat="47.10608" lon="6.73499">
        <ele>829.0599</ele>
        <time>2020-07-11T13:43:45Z</time>
      </trkpt>
      <trkpt lat="47.10588" lon="6.73486">
        <ele>828.88837</ele>
        <time>2020-07-11T13:43:50Z</time>
      </trkpt>
      <trkpt lat="47.10571" lon="6.73461">
        <ele>831.14264</ele>
        <time>2020-07-11T13:43:55Z</time>
      </trkpt>
      <trkpt lat="47.10555" lon="6.73437">
        <ele>833.34174</ele>
        <time>2020-07-11T13:44:00Z</time>
      </trkpt>
      <trkpt lat="47.10532" lon="6.73417">
        <ele>833.9245</ele>
        <time>2020-07-11T13:44:05Z</time>
      </trkpt>
      <trkpt lat="47.10495" lon="6.734">
        <ele>836.669</ele>
        <time>2020-07-11T13:44:14Z</time>
      </trkpt>
      <trkpt lat="47.10489" lon="6.73404">
        <ele>835.36</ele>
        <time>2020-07-11T13:44:34Z</time>
      </trkpt>
      <trkpt lat="47.10484" lon="6.73406">
        <ele>835.39557</ele>
        <time>2020-07-11T13:46:09Z</time>
      </trkpt>
      <trkpt lat="47.10483" lon="6.73395">
        <ele>836.51935</ele>
        <time>2020-07-11T13:46:29Z</time>
      </trkpt>
      <trkpt lat="47.10473" lon="6.73392">
        <ele>837.1221</ele>
        <time>2020-07-11T13:46:34Z</time>
      </trkpt>
      <trkpt lat="47.10456" lon="6.73387">
        <ele>839.1867</ele>
        <time>2020-07-11T13:46:39Z</time>
      </trkpt>
      <trkpt lat="47.10434" lon="6.73381">
        <ele>841.374</ele>
        <time>2020-07-11T13:46:45Z</time>
      </trkpt>
      <trkpt lat="47.10412" lon="6.73375">
        <ele>843.2538</ele>
        <time>2020-07-11T13:46:50Z</time>
      </trkpt>
      <trkpt lat="47.10395" lon="6.7337">
        <ele>844.68256</ele>
        <time>2020-07-11T13:46:55Z</time>
      </trkpt>
      <trkpt lat="47.10378" lon="6.73363">
        <ele>846.9321</ele>
        <time>2020-07-11T13:47:00Z</time>
      </trkpt>
      <trkpt lat="47.10358" lon="6.73351">
        <ele>848.45953</ele>
        <time>2020-07-11T13:47:05Z</time>
      </trkpt>
      <trkpt lat="47.1034" lon="6.73342">
        <ele>850.1546</ele>
        <time>2020-07-11T13:47:10Z</time>
      </trkpt>
      <trkpt lat="47.10318" lon="6.73333">
        <ele>850.9011</ele>
        <time>2020-07-11T13:47:15Z</time>
      </trkpt>
      <trkpt lat="47.10283" lon="6.73313">
        <ele>852.9806</ele>
        <time>2020-07-11T13:47:24Z</time>
      </trkpt>
      <trkpt lat="47.1027" lon="6.73305">
        <ele>854.21625</ele>
        <time>2020-07-11T13:47:29Z</time>
      </trkpt>
      <trkpt lat="47.10272" lon="6.73303">
        <ele>854.22046</ele>
        <time>2020-07-11T13:47:35Z</time>
      </trkpt>
      <trkpt lat="47.10273" lon="6.73311">
        <ele>854.1084</ele>
        <time>2020-07-11T13:47:50Z</time>
      </trkpt>
      <trkpt lat="47.1026" lon="6.73306">
        <ele>853.8686</ele>
        <time>2020-07-11T13:47:59Z</time>
      </trkpt>
      <trkpt lat="47.10255" lon="6.73308">
        <ele>854.06757</ele>
        <time>2020-07-11T13:48:15Z</time>
      </trkpt>
      <trkpt lat="47.1022" lon="6.7328">
        <ele>854.60895</ele>
        <time>2020-07-11T13:48:24Z</time>
      </trkpt>
      <trkpt lat="47.102" lon="6.73252">
        <ele>855.94</ele>
        <time>2020-07-11T13:48:29Z</time>
      </trkpt>
      <trkpt lat="47.10183" lon="6.73221">
        <ele>857.26276</ele>
        <time>2020-07-11T13:48:34Z</time>
      </trkpt>
      <trkpt lat="47.10164" lon="6.73189">
        <ele>858.20435</ele>
        <time>2020-07-11T13:48:39Z</time>
      </trkpt>
      <trkpt lat="47.10146" lon="6.73154">
        <ele>859.20245</ele>
        <time>2020-07-11T13:48:44Z</time>
      </trkpt>
      <trkpt lat="47.10131" lon="6.73112">
        <ele>860.70557</ele>
        <time>2020-07-11T13:48:50Z</time>
      </trkpt>
      <trkpt lat="47.10105" lon="6.73039">
        <ele>860.98004</ele>
        <time>2020-07-11T13:49:00Z</time>
      </trkpt>
      <trkpt lat="47.10093" lon="6.72999">
        <ele>860.9748</ele>
        <time>2020-07-11T13:49:05Z</time>
      </trkpt>
      <trkpt lat="47.10078" lon="6.72956">
        <ele>860.075</ele>
        <time>2020-07-11T13:49:10Z</time>
      </trkpt>
      <trkpt lat="47.10066" lon="6.72914">
        <ele>859.64343</ele>
        <time>2020-07-11T13:49:15Z</time>
      </trkpt>
      <trkpt lat="47.10061" lon="6.72872">
        <ele>860.3086</ele>
        <time>2020-07-11T13:49:20Z</time>
      </trkpt>
      <trkpt lat="47.10069" lon="6.72778">
        <ele>858.2745</ele>
        <time>2020-07-11T13:49:30Z</time>
      </trkpt>
      <trkpt lat="47.10061" lon="6.7273">
        <ele>857.32245</ele>
        <time>2020-07-11T13:49:35Z</time>
      </trkpt>
      <trkpt lat="47.10033" lon="6.72657">
        <ele>859.1072</ele>
        <time>2020-07-11T13:49:45Z</time>
      </trkpt>
      <trkpt lat="47.10002" lon="6.72599">
        <ele>864.11017</ele>
        <time>2020-07-11T13:49:55Z</time>
      </trkpt>
      <trkpt lat="47.09985" lon="6.72575">
        <ele>866.09973</ele>
        <time>2020-07-11T13:50:00Z</time>
      </trkpt>
      <trkpt lat="47.0995" lon="6.72533">
        <ele>869.6047</ele>
        <time>2020-07-11T13:50:09Z</time>
      </trkpt>
      <trkpt lat="47.0993" lon="6.72512">
        <ele>871.15454</ele>
        <time>2020-07-11T13:50:14Z</time>
      </trkpt>
      <trkpt lat="47.09911" lon="6.72492">
        <ele>871.9762</ele>
        <time>2020-07-11T13:50:19Z</time>
      </trkpt>
      <trkpt lat="47.0989" lon="6.72471">
        <ele>872.0946</ele>
        <time>2020-07-11T13:50:24Z</time>
      </trkpt>
      <trkpt lat="47.09863" lon="6.72446">
        <ele>872.33356</ele>
        <time>2020-07-11T13:50:30Z</time>
      </trkpt>
      <trkpt lat="47.09838" lon="6.72423">
        <ele>871.93427</ele>
        <time>2020-07-11T13:50:35Z</time>
      </trkpt>
      <trkpt lat="47.09815" lon="6.724">
        <ele>872.1868</ele>
        <time>2020-07-11T13:50:40Z</time>
      </trkpt>
      <trkpt lat="47.09786" lon="6.72403">
        <ele>873.26733</ele>
        <time>2020-07-11T13:50:50Z</time>
      </trkpt>
      <trkpt lat="47.09753" lon="6.72431">
        <ele>874.9391</ele>
        <time>2020-07-11T13:51:00Z</time>
      </trkpt>
      <trkpt lat="47.09736" lon="6.72447">
        <ele>876.8929</ele>
        <time>2020-07-11T13:51:05Z</time>
      </trkpt>
      <trkpt lat="47.09718" lon="6.7246">
        <ele>877.8646</ele>
        <time>2020-07-11T13:51:10Z</time>
      </trkpt>
      <trkpt lat="47.09702" lon="6.72463">
        <ele>878.13824</ele>
        <time>2020-07-11T13:51:15Z</time>
      </trkpt>
      <trkpt lat="47.09691" lon="6.7248">
        <ele>876.2776</ele>
        <time>2020-07-11T13:51:20Z</time>
      </trkpt>
      <trkpt lat="47.09685" lon="6.72506">
        <ele>874.97894</ele>
        <time>2020-07-11T13:51:25Z</time>
      </trkpt>
      <trkpt lat="47.09682" lon="6.72546">
        <ele>873.27997</ele>
        <time>2020-07-11T13:51:34Z</time>
      </trkpt>
      <trkpt lat="47.09668" lon="6.72586">
        <ele>871.23004</ele>
        <time>2020-07-11T13:51:40Z</time>
      </trkpt>
      <trkpt lat="47.09656" lon="6.72615">
        <ele>869.35315</ele>
        <time>2020-07-11T13:51:45Z</time>
      </trkpt>
      <trkpt lat="47.09649" lon="6.72649">
        <ele>869.3186</ele>
        <time>2020-07-11T13:51:50Z</time>
      </trkpt>
      <trkpt lat="47.09656" lon="6.72686">
        <ele>869.0986</ele>
        <time>2020-07-11T13:51:55Z</time>
      </trkpt>
      <trkpt lat="47.09673" lon="6.72746">
        <ele>869.11743</ele>
        <time>2020-07-11T13:52:04Z</time>
      </trkpt>
      <trkpt lat="47.09677" lon="6.72779">
        <ele>869.415</ele>
        <time>2020-07-11T13:52:09Z</time>
      </trkpt>
      <trkpt lat="47.09668" lon="6.72805">
        <ele>871.5507</ele>
        <time>2020-07-11T13:52:14Z</time>
      </trkpt>
      <trkpt lat="47.09655" lon="6.72817">
        <ele>872.3755</ele>
        <time>2020-07-11T13:52:19Z</time>
      </trkpt>
      <trkpt lat="47.09641" lon="6.7283">
        <ele>875.61725</ele>
        <time>2020-07-11T13:52:24Z</time>
      </trkpt>
      <trkpt lat="47.09628" lon="6.72843">
        <ele>878.1047</ele>
        <time>2020-07-11T13:52:29Z</time>
      </trkpt>
      <trkpt lat="47.09617" lon="6.72853">
        <ele>881.6513</ele>
        <time>2020-07-11T13:52:34Z</time>
      </trkpt>
      <trkpt lat="47.09605" lon="6.72863">
        <ele>884.73816</ele>
        <time>2020-07-11T13:52:40Z</time>
      </trkpt>
      <trkpt lat="47.09595" lon="6.72872">
        <ele>887.95544</ele>
        <time>2020-07-11T13:52:45Z</time>
      </trkpt>
      <trkpt lat="47.09576" lon="6.72889">
        <ele>893.7641</ele>
        <time>2020-07-11T13:52:55Z</time>
      </trkpt>
      <trkpt lat="47.09568" lon="6.72899">
        <ele>895.8916</ele>
        <time>2020-07-11T13:53:00Z</time>
      </trkpt>
      <trkpt lat="47.09558" lon="6.72912">
        <ele>898.73694</ele>
        <time>2020-07-11T13:53:05Z</time>
      </trkpt>
      <trkpt lat="47.09546" lon="6.72916">
        <ele>899.53015</ele>
        <time>2020-07-11T13:53:10Z</time>
      </trkpt>
      <trkpt lat="47.09536" lon="6.72915">
        <ele>903.735</ele>
        <time>2020-07-11T13:53:59Z</time>
      </trkpt>
      <trkpt lat="47.09532" lon="6.72907">
        <ele>903.5356</ele>
        <time>2020-07-11T13:54:29Z</time>
      </trkpt>
      <trkpt lat="47.09526" lon="6.72899">
        <ele>902.7653</ele>
        <time>2020-07-11T13:54:34Z</time>
      </trkpt>
      <trkpt lat="47.09522" lon="6.72882">
        <ele>902.3938</ele>
        <time>2020-07-11T13:54:39Z</time>
      </trkpt>
      <trkpt lat="47.09513" lon="6.72854">
        <ele>902.43896</ele>
        <time>2020-07-11T13:54:45Z</time>
      </trkpt>
      <trkpt lat="47.09495" lon="6.72808">
        <ele>901.6708</ele>
        <time>2020-07-11T13:54:55Z</time>
      </trkpt>
      <trkpt lat="47.09476" lon="6.72752">
        <ele>899.9667</ele>
        <time>2020-07-11T13:55:05Z</time>
      </trkpt>
      <trkpt lat="47.09468" lon="6.72729">
        <ele>899.54175</ele>
        <time>2020-07-11T13:55:10Z</time>
      </trkpt>
      <trkpt lat="47.0946" lon="6.72702">
        <ele>897.44434</ele>
        <time>2020-07-11T13:55:15Z</time>
      </trkpt>
      <trkpt lat="47.09451" lon="6.72679">
        <ele>895.0911</ele>
        <time>2020-07-11T13:55:20Z</time>
      </trkpt>
      <trkpt lat="47.09443" lon="6.72656">
        <ele>892.6511</ele>
        <time>2020-07-11T13:55:25Z</time>
      </trkpt>
      <trkpt lat="47.09429" lon="6.72627">
        <ele>889.1385</ele>
        <time>2020-07-11T13:55:34Z</time>
      </trkpt>
      <trkpt lat="47.09419" lon="6.72612">
        <ele>888.83746</ele>
        <time>2020-07-11T13:55:39Z</time>
      </trkpt>
      <trkpt lat="47.09411" lon="6.726">
        <ele>888.70215</ele>
        <time>2020-07-11T13:55:44Z</time>
      </trkpt>
      <trkpt lat="47.09407" lon="6.72591">
        <ele>888.57526</ele>
        <time>2020-07-11T13:55:49Z</time>
      </trkpt>
      <trkpt lat="47.09402" lon="6.72574">
        <ele>886.4999</ele>
        <time>2020-07-11T13:55:59Z</time>
      </trkpt>
      <trkpt lat="47.09396" lon="6.72567">
        <ele>886.27545</ele>
        <time>2020-07-11T13:56:05Z</time>
      </trkpt>
      <trkpt lat="47.09393" lon="6.72557">
        <ele>885.6599</ele>
        <time>2020-07-11T13:56:15Z</time>
      </trkpt>
      <trkpt lat="47.0939" lon="6.72553">
        <ele>884.74866</ele>
        <time>2020-07-11T13:56:24Z</time>
      </trkpt>
      <trkpt lat="47.09383" lon="6.72551">
        <ele>882.55194</ele>
        <time>2020-07-11T13:56:35Z</time>
      </trkpt>
      <trkpt lat="47.09376" lon="6.72558">
        <ele>881.4039</ele>
        <time>2020-07-11T13:56:45Z</time>
      </trkpt>
      <trkpt lat="47.09382" lon="6.72529">
        <ele>878.89514</ele>
        <time>2020-07-11T13:57:15Z</time>
      </trkpt>
      <trkpt lat="47.09381" lon="6.72502">
        <ele>878.86365</ele>
        <time>2020-07-11T13:57:20Z</time>
      </trkpt>
      <trkpt lat="47.09376" lon="6.72472">
        <ele>878.36676</ele>
        <time>2020-07-11T13:57:25Z</time>
      </trkpt>
      <trkpt lat="47.09366" lon="6.72434">
        <ele>876.7346</ele>
        <time>2020-07-11T13:57:30Z</time>
      </trkpt>
      <trkpt lat="47.09356" lon="6.72403">
        <ele>876.503</ele>
        <time>2020-07-11T13:57:35Z</time>
      </trkpt>
      <trkpt lat="47.09349" lon="6.72381">
        <ele>875.21893</ele>
        <time>2020-07-11T13:57:40Z</time>
      </trkpt>
      <trkpt lat="47.09343" lon="6.72361">
        <ele>874.77454</ele>
        <time>2020-07-11T13:57:45Z</time>
      </trkpt>
      <trkpt lat="47.0933" lon="6.72338">
        <ele>869.43805</ele>
        <time>2020-07-11T13:57:50Z</time>
      </trkpt>
      <trkpt lat="47.09309" lon="6.723">
        <ele>866.7106</ele>
        <time>2020-07-11T13:57:55Z</time>
      </trkpt>
      <trkpt lat="47.09287" lon="6.72268">
        <ele>863.58844</ele>
        <time>2020-07-11T13:58:00Z</time>
      </trkpt>
      <trkpt lat="47.09269" lon="6.72236">
        <ele>863.11804</ele>
        <time>2020-07-11T13:58:05Z</time>
      </trkpt>
      <trkpt lat="47.09248" lon="6.72202">
        <ele>864.6382</ele>
        <time>2020-07-11T13:58:10Z</time>
      </trkpt>
      <trkpt lat="47.09221" lon="6.72151">
        <ele>866.25586</ele>
        <time>2020-07-11T13:58:19Z</time>
      </trkpt>
      <trkpt lat="47.09206" lon="6.72122">
        <ele>867.1255</ele>
        <time>2020-07-11T13:58:24Z</time>
      </trkpt>
      <trkpt lat="47.09191" lon="6.72096">
        <ele>868.2613</ele>
        <time>2020-07-11T13:58:29Z</time>
      </trkpt>
      <trkpt lat="47.09177" lon="6.72071">
        <ele>869.44226</ele>
        <time>2020-07-11T13:58:34Z</time>
      </trkpt>
      <trkpt lat="47.09164" lon="6.72038">
        <ele>869.7336</ele>
        <time>2020-07-11T13:58:39Z</time>
      </trkpt>
      <trkpt lat="47.09155" lon="6.72019">
        <ele>869.21277</ele>
        <time>2020-07-11T13:58:44Z</time>
      </trkpt>
      <trkpt lat="47.0914" lon="6.71999">
        <ele>866.42035</ele>
        <time>2020-07-11T13:58:50Z</time>
      </trkpt>
      <trkpt lat="47.09134" lon="6.71977">
        <ele>864.8226</ele>
        <time>2020-07-11T13:58:55Z</time>
      </trkpt>
      <trkpt lat="47.09127" lon="6.71937">
        <ele>862.588</ele>
        <time>2020-07-11T13:59:04Z</time>
      </trkpt>
      <trkpt lat="47.09127" lon="6.71913">
        <ele>857.4272</ele>
        <time>2020-07-11T13:59:09Z</time>
      </trkpt>
      <trkpt lat="47.09126" lon="6.71898">
        <ele>856.05206</ele>
        <time>2020-07-11T13:59:14Z</time>
      </trkpt>
      <trkpt lat="47.09118" lon="6.71875">
        <ele>852.1785</ele>
        <time>2020-07-11T13:59:20Z</time>
      </trkpt>
      <trkpt lat="47.09109" lon="6.71854">
        <ele>847.55396</ele>
        <time>2020-07-11T13:59:25Z</time>
      </trkpt>
      <trkpt lat="47.09105" lon="6.71841">
        <ele>847.5634</ele>
        <time>2020-07-11T13:59:30Z</time>
      </trkpt>
      <trkpt lat="47.09106" lon="6.71833">
        <ele>847.1321</ele>
        <time>2020-07-11T13:59:55Z</time>
      </trkpt>
      <trkpt lat="47.09105" lon="6.71823">
        <ele>845.9052</ele>
        <time>2020-07-11T14:00:05Z</time>
      </trkpt>
      <trkpt lat="47.091" lon="6.71809">
        <ele>844.3246</ele>
        <time>2020-07-11T14:00:15Z</time>
      </trkpt>
      <trkpt lat="47.09096" lon="6.71801">
        <ele>842.7409</ele>
        <time>2020-07-11T14:00:25Z</time>
      </trkpt>
      <trkpt lat="47.09094" lon="6.71789">
        <ele>839.95483</ele>
        <time>2020-07-11T14:00:34Z</time>
      </trkpt>
      <trkpt lat="47.0909" lon="6.71778">
        <ele>837.47473</ele>
        <time>2020-07-11T14:00:39Z</time>
      </trkpt>
      <trkpt lat="47.09086" lon="6.7176">
        <ele>834.2802</ele>
        <time>2020-07-11T14:00:45Z</time>
      </trkpt>
      <trkpt lat="47.09077" lon="6.71726">
        <ele>829.8936</ele>
        <time>2020-07-11T14:00:55Z</time>
      </trkpt>
      <trkpt lat="47.09069" lon="6.71697">
        <ele>825.3719</ele>
        <time>2020-07-11T14:01:04Z</time>
      </trkpt>
      <trkpt lat="47.09052" lon="6.71672">
        <ele>820.30524</ele>
        <time>2020-07-11T14:01:09Z</time>
      </trkpt>
      <trkpt lat="47.09036" lon="6.71645">
        <ele>819.7113</ele>
        <time>2020-07-11T14:01:14Z</time>
      </trkpt>
      <trkpt lat="47.09036" lon="6.71608">
        <ele>819.8368</ele>
        <time>2020-07-11T14:01:20Z</time>
      </trkpt>
      <trkpt lat="47.09035" lon="6.71584">
        <ele>820.45264</ele>
        <time>2020-07-11T14:01:25Z</time>
      </trkpt>
      <trkpt lat="47.09024" lon="6.71573">
        <ele>821.3509</ele>
        <time>2020-07-11T14:01:30Z</time>
      </trkpt>
      <trkpt lat="47.08998" lon="6.71544">
        <ele>820.7287</ele>
        <time>2020-07-11T14:01:39Z</time>
      </trkpt>
      <trkpt lat="47.08996" lon="6.71515">
        <ele>820.82697</ele>
        <time>2020-07-11T14:01:44Z</time>
      </trkpt>
      <trkpt lat="47.08995" lon="6.71479">
        <ele>817.3567</ele>
        <time>2020-07-11T14:01:49Z</time>
      </trkpt>
      <trkpt lat="47.08997" lon="6.71446">
        <ele>815.4937</ele>
        <time>2020-07-11T14:01:55Z</time>
      </trkpt>
      <trkpt lat="47.09003" lon="6.71424">
        <ele>814.29254</ele>
        <time>2020-07-11T14:02:00Z</time>
      </trkpt>
      <trkpt lat="47.09002" lon="6.71385">
        <ele>812.2124</ele>
        <time>2020-07-11T14:02:05Z</time>
      </trkpt>
      <trkpt lat="47.09003" lon="6.7134">
        <ele>809.359</ele>
        <time>2020-07-11T14:02:10Z</time>
      </trkpt>
      <trkpt lat="47.09" lon="6.71299">
        <ele>807.42035</ele>
        <time>2020-07-11T14:02:15Z</time>
      </trkpt>
      <trkpt lat="47.09003" lon="6.71214">
        <ele>804.0493</ele>
        <time>2020-07-11T14:02:25Z</time>
      </trkpt>
      <trkpt lat="47.09005" lon="6.71184">
        <ele>803.51227</ele>
        <time>2020-07-11T14:02:30Z</time>
      </trkpt>
      <trkpt lat="47.09005" lon="6.71157">
        <ele>803.3785</ele>
        <time>2020-07-11T14:02:35Z</time>
      </trkpt>
      <trkpt lat="47.09005" lon="6.71129">
        <ele>803.52893</ele>
        <time>2020-07-11T14:02:40Z</time>
      </trkpt>
      <trkpt lat="47.09003" lon="6.711">
        <ele>802.48206</ele>
        <time>2020-07-11T14:02:45Z</time>
      </trkpt>
      <trkpt lat="47.09009" lon="6.71058">
        <ele>802.039</ele>
        <time>2020-07-11T14:03:24Z</time>
      </trkpt>
      <trkpt lat="47.09007" lon="6.71065">
        <ele>802.7892</ele>
        <time>2020-07-11T14:04:25Z</time>
      </trkpt>
      <trkpt lat="47.09008" lon="6.7105">
        <ele>802.40265</ele>
        <time>2020-07-11T14:04:30Z</time>
      </trkpt>
      <trkpt lat="47.09016" lon="6.71036">
        <ele>805.229</ele>
        <time>2020-07-11T14:04:35Z</time>
      </trkpt>
      <trkpt lat="47.09023" lon="6.71024">
        <ele>809.5252</ele>
        <time>2020-07-11T14:04:40Z</time>
      </trkpt>
      <trkpt lat="47.09026" lon="6.7101">
        <ele>811.5215</ele>
        <time>2020-07-11T14:04:45Z</time>
      </trkpt>
      <trkpt lat="47.09025" lon="6.70988">
        <ele>815.0055</ele>
        <time>2020-07-11T14:04:54Z</time>
      </trkpt>
      <trkpt lat="47.09023" lon="6.70973">
        <ele>816.77856</ele>
        <time>2020-07-11T14:04:59Z</time>
      </trkpt>
      <trkpt lat="47.09021" lon="6.70953">
        <ele>818.5591</ele>
        <time>2020-07-11T14:05:04Z</time>
      </trkpt>
      <trkpt lat="47.0902" lon="6.70936">
        <ele>821.02563</ele>
        <time>2020-07-11T14:05:09Z</time>
      </trkpt>
      <trkpt lat="47.09022" lon="6.7092">
        <ele>823.6201</ele>
        <time>2020-07-11T14:05:14Z</time>
      </trkpt>
      <trkpt lat="47.09022" lon="6.70906">
        <ele>826.2567</ele>
        <time>2020-07-11T14:05:20Z</time>
      </trkpt>
      <trkpt lat="47.09019" lon="6.70884">
        <ele>830.9125</ele>
        <time>2020-07-11T14:05:30Z</time>
      </trkpt>
      <trkpt lat="47.09015" lon="6.70881">
        <ele>832.0486</ele>
        <time>2020-07-11T14:05:35Z</time>
      </trkpt>
      <trkpt lat="47.08989" lon="6.70871">
        <ele>831.77454</ele>
        <time>2020-07-11T14:05:44Z</time>
      </trkpt>
      <trkpt lat="47.08964" lon="6.70871">
        <ele>829.9731</ele>
        <time>2020-07-11T14:05:49Z</time>
      </trkpt>
      <trkpt lat="47.08942" lon="6.7087">
        <ele>830.12164</ele>
        <time>2020-07-11T14:05:54Z</time>
      </trkpt>
      <trkpt lat="47.08923" lon="6.70862">
        <ele>829.50134</ele>
        <time>2020-07-11T14:05:59Z</time>
      </trkpt>
      <trkpt lat="47.08901" lon="6.70828">
        <ele>827.81616</ele>
        <time>2020-07-11T14:06:04Z</time>
      </trkpt>
      <trkpt lat="47.08881" lon="6.70801">
        <ele>824.39294</ele>
        <time>2020-07-11T14:06:09Z</time>
      </trkpt>
      <trkpt lat="47.08873" lon="6.70789">
        <ele>822.8358</ele>
        <time>2020-07-11T14:06:14Z</time>
      </trkpt>
      <trkpt lat="47.08841" lon="6.70758">
        <ele>824.5017</ele>
        <time>2020-07-11T14:06:39Z</time>
      </trkpt>
      <trkpt lat="47.08825" lon="6.70743">
        <ele>825.59985</ele>
        <time>2020-07-11T14:06:44Z</time>
      </trkpt>
      <trkpt lat="47.08811" lon="6.70734">
        <ele>826.764</ele>
        <time>2020-07-11T14:06:49Z</time>
      </trkpt>
      <trkpt lat="47.08789" lon="6.70722">
        <ele>827.448</ele>
        <time>2020-07-11T14:06:55Z</time>
      </trkpt>
      <trkpt lat="47.0873" lon="6.70713">
        <ele>829.9595</ele>
        <time>2020-07-11T14:07:09Z</time>
      </trkpt>
      <trkpt lat="47.08704" lon="6.70712">
        <ele>831.29956</ele>
        <time>2020-07-11T14:07:15Z</time>
      </trkpt>
      <trkpt lat="47.08682" lon="6.70707">
        <ele>833.5363</ele>
        <time>2020-07-11T14:07:20Z</time>
      </trkpt>
      <trkpt lat="47.08663" lon="6.70701">
        <ele>835.93445</ele>
        <time>2020-07-11T14:07:25Z</time>
      </trkpt>
      <trkpt lat="47.08649" lon="6.70695">
        <ele>838.698</ele>
        <time>2020-07-11T14:07:30Z</time>
      </trkpt>
      <trkpt lat="47.08616" lon="6.70677">
        <ele>843.258</ele>
        <time>2020-07-11T14:07:39Z</time>
      </trkpt>
      <trkpt lat="47.08593" lon="6.70665">
        <ele>845.32214</ele>
        <time>2020-07-11T14:07:44Z</time>
      </trkpt>
      <trkpt lat="47.08571" lon="6.70648">
        <ele>847.9392</ele>
        <time>2020-07-11T14:07:49Z</time>
      </trkpt>
      <trkpt lat="47.0855" lon="6.70632">
        <ele>850.3964</ele>
        <time>2020-07-11T14:07:54Z</time>
      </trkpt>
      <trkpt lat="47.08533" lon="6.70618">
        <ele>853.0382</ele>
        <time>2020-07-11T14:07:59Z</time>
      </trkpt>
      <trkpt lat="47.08508" lon="6.70587">
        <ele>857.7707</ele>
        <time>2020-07-11T14:08:09Z</time>
      </trkpt>
      <trkpt lat="47.08502" lon="6.70566">
        <ele>859.501</ele>
        <time>2020-07-11T14:08:14Z</time>
      </trkpt>
      <trkpt lat="47.08493" lon="6.70539">
        <ele>862.58905</ele>
        <time>2020-07-11T14:08:20Z</time>
      </trkpt>
      <trkpt lat="47.08481" lon="6.70505">
        <ele>866.70953</ele>
        <time>2020-07-11T14:08:29Z</time>
      </trkpt>
      <trkpt lat="47.08472" lon="6.70482">
        <ele>869.1373</ele>
        <time>2020-07-11T14:08:35Z</time>
      </trkpt>
      <trkpt lat="47.08463" lon="6.70462">
        <ele>869.70526</ele>
        <time>2020-07-11T14:08:45Z</time>
      </trkpt>
      <trkpt lat="47.08462" lon="6.70449">
        <ele>871.01935</ele>
        <time>2020-07-11T14:09:14Z</time>
      </trkpt>
      <trkpt lat="47.08463" lon="6.70443">
        <ele>871.90076</ele>
        <time>2020-07-11T14:09:19Z</time>
      </trkpt>
      <trkpt lat="47.08476" lon="6.70448">
        <ele>874</ele>
        <time>2020-07-11T14:09:24Z</time>
      </trkpt>
      <trkpt lat="47.08489" lon="6.7045">
        <ele>875.8604</ele>
        <time>2020-07-11T14:09:29Z</time>
      </trkpt>
      <trkpt lat="47.08505" lon="6.70451">
        <ele>876.8646</ele>
        <time>2020-07-11T14:09:35Z</time>
      </trkpt>
      <trkpt lat="47.08509" lon="6.70451">
        <ele>876.8394</ele>
        <time>2020-07-11T14:09:40Z</time>
      </trkpt>
      <trkpt lat="47.08516" lon="6.70444">
        <ele>877.1801</ele>
        <time>2020-07-11T14:10:09Z</time>
      </trkpt>
      <trkpt lat="47.08522" lon="6.70424">
        <ele>879.0566</ele>
        <time>2020-07-11T14:10:14Z</time>
      </trkpt>
      <trkpt lat="47.08525" lon="6.70397">
        <ele>879.88684</ele>
        <time>2020-07-11T14:10:19Z</time>
      </trkpt>
      <trkpt lat="47.08529" lon="6.70371">
        <ele>880.9195</ele>
        <time>2020-07-11T14:10:24Z</time>
      </trkpt>
      <trkpt lat="47.08534" lon="6.70348">
        <ele>882.4408</ele>
        <time>2020-07-11T14:10:29Z</time>
      </trkpt>
      <trkpt lat="47.08537" lon="6.70326">
        <ele>883.80597</ele>
        <time>2020-07-11T14:10:34Z</time>
      </trkpt>
      <trkpt lat="47.08542" lon="6.70299">
        <ele>886.04474</ele>
        <time>2020-07-11T14:10:39Z</time>
      </trkpt>
      <trkpt lat="47.08548" lon="6.7027">
        <ele>888.2166</ele>
        <time>2020-07-11T14:10:44Z</time>
      </trkpt>
      <trkpt lat="47.08552" lon="6.70242">
        <ele>889.751</ele>
        <time>2020-07-11T14:10:49Z</time>
      </trkpt>
      <trkpt lat="47.08556" lon="6.70211">
        <ele>892.88715</ele>
        <time>2020-07-11T14:10:55Z</time>
      </trkpt>
      <trkpt lat="47.08566" lon="6.70159">
        <ele>894.6852</ele>
        <time>2020-07-11T14:11:04Z</time>
      </trkpt>
      <trkpt lat="47.08569" lon="6.70127">
        <ele>896.7393</ele>
        <time>2020-07-11T14:11:10Z</time>
      </trkpt>
      <trkpt lat="47.08574" lon="6.70075">
        <ele>900.1041</ele>
        <time>2020-07-11T14:11:19Z</time>
      </trkpt>
      <trkpt lat="47.08576" lon="6.70048">
        <ele>900.6603</ele>
        <time>2020-07-11T14:11:24Z</time>
      </trkpt>
      <trkpt lat="47.08577" lon="6.70014">
        <ele>902.7496</ele>
        <time>2020-07-11T14:11:30Z</time>
      </trkpt>
      <trkpt lat="47.0858" lon="6.69984">
        <ele>903.6489</ele>
        <time>2020-07-11T14:11:35Z</time>
      </trkpt>
      <trkpt lat="47.08583" lon="6.69954">
        <ele>905.4919</ele>
        <time>2020-07-11T14:11:40Z</time>
      </trkpt>
      <trkpt lat="47.08586" lon="6.69925">
        <ele>906.23914</ele>
        <time>2020-07-11T14:11:45Z</time>
      </trkpt>
      <trkpt lat="47.08589" lon="6.69896">
        <ele>907.4158</ele>
        <time>2020-07-11T14:11:50Z</time>
      </trkpt>
      <trkpt lat="47.08586" lon="6.69838">
        <ele>907.99725</ele>
        <time>2020-07-11T14:12:00Z</time>
      </trkpt>
      <trkpt lat="47.08585" lon="6.69805">
        <ele>909.64</ele>
        <time>2020-07-11T14:12:10Z</time>
      </trkpt>
      <trkpt lat="47.08588" lon="6.69809">
        <ele>910.12396</ele>
        <time>2020-07-11T14:12:25Z</time>
      </trkpt>
      <trkpt lat="47.08584" lon="6.69806">
        <ele>909.76917</ele>
        <time>2020-07-11T14:12:34Z</time>
      </trkpt>
      <trkpt lat="47.08562" lon="6.69776">
        <ele>910.1502</ele>
        <time>2020-07-11T14:12:40Z</time>
      </trkpt>
      <trkpt lat="47.08542" lon="6.69749">
        <ele>910.6583</ele>
        <time>2020-07-11T14:12:45Z</time>
      </trkpt>
      <trkpt lat="47.08502" lon="6.69705">
        <ele>907.9542</ele>
        <time>2020-07-11T14:12:55Z</time>
      </trkpt>
      <trkpt lat="47.08483" lon="6.69687">
        <ele>906.70514</ele>
        <time>2020-07-11T14:13:04Z</time>
      </trkpt>
      <trkpt lat="47.08479" lon="6.69695">
        <ele>906.384</ele>
        <time>2020-07-11T14:13:10Z</time>
      </trkpt>
      <trkpt lat="47.0846" lon="6.69708">
        <ele>904.66486</ele>
        <time>2020-07-11T14:13:15Z</time>
      </trkpt>
      <trkpt lat="47.08434" lon="6.69717">
        <ele>903.9218</ele>
        <time>2020-07-11T14:13:20Z</time>
      </trkpt>
      <trkpt lat="47.0841" lon="6.69725">
        <ele>903.862</ele>
        <time>2020-07-11T14:13:25Z</time>
      </trkpt>
      <trkpt lat="47.08379" lon="6.6972">
        <ele>903.0119</ele>
        <time>2020-07-11T14:13:30Z</time>
      </trkpt>
      <trkpt lat="47.08345" lon="6.69707">
        <ele>902.40326</ele>
        <time>2020-07-11T14:13:35Z</time>
      </trkpt>
      <trkpt lat="47.08304" lon="6.69722">
        <ele>900.21643</ele>
        <time>2020-07-11T14:13:44Z</time>
      </trkpt>
      <trkpt lat="47.08282" lon="6.69751">
        <ele>900.3969</ele>
        <time>2020-07-11T14:13:50Z</time>
      </trkpt>
      <trkpt lat="47.08266" lon="6.69775">
        <ele>901.7275</ele>
        <time>2020-07-11T14:13:55Z</time>
      </trkpt>
      <trkpt lat="47.08245" lon="6.69793">
        <ele>903.32043</ele>
        <time>2020-07-11T14:14:00Z</time>
      </trkpt>
      <trkpt lat="47.08227" lon="6.69797">
        <ele>904.647</ele>
        <time>2020-07-11T14:14:05Z</time>
      </trkpt>
      <trkpt lat="47.08202" lon="6.69793">
        <ele>907.62885</ele>
        <time>2020-07-11T14:14:14Z</time>
      </trkpt>
      <trkpt lat="47.08182" lon="6.69785">
        <ele>909.57916</ele>
        <time>2020-07-11T14:14:19Z</time>
      </trkpt>
      <trkpt lat="47.08161" lon="6.69777">
        <ele>911.13806</ele>
        <time>2020-07-11T14:14:24Z</time>
      </trkpt>
      <trkpt lat="47.0814" lon="6.69772">
        <ele>912.4493</ele>
        <time>2020-07-11T14:14:29Z</time>
      </trkpt>
      <trkpt lat="47.0812" lon="6.69763">
        <ele>914.6289</ele>
        <time>2020-07-11T14:14:34Z</time>
      </trkpt>
      <trkpt lat="47.08085" lon="6.69749">
        <ele>917.3842</ele>
        <time>2020-07-11T14:14:44Z</time>
      </trkpt>
      <trkpt lat="47.08065" lon="6.69753">
        <ele>919.0833</ele>
        <time>2020-07-11T14:14:49Z</time>
      </trkpt>
      <trkpt lat="47.08049" lon="6.69752">
        <ele>919.349</ele>
        <time>2020-07-11T14:14:54Z</time>
      </trkpt>
      <trkpt lat="47.08027" lon="6.69753">
        <ele>919.90247</ele>
        <time>2020-07-11T14:14:59Z</time>
      </trkpt>
      <trkpt lat="47.07996" lon="6.69756">
        <ele>919.2282</ele>
        <time>2020-07-11T14:15:05Z</time>
      </trkpt>
      <trkpt lat="47.07959" lon="6.69749">
        <ele>915.56445</ele>
        <time>2020-07-11T14:15:14Z</time>
      </trkpt>
      <trkpt lat="47.07932" lon="6.69737">
        <ele>915.5592</ele>
        <time>2020-07-11T14:15:19Z</time>
      </trkpt>
      <trkpt lat="47.07906" lon="6.6973">
        <ele>913.8299</ele>
        <time>2020-07-11T14:15:24Z</time>
      </trkpt>
      <trkpt lat="47.0787" lon="6.69724">
        <ele>911.4593</ele>
        <time>2020-07-11T14:15:30Z</time>
      </trkpt>
      <trkpt lat="47.07843" lon="6.69717">
        <ele>908.52313</ele>
        <time>2020-07-11T14:15:35Z</time>
      </trkpt>
      <trkpt lat="47.07804" lon="6.69702">
        <ele>904.80023</ele>
        <time>2020-07-11T14:15:45Z</time>
      </trkpt>
      <trkpt lat="47.07783" lon="6.69685">
        <ele>902.9175</ele>
        <time>2020-07-11T14:15:55Z</time>
      </trkpt>
      <trkpt lat="47.07777" lon="6.69682">
        <ele>902.9836</ele>
        <time>2020-07-11T14:16:10Z</time>
      </trkpt>
      <trkpt lat="47.07756" lon="6.69659">
        <ele>901.81665</ele>
        <time>2020-07-11T14:16:15Z</time>
      </trkpt>
      <trkpt lat="47.07742" lon="6.69641">
        <ele>902.78107</ele>
        <time>2020-07-11T14:16:20Z</time>
      </trkpt>
      <trkpt lat="47.07731" lon="6.69625">
        <ele>898.77893</ele>
        <time>2020-07-11T14:16:25Z</time>
      </trkpt>
      <trkpt lat="47.07722" lon="6.69615">
        <ele>897.9217</ele>
        <time>2020-07-11T14:16:51Z</time>
      </trkpt>
      <trkpt lat="47.07712" lon="6.69602">
        <ele>896.9921</ele>
        <time>2020-07-11T14:17:00Z</time>
      </trkpt>
      <trkpt lat="47.07713" lon="6.69583">
        <ele>897.5786</ele>
        <time>2020-07-11T14:17:55Z</time>
      </trkpt>
      <trkpt lat="47.07716" lon="6.69542">
        <ele>899.73895</ele>
        <time>2020-07-11T14:18:05Z</time>
      </trkpt>
      <trkpt lat="47.07722" lon="6.69499">
        <ele>900.7442</ele>
        <time>2020-07-11T14:18:14Z</time>
      </trkpt>
      <trkpt lat="47.07724" lon="6.69471">
        <ele>901.3098</ele>
        <time>2020-07-11T14:18:19Z</time>
      </trkpt>
      <trkpt lat="47.07725" lon="6.69442">
        <ele>901.79987</ele>
        <time>2020-07-11T14:18:24Z</time>
      </trkpt>
      <trkpt lat="47.07725" lon="6.6941">
        <ele>902.44836</ele>
        <time>2020-07-11T14:18:29Z</time>
      </trkpt>
      <trkpt lat="47.07722" lon="6.69381">
        <ele>903.5188</ele>
        <time>2020-07-11T14:18:34Z</time>
      </trkpt>
      <trkpt lat="47.07722" lon="6.69345">
        <ele>904.3195</ele>
        <time>2020-07-11T14:18:40Z</time>
      </trkpt>
      <trkpt lat="47.07727" lon="6.69288">
        <ele>904.2629</ele>
        <time>2020-07-11T14:18:49Z</time>
      </trkpt>
      <trkpt lat="47.07713" lon="6.69262">
        <ele>903.51776</ele>
        <time>2020-07-11T14:18:54Z</time>
      </trkpt>
      <trkpt lat="47.07693" lon="6.69244">
        <ele>903.8588</ele>
        <time>2020-07-11T14:18:59Z</time>
      </trkpt>
      <trkpt lat="47.07681" lon="6.69217">
        <ele>904.4885</ele>
        <time>2020-07-11T14:19:04Z</time>
      </trkpt>
      <trkpt lat="47.07694" lon="6.69189">
        <ele>905.76056</ele>
        <time>2020-07-11T14:19:10Z</time>
      </trkpt>
      <trkpt lat="47.07713" lon="6.69156">
        <ele>907.71594</ele>
        <time>2020-07-11T14:19:19Z</time>
      </trkpt>
      <trkpt lat="47.07723" lon="6.6914">
        <ele>909.3986</ele>
        <time>2020-07-11T14:19:25Z</time>
      </trkpt>
      <trkpt lat="47.07737" lon="6.69112">
        <ele>912.2876</ele>
        <time>2020-07-11T14:19:34Z</time>
      </trkpt>
      <trkpt lat="47.0774" lon="6.69094">
        <ele>913.1989</ele>
        <time>2020-07-11T14:19:39Z</time>
      </trkpt>
      <trkpt lat="47.07746" lon="6.69074">
        <ele>914.10077</ele>
        <time>2020-07-11T14:19:44Z</time>
      </trkpt>
      <trkpt lat="47.07748" lon="6.69055">
        <ele>915.49725</ele>
        <time>2020-07-11T14:19:49Z</time>
      </trkpt>
      <trkpt lat="47.07753" lon="6.6904">
        <ele>916.79297</ele>
        <time>2020-07-11T14:19:54Z</time>
      </trkpt>
      <trkpt lat="47.07756" lon="6.69023">
        <ele>917.61523</ele>
        <time>2020-07-11T14:19:59Z</time>
      </trkpt>
      <trkpt lat="47.07759" lon="6.69008">
        <ele>919.35004</ele>
        <time>2020-07-11T14:20:04Z</time>
      </trkpt>
      <trkpt lat="47.07761" lon="6.68994">
        <ele>920.2028</ele>
        <time>2020-07-11T14:20:09Z</time>
      </trkpt>
      <trkpt lat="47.07745" lon="6.68985">
        <ele>919.55273</ele>
        <time>2020-07-11T14:21:30Z</time>
      </trkpt>
      <trkpt lat="47.07726" lon="6.68984">
        <ele>918.55084</ele>
        <time>2020-07-11T14:21:35Z</time>
      </trkpt>
      <trkpt lat="47.07706" lon="6.68981">
        <ele>918.79346</ele>
        <time>2020-07-11T14:21:40Z</time>
      </trkpt>
      <trkpt lat="47.07686" lon="6.68974">
        <ele>918.177</ele>
        <time>2020-07-11T14:21:45Z</time>
      </trkpt>
      <trkpt lat="47.07667" lon="6.6896">
        <ele>917.716</ele>
        <time>2020-07-11T14:21:50Z</time>
      </trkpt>
      <trkpt lat="47.07646" lon="6.68941">
        <ele>917.12164</ele>
        <time>2020-07-11T14:21:55Z</time>
      </trkpt>
      <trkpt lat="47.07603" lon="6.68892">
        <ele>915.0783</ele>
        <time>2020-07-11T14:22:04Z</time>
      </trkpt>
      <trkpt lat="47.07581" lon="6.68853">
        <ele>913.63354</ele>
        <time>2020-07-11T14:22:09Z</time>
      </trkpt>
      <trkpt lat="47.07549" lon="6.68825">
        <ele>911.90967</ele>
        <time>2020-07-11T14:22:14Z</time>
      </trkpt>
      <trkpt lat="47.07499" lon="6.68796">
        <ele>907.71594</ele>
        <time>2020-07-11T14:22:20Z</time>
      </trkpt>
      <trkpt lat="47.07418" lon="6.68738">
        <ele>903.2145</ele>
        <time>2020-07-11T14:22:29Z</time>
      </trkpt>
      <trkpt lat="47.07384" lon="6.68674">
        <ele>899.5197</ele>
        <time>2020-07-11T14:22:34Z</time>
      </trkpt>
      <trkpt lat="47.07355" lon="6.68599">
        <ele>896.7026</ele>
        <time>2020-07-11T14:22:40Z</time>
      </trkpt>
      <trkpt lat="47.07326" lon="6.68522">
        <ele>893.44836</ele>
        <time>2020-07-11T14:22:45Z</time>
      </trkpt>
      <trkpt lat="47.07298" lon="6.68443">
        <ele>889.65765</ele>
        <time>2020-07-11T14:22:50Z</time>
      </trkpt>
      <trkpt lat="47.07264" lon="6.68345">
        <ele>885.1901</ele>
        <time>2020-07-11T14:22:55Z</time>
      </trkpt>
      <trkpt lat="47.07236" lon="6.68267">
        <ele>880.8786</ele>
        <time>2020-07-11T14:23:00Z</time>
      </trkpt>
      <trkpt lat="47.07204" lon="6.68154">
        <ele>875.06696</ele>
        <time>2020-07-11T14:23:10Z</time>
      </trkpt>
      <trkpt lat="47.07175" lon="6.68121">
        <ele>872.99066</ele>
        <time>2020-07-11T14:23:14Z</time>
      </trkpt>
      <trkpt lat="47.07132" lon="6.68131">
        <ele>871.10425</ele>
        <time>2020-07-11T14:23:19Z</time>
      </trkpt>
      <trkpt lat="47.07084" lon="6.68137">
        <ele>867.9784</ele>
        <time>2020-07-11T14:23:25Z</time>
      </trkpt>
      <trkpt lat="47.07034" lon="6.68125">
        <ele>863.9677</ele>
        <time>2020-07-11T14:23:29Z</time>
      </trkpt>
      <trkpt lat="47.06994" lon="6.68074">
        <ele>861.08374</ele>
        <time>2020-07-11T14:23:35Z</time>
      </trkpt>
      <trkpt lat="47.06966" lon="6.68015">
        <ele>858.86206</ele>
        <time>2020-07-11T14:23:39Z</time>
      </trkpt>
      <trkpt lat="47.06937" lon="6.67956">
        <ele>854.5545</ele>
        <time>2020-07-11T14:23:45Z</time>
      </trkpt>
      <trkpt lat="47.06907" lon="6.679">
        <ele>852.35547</ele>
        <time>2020-07-11T14:23:50Z</time>
      </trkpt>
      <trkpt lat="47.06843" lon="6.67792">
        <ele>845.3399</ele>
        <time>2020-07-11T14:24:00Z</time>
      </trkpt>
      <trkpt lat="47.06807" lon="6.67673">
        <ele>839.7037</ele>
        <time>2020-07-11T14:24:09Z</time>
      </trkpt>
      <trkpt lat="47.06818" lon="6.67602">
        <ele>835.38196</ele>
        <time>2020-07-11T14:24:14Z</time>
      </trkpt>
      <trkpt lat="47.06812" lon="6.67542">
        <ele>832.5309</ele>
        <time>2020-07-11T14:24:19Z</time>
      </trkpt>
      <trkpt lat="47.06769" lon="6.67505">
        <ele>830.1844</ele>
        <time>2020-07-11T14:24:24Z</time>
      </trkpt>
      <trkpt lat="47.06718" lon="6.6749">
        <ele>827.4323</ele>
        <time>2020-07-11T14:24:29Z</time>
      </trkpt>
      <trkpt lat="47.06666" lon="6.67464">
        <ele>823.9788</ele>
        <time>2020-07-11T14:24:34Z</time>
      </trkpt>
      <trkpt lat="47.06625" lon="6.67387">
        <ele>820.2916</ele>
        <time>2020-07-11T14:24:40Z</time>
      </trkpt>
      <trkpt lat="47.06567" lon="6.67278">
        <ele>813.4061</ele>
        <time>2020-07-11T14:24:49Z</time>
      </trkpt>
      <trkpt lat="47.06532" lon="6.6725">
        <ele>810.5745</ele>
        <time>2020-07-11T14:24:54Z</time>
      </trkpt>
      <trkpt lat="47.06502" lon="6.67225">
        <ele>808.3369</ele>
        <time>2020-07-11T14:24:59Z</time>
      </trkpt>
      <trkpt lat="47.06496" lon="6.6715">
        <ele>806.00854</ele>
        <time>2020-07-11T14:25:05Z</time>
      </trkpt>
      <trkpt lat="47.06526" lon="6.67106">
        <ele>803.3827</ele>
        <time>2020-07-11T14:25:10Z</time>
      </trkpt>
      <trkpt lat="47.06523" lon="6.67067">
        <ele>801.4978</ele>
        <time>2020-07-11T14:25:15Z</time>
      </trkpt>
      <trkpt lat="47.0648" lon="6.67073">
        <ele>799.25793</ele>
        <time>2020-07-11T14:25:20Z</time>
      </trkpt>
      <trkpt lat="47.0644" lon="6.67092">
        <ele>796.0385</ele>
        <time>2020-07-11T14:25:25Z</time>
      </trkpt>
      <trkpt lat="47.06361" lon="6.67155">
        <ele>788.99115</ele>
        <time>2020-07-11T14:25:35Z</time>
      </trkpt>
      <trkpt lat="47.06284" lon="6.67089">
        <ele>783.68097</ele>
        <time>2020-07-11T14:25:44Z</time>
      </trkpt>
      <trkpt lat="47.06246" lon="6.67049">
        <ele>780.1788</ele>
        <time>2020-07-11T14:25:49Z</time>
      </trkpt>
      <trkpt lat="47.06211" lon="6.67008">
        <ele>776.40576</ele>
        <time>2020-07-11T14:25:54Z</time>
      </trkpt>
      <trkpt lat="47.06191" lon="6.6695">
        <ele>774.10156</ele>
        <time>2020-07-11T14:26:00Z</time>
      </trkpt>
      <trkpt lat="47.06173" lon="6.66909">
        <ele>771.56287</ele>
        <time>2020-07-11T14:26:05Z</time>
      </trkpt>
      <trkpt lat="47.06129" lon="6.66958">
        <ele>769.1663</ele>
        <time>2020-07-11T14:26:14Z</time>
      </trkpt>
      <trkpt lat="47.06118" lon="6.67016">
        <ele>765.99176</ele>
        <time>2020-07-11T14:26:19Z</time>
      </trkpt>
      <trkpt lat="47.06089" lon="6.6705">
        <ele>762.7687</ele>
        <time>2020-07-11T14:26:24Z</time>
      </trkpt>
      <trkpt lat="47.06053" lon="6.67076">
        <ele>759.8902</ele>
        <time>2020-07-11T14:26:29Z</time>
      </trkpt>
      <trkpt lat="47.06019" lon="6.67071">
        <ele>757.46985</ele>
        <time>2020-07-11T14:26:34Z</time>
      </trkpt>
      <trkpt lat="47.05976" lon="6.67035">
        <ele>754.38556</ele>
        <time>2020-07-11T14:26:40Z</time>
      </trkpt>
      <trkpt lat="47.0595" lon="6.67021">
        <ele>750.6325</ele>
        <time>2020-07-11T14:26:45Z</time>
      </trkpt>
      <trkpt lat="47.05935" lon="6.67021">
        <ele>749.392</ele>
        <time>2020-07-11T14:26:50Z</time>
      </trkpt>
      <trkpt lat="47.05917" lon="6.67014">
        <ele>749.4181</ele>
        <time>2020-07-11T14:26:55Z</time>
      </trkpt>
      <trkpt lat="47.05876" lon="6.67007">
        <ele>749.18353</ele>
        <time>2020-07-11T14:27:04Z</time>
      </trkpt>
      <trkpt lat="47.05838" lon="6.66999">
        <ele>747.4011</ele>
        <time>2020-07-11T14:27:10Z</time>
      </trkpt>
      <trkpt lat="47.05808" lon="6.66992">
        <ele>747.3605</ele>
        <time>2020-07-11T14:27:15Z</time>
      </trkpt>
      <trkpt lat="47.05783" lon="6.66993">
        <ele>745.1895</ele>
        <time>2020-07-11T14:27:20Z</time>
      </trkpt>
      <trkpt lat="47.05757" lon="6.67003">
        <ele>746.9759</ele>
        <time>2020-07-11T14:27:25Z</time>
      </trkpt>
      <trkpt lat="47.05733" lon="6.67014">
        <ele>746.5986</ele>
        <time>2020-07-11T14:27:30Z</time>
      </trkpt>
      <trkpt lat="47.05709" lon="6.67029">
        <ele>746.8466</ele>
        <time>2020-07-11T14:27:35Z</time>
      </trkpt>
      <trkpt lat="47.05683" lon="6.67042">
        <ele>746.91437</ele>
        <time>2020-07-11T14:27:40Z</time>
      </trkpt>
      <trkpt lat="47.05636" lon="6.67038">
        <ele>747.397</ele>
        <time>2020-07-11T14:27:49Z</time>
      </trkpt>
      <trkpt lat="47.05617" lon="6.6701">
        <ele>747.4043</ele>
        <time>2020-07-11T14:27:54Z</time>
      </trkpt>
      <trkpt lat="47.05603" lon="6.66975">
        <ele>747.59814</ele>
        <time>2020-07-11T14:27:59Z</time>
      </trkpt>
      <trkpt lat="47.0559" lon="6.6694">
        <ele>747.6742</ele>
        <time>2020-07-11T14:28:04Z</time>
      </trkpt>
      <trkpt lat="47.05575" lon="6.66906">
        <ele>747.73883</ele>
        <time>2020-07-11T14:28:09Z</time>
      </trkpt>
      <trkpt lat="47.05555" lon="6.66867">
        <ele>747.5064</ele>
        <time>2020-07-11T14:28:15Z</time>
      </trkpt>
      <trkpt lat="47.05533" lon="6.66845">
        <ele>747.32715</ele>
        <time>2020-07-11T14:28:20Z</time>
      </trkpt>
      <trkpt lat="47.05508" lon="6.66826">
        <ele>747.28754</ele>
        <time>2020-07-11T14:28:25Z</time>
      </trkpt>
      <trkpt lat="47.05482" lon="6.66806">
        <ele>746.53815</ele>
        <time>2020-07-11T14:28:30Z</time>
      </trkpt>
      <trkpt lat="47.05436" lon="6.66774">
        <ele>746.74554</ele>
        <time>2020-07-11T14:28:39Z</time>
      </trkpt>
      <trkpt lat="47.05404" lon="6.66754">
        <ele>746.5611</ele>
        <time>2020-07-11T14:28:45Z</time>
      </trkpt>
      <trkpt lat="47.05383" lon="6.66727">
        <ele>747.30316</ele>
        <time>2020-07-11T14:28:50Z</time>
      </trkpt>
      <trkpt lat="47.05366" lon="6.66701">
        <ele>748.13074</ele>
        <time>2020-07-11T14:28:55Z</time>
      </trkpt>
      <trkpt lat="47.05351" lon="6.66679">
        <ele>749.37744</ele>
        <time>2020-07-11T14:29:00Z</time>
      </trkpt>
      <trkpt lat="47.05322" lon="6.66646">
        <ele>751.04736</ele>
        <time>2020-07-11T14:29:09Z</time>
      </trkpt>
      <trkpt lat="47.05309" lon="6.6662">
        <ele>750.99524</ele>
        <time>2020-07-11T14:29:14Z</time>
      </trkpt>
      <trkpt lat="47.05293" lon="6.66584">
        <ele>750.9098</ele>
        <time>2020-07-11T14:29:20Z</time>
      </trkpt>
      <trkpt lat="47.05282" lon="6.66542">
        <ele>750.09357</ele>
        <time>2020-07-11T14:29:25Z</time>
      </trkpt>
      <trkpt lat="47.0527" lon="6.66497">
        <ele>748.7906</ele>
        <time>2020-07-11T14:29:30Z</time>
      </trkpt>
      <trkpt lat="47.0525" lon="6.6641">
        <ele>747.87854</ele>
        <time>2020-07-11T14:29:39Z</time>
      </trkpt>
      <trkpt lat="47.05245" lon="6.66366">
        <ele>747.96295</ele>
        <time>2020-07-11T14:29:44Z</time>
      </trkpt>
      <trkpt lat="47.05246" lon="6.66326">
        <ele>747.5356</ele>
        <time>2020-07-11T14:29:49Z</time>
      </trkpt>
      <trkpt lat="47.05252" lon="6.66286">
        <ele>748.5435</ele>
        <time>2020-07-11T14:29:54Z</time>
      </trkpt>
      <trkpt lat="47.0526" lon="6.66247">
        <ele>748.78326</ele>
        <time>2020-07-11T14:29:59Z</time>
      </trkpt>
      <trkpt lat="47.05278" lon="6.66206">
        <ele>748.7082</ele>
        <time>2020-07-11T14:30:05Z</time>
      </trkpt>
      <trkpt lat="47.05297" lon="6.66178">
        <ele>749.0699</ele>
        <time>2020-07-11T14:30:10Z</time>
      </trkpt>
      <trkpt lat="47.05315" lon="6.6615">
        <ele>749.1377</ele>
        <time>2020-07-11T14:30:15Z</time>
      </trkpt>
      <trkpt lat="47.05356" lon="6.66099">
        <ele>748.40283</ele>
        <time>2020-07-11T14:30:25Z</time>
      </trkpt>
      <trkpt lat="47.05394" lon="6.66045">
        <ele>748.1453</ele>
        <time>2020-07-11T14:30:34Z</time>
      </trkpt>
      <trkpt lat="47.05416" lon="6.66017">
        <ele>748.2423</ele>
        <time>2020-07-11T14:30:39Z</time>
      </trkpt>
      <trkpt lat="47.05439" lon="6.65978">
        <ele>748.2058</ele>
        <time>2020-07-11T14:30:45Z</time>
      </trkpt>
      <trkpt lat="47.05463" lon="6.65901">
        <ele>748.9532</ele>
        <time>2020-07-11T14:30:55Z</time>
      </trkpt>
      <trkpt lat="47.05469" lon="6.65859">
        <ele>748.5612</ele>
        <time>2020-07-11T14:31:00Z</time>
      </trkpt>
      <trkpt lat="47.0547" lon="6.65817">
        <ele>748.80096</ele>
        <time>2020-07-11T14:31:05Z</time>
      </trkpt>
      <trkpt lat="47.05466" lon="6.65778">
        <ele>748.6634</ele>
        <time>2020-07-11T14:31:10Z</time>
      </trkpt>
      <trkpt lat="47.05452" lon="6.65715">
        <ele>749.4691</ele>
        <time>2020-07-11T14:31:19Z</time>
      </trkpt>
      <trkpt lat="47.05443" lon="6.65674">
        <ele>749.12726</ele>
        <time>2020-07-11T14:31:25Z</time>
      </trkpt>
      <trkpt lat="47.05436" lon="6.65638">
        <ele>748.3684</ele>
        <time>2020-07-11T14:31:30Z</time>
      </trkpt>
      <trkpt lat="47.05428" lon="6.65602">
        <ele>748.28296</ele>
        <time>2020-07-11T14:31:35Z</time>
      </trkpt>
      <trkpt lat="47.05421" lon="6.65567">
        <ele>748.05884</ele>
        <time>2020-07-11T14:31:40Z</time>
      </trkpt>
      <trkpt lat="47.05413" lon="6.65534">
        <ele>748.3851</ele>
        <time>2020-07-11T14:31:45Z</time>
      </trkpt>
      <trkpt lat="47.05406" lon="6.655">
        <ele>748.74365</ele>
        <time>2020-07-11T14:31:50Z</time>
      </trkpt>
      <trkpt lat="47.05392" lon="6.6544">
        <ele>748.34546</ele>
        <time>2020-07-11T14:31:59Z</time>
      </trkpt>
      <trkpt lat="47.05391" lon="6.65423">
        <ele>749.03864</ele>
        <time>2020-07-11T14:32:04Z</time>
      </trkpt>
      <trkpt lat="47.05382" lon="6.654">
        <ele>749.30963</ele>
        <time>2020-07-11T14:33:05Z</time>
      </trkpt>
      <trkpt lat="47.05373" lon="6.65375">
        <ele>749.65466</ele>
        <time>2020-07-11T14:33:10Z</time>
      </trkpt>
      <trkpt lat="47.05364" lon="6.65347">
        <ele>749.6651</ele>
        <time>2020-07-11T14:33:15Z</time>
      </trkpt>
      <trkpt lat="47.05354" lon="6.65318">
        <ele>749.51605</ele>
        <time>2020-07-11T14:33:20Z</time>
      </trkpt>
      <trkpt lat="47.05343" lon="6.65287">
        <ele>749.4504</ele>
        <time>2020-07-11T14:33:25Z</time>
      </trkpt>
      <trkpt lat="47.0533" lon="6.65258">
        <ele>749.1731</ele>
        <time>2020-07-11T14:33:30Z</time>
      </trkpt>
      <trkpt lat="47.05319" lon="6.65229">
        <ele>749.3847</ele>
        <time>2020-07-11T14:33:35Z</time>
      </trkpt>
      <trkpt lat="47.05306" lon="6.65198">
        <ele>749.02094</ele>
        <time>2020-07-11T14:33:40Z</time>
      </trkpt>
      <trkpt lat="47.05293" lon="6.65168">
        <ele>748.94586</ele>
        <time>2020-07-11T14:33:45Z</time>
      </trkpt>
      <trkpt lat="47.05282" lon="6.65134">
        <ele>748.6821</ele>
        <time>2020-07-11T14:33:50Z</time>
      </trkpt>
      <trkpt lat="47.0527" lon="6.65102">
        <ele>748.8802</ele>
        <time>2020-07-11T14:33:55Z</time>
      </trkpt>
      <trkpt lat="47.05257" lon="6.65068">
        <ele>748.8833</ele>
        <time>2020-07-11T14:34:00Z</time>
      </trkpt>
      <trkpt lat="47.05244" lon="6.65035">
        <ele>748.6968</ele>
        <time>2020-07-11T14:34:05Z</time>
      </trkpt>
      <trkpt lat="47.0523" lon="6.65">
        <ele>748.43304</ele>
        <time>2020-07-11T14:34:10Z</time>
      </trkpt>
      <trkpt lat="47.05204" lon="6.6493">
        <ele>748.34753</ele>
        <time>2020-07-11T14:34:20Z</time>
      </trkpt>
      <trkpt lat="47.0518" lon="6.64864">
        <ele>747.8139</ele>
        <time>2020-07-11T14:34:29Z</time>
      </trkpt>
      <trkpt lat="47.05167" lon="6.64829">
        <ele>747.2688</ele>
        <time>2020-07-11T14:34:34Z</time>
      </trkpt>
      <trkpt lat="47.05153" lon="6.64795">
        <ele>747.55225</ele>
        <time>2020-07-11T14:34:39Z</time>
      </trkpt>
      <trkpt lat="47.0514" lon="6.64762">
        <ele>747.9129</ele>
        <time>2020-07-11T14:34:44Z</time>
      </trkpt>
      <trkpt lat="47.05126" lon="6.6473">
        <ele>748.0849</ele>
        <time>2020-07-11T14:34:49Z</time>
      </trkpt>
      <trkpt lat="47.05115" lon="6.64688">
        <ele>748.6092</ele>
        <time>2020-07-11T14:34:55Z</time>
      </trkpt>
      <trkpt lat="47.05102" lon="6.64657">
        <ele>749.14496</ele>
        <time>2020-07-11T14:35:00Z</time>
      </trkpt>
      <trkpt lat="47.05074" lon="6.64589">
        <ele>748.9719</ele>
        <time>2020-07-11T14:35:10Z</time>
      </trkpt>
      <trkpt lat="47.05062" lon="6.64552">
        <ele>748.92505</ele>
        <time>2020-07-11T14:35:15Z</time>
      </trkpt>
      <trkpt lat="47.05048" lon="6.6452">
        <ele>748.5185</ele>
        <time>2020-07-11T14:35:20Z</time>
      </trkpt>
      <trkpt lat="47.05018" lon="6.64466">
        <ele>747.7983</ele>
        <time>2020-07-11T14:35:29Z</time>
      </trkpt>
      <trkpt lat="47.05001" lon="6.64434">
        <ele>747.50745</ele>
        <time>2020-07-11T14:35:34Z</time>
      </trkpt>
      <trkpt lat="47.04977" lon="6.64393">
        <ele>747.38446</ele>
        <time>2020-07-11T14:35:40Z</time>
      </trkpt>
      <trkpt lat="47.04956" lon="6.64352">
        <ele>747.6628</ele>
        <time>2020-07-11T14:35:45Z</time>
      </trkpt>
      <trkpt lat="47.04937" lon="6.64308">
        <ele>747.27295</ele>
        <time>2020-07-11T14:35:50Z</time>
      </trkpt>
      <trkpt lat="47.04911" lon="6.64234">
        <ele>746.1848</ele>
        <time>2020-07-11T14:35:59Z</time>
      </trkpt>
      <trkpt lat="47.04897" lon="6.64194">
        <ele>746.4912</ele>
        <time>2020-07-11T14:36:04Z</time>
      </trkpt>
      <trkpt lat="47.04881" lon="6.64156">
        <ele>746.80597</ele>
        <time>2020-07-11T14:36:09Z</time>
      </trkpt>
      <trkpt lat="47.04864" lon="6.6412">
        <ele>747.22705</ele>
        <time>2020-07-11T14:36:14Z</time>
      </trkpt>
      <trkpt lat="47.04843" lon="6.64087">
        <ele>746.9978</ele>
        <time>2020-07-11T14:36:19Z</time>
      </trkpt>
      <trkpt lat="47.04815" lon="6.64048">
        <ele>747.09784</ele>
        <time>2020-07-11T14:36:25Z</time>
      </trkpt>
      <trkpt lat="47.04794" lon="6.64016">
        <ele>747.446</ele>
        <time>2020-07-11T14:36:30Z</time>
      </trkpt>
      <trkpt lat="47.04776" lon="6.63978">
        <ele>747.46783</ele>
        <time>2020-07-11T14:36:35Z</time>
      </trkpt>
      <trkpt lat="47.04755" lon="6.63906">
        <ele>746.6174</ele>
        <time>2020-07-11T14:36:44Z</time>
      </trkpt>
      <trkpt lat="47.04741" lon="6.63858">
        <ele>747.30316</ele>
        <time>2020-07-11T14:36:50Z</time>
      </trkpt>
      <trkpt lat="47.04716" lon="6.63778">
        <ele>746.4673</ele>
        <time>2020-07-11T14:37:00Z</time>
      </trkpt>
      <trkpt lat="47.04693" lon="6.63709">
        <ele>747.1114</ele>
        <time>2020-07-11T14:37:09Z</time>
      </trkpt>
      <trkpt lat="47.04681" lon="6.63668">
        <ele>746.4037</ele>
        <time>2020-07-11T14:37:14Z</time>
      </trkpt>
      <trkpt lat="47.04667" lon="6.63629">
        <ele>746.3985</ele>
        <time>2020-07-11T14:37:19Z</time>
      </trkpt>
      <trkpt lat="47.04652" lon="6.63584">
        <ele>746.3641</ele>
        <time>2020-07-11T14:37:25Z</time>
      </trkpt>
      <trkpt lat="47.04637" lon="6.63548">
        <ele>746.4193</ele>
        <time>2020-07-11T14:37:30Z</time>
      </trkpt>
      <trkpt lat="47.04617" lon="6.63516">
        <ele>746.5913</ele>
        <time>2020-07-11T14:37:35Z</time>
      </trkpt>
      <trkpt lat="47.04584" lon="6.63448">
        <ele>746.05457</ele>
        <time>2020-07-11T14:37:44Z</time>
      </trkpt>
      <trkpt lat="47.04576" lon="6.63407">
        <ele>745.5011</ele>
        <time>2020-07-11T14:37:49Z</time>
      </trkpt>
      <trkpt lat="47.04578" lon="6.63357">
        <ele>745.8471</ele>
        <time>2020-07-11T14:37:55Z</time>
      </trkpt>
      <trkpt lat="47.04586" lon="6.63312">
        <ele>745.9503</ele>
        <time>2020-07-11T14:38:00Z</time>
      </trkpt>
      <trkpt lat="47.04597" lon="6.63271">
        <ele>747.14685</ele>
        <time>2020-07-11T14:38:05Z</time>
      </trkpt>
      <trkpt lat="47.04606" lon="6.63231">
        <ele>746.7372</ele>
        <time>2020-07-11T14:38:10Z</time>
      </trkpt>
      <trkpt lat="47.04615" lon="6.63191">
        <ele>746.5757</ele>
        <time>2020-07-11T14:38:15Z</time>
      </trkpt>
      <trkpt lat="47.0462" lon="6.63147">
        <ele>746.31195</ele>
        <time>2020-07-11T14:38:20Z</time>
      </trkpt>
      <trkpt lat="47.0463" lon="6.63066">
        <ele>746.19</ele>
        <time>2020-07-11T14:38:29Z</time>
      </trkpt>
      <trkpt lat="47.04643" lon="6.63025">
        <ele>746.7101</ele>
        <time>2020-07-11T14:38:35Z</time>
      </trkpt>
      <trkpt lat="47.04665" lon="6.62982">
        <ele>747.0759</ele>
        <time>2020-07-11T14:38:40Z</time>
      </trkpt>
      <trkpt lat="47.04685" lon="6.62951">
        <ele>747.67316</ele>
        <time>2020-07-11T14:38:45Z</time>
      </trkpt>
      <trkpt lat="47.04704" lon="6.62918">
        <ele>747.7253</ele>
        <time>2020-07-11T14:38:50Z</time>
      </trkpt>
      <trkpt lat="47.04737" lon="6.6287">
        <ele>747.6534</ele>
        <time>2020-07-11T14:38:59Z</time>
      </trkpt>
      <trkpt lat="47.04755" lon="6.6284">
        <ele>748.23706</ele>
        <time>2020-07-11T14:39:04Z</time>
      </trkpt>
      <trkpt lat="47.04775" lon="6.62811">
        <ele>748.2819</ele>
        <time>2020-07-11T14:39:09Z</time>
      </trkpt>
      <trkpt lat="47.04791" lon="6.62778">
        <ele>747.3886</ele>
        <time>2020-07-11T14:39:15Z</time>
      </trkpt>
      <trkpt lat="47.04808" lon="6.62747">
        <ele>747.8535</ele>
        <time>2020-07-11T14:39:19Z</time>
      </trkpt>
      <trkpt lat="47.04826" lon="6.62714">
        <ele>747.82745</ele>
        <time>2020-07-11T14:39:24Z</time>
      </trkpt>
      <trkpt lat="47.04844" lon="6.62683">
        <ele>747.5731</ele>
        <time>2020-07-11T14:39:29Z</time>
      </trkpt>
      <trkpt lat="47.04867" lon="6.62648">
        <ele>747.8764</ele>
        <time>2020-07-11T14:39:35Z</time>
      </trkpt>
      <trkpt lat="47.04911" lon="6.62612">
        <ele>747.8556</ele>
        <time>2020-07-11T14:39:44Z</time>
      </trkpt>
      <trkpt lat="47.04936" lon="6.62601">
        <ele>746.0264</ele>
        <time>2020-07-11T14:39:49Z</time>
      </trkpt>
      <trkpt lat="47.04961" lon="6.6259">
        <ele>746.31824</ele>
        <time>2020-07-11T14:39:54Z</time>
      </trkpt>
      <trkpt lat="47.04984" lon="6.62569">
        <ele>746.0983</ele>
        <time>2020-07-11T14:39:59Z</time>
      </trkpt>
      <trkpt lat="47.05004" lon="6.62541">
        <ele>746.9311</ele>
        <time>2020-07-11T14:40:05Z</time>
      </trkpt>
      <trkpt lat="47.05027" lon="6.62544">
        <ele>745.3281</ele>
        <time>2020-07-11T14:40:10Z</time>
      </trkpt>
      <trkpt lat="47.05054" lon="6.62549">
        <ele>745.3521</ele>
        <time>2020-07-11T14:40:15Z</time>
      </trkpt>
      <trkpt lat="47.05079" lon="6.62553">
        <ele>745.0144</ele>
        <time>2020-07-11T14:40:20Z</time>
      </trkpt>
      <trkpt lat="47.05104" lon="6.62553">
        <ele>745.32605</ele>
        <time>2020-07-11T14:40:25Z</time>
      </trkpt>
      <trkpt lat="47.05128" lon="6.62536">
        <ele>745.18744</ele>
        <time>2020-07-11T14:40:30Z</time>
      </trkpt>
      <trkpt lat="47.05171" lon="6.62507">
        <ele>746.47455</ele>
        <time>2020-07-11T14:40:40Z</time>
      </trkpt>
      <trkpt lat="47.05195" lon="6.62521">
        <ele>745.9076</ele>
        <time>2020-07-11T14:40:45Z</time>
      </trkpt>
      <trkpt lat="47.05216" lon="6.6254">
        <ele>747.20624</ele>
        <time>2020-07-11T14:40:50Z</time>
      </trkpt>
      <trkpt lat="47.05238" lon="6.62557">
        <ele>746.3735</ele>
        <time>2020-07-11T14:40:55Z</time>
      </trkpt>
      <trkpt lat="47.05258" lon="6.62577">
        <ele>745.60223</ele>
        <time>2020-07-11T14:41:00Z</time>
      </trkpt>
      <trkpt lat="47.05296" lon="6.6261">
        <ele>749.03864</ele>
        <time>2020-07-11T14:41:10Z</time>
      </trkpt>
      <trkpt lat="47.05314" lon="6.62595">
        <ele>751.0036</ele>
        <time>2020-07-11T14:41:15Z</time>
      </trkpt>
      <trkpt lat="47.05324" lon="6.62539">
        <ele>753.245</ele>
        <time>2020-07-11T14:41:25Z</time>
      </trkpt>
      <trkpt lat="47.05333" lon="6.62506">
        <ele>752.6215</ele>
        <time>2020-07-11T14:41:30Z</time>
      </trkpt>
      <trkpt lat="47.05341" lon="6.62479">
        <ele>753.1293</ele>
        <time>2020-07-11T14:41:35Z</time>
      </trkpt>
      <trkpt lat="47.05362" lon="6.62438">
        <ele>756.99854</ele>
        <time>2020-07-11T14:41:45Z</time>
      </trkpt>
      <trkpt lat="47.05378" lon="6.62425">
        <ele>758.2342</ele>
        <time>2020-07-11T14:41:50Z</time>
      </trkpt>
      <trkpt lat="47.05406" lon="6.62422">
        <ele>761.9823</ele>
        <time>2020-07-11T14:41:59Z</time>
      </trkpt>
      <trkpt lat="47.05423" lon="6.62425">
        <ele>760.8497</ele>
        <time>2020-07-11T14:42:04Z</time>
      </trkpt>
      <trkpt lat="47.05453" lon="6.62419">
        <ele>758.9256</ele>
        <time>2020-07-11T14:42:09Z</time>
      </trkpt>
      <trkpt lat="47.05479" lon="6.62394">
        <ele>757.16327</ele>
        <time>2020-07-11T14:42:14Z</time>
      </trkpt>
      <trkpt lat="47.05464" lon="6.62346">
        <ele>759.2176</ele>
        <time>2020-07-11T14:42:20Z</time>
      </trkpt>
      <trkpt lat="47.05444" lon="6.62291">
        <ele>760.81</ele>
        <time>2020-07-11T14:42:30Z</time>
      </trkpt>
      <trkpt lat="47.05471" lon="6.62239">
        <ele>760.64</ele>
        <time>2020-07-11T14:42:40Z</time>
      </trkpt>
      <trkpt lat="47.05487" lon="6.62219">
        <ele>761.2783</ele>
        <time>2020-07-11T14:42:45Z</time>
      </trkpt>
      <trkpt lat="47.05519" lon="6.6219">
        <ele>762.43494</ele>
        <time>2020-07-11T14:42:55Z</time>
      </trkpt>
      <trkpt lat="47.05549" lon="6.6216">
        <ele>761.97394</ele>
        <time>2020-07-11T14:43:04Z</time>
      </trkpt>
      <trkpt lat="47.05565" lon="6.62142">
        <ele>761.69025</ele>
        <time>2020-07-11T14:43:09Z</time>
      </trkpt>
      <trkpt lat="47.05574" lon="6.62122">
        <ele>762.9283</ele>
        <time>2020-07-11T14:43:15Z</time>
      </trkpt>
      <trkpt lat="47.05565" lon="6.62085">
        <ele>761.6006</ele>
        <time>2020-07-11T14:43:20Z</time>
      </trkpt>
      <trkpt lat="47.05569" lon="6.62037">
        <ele>760.6317</ele>
        <time>2020-07-11T14:43:25Z</time>
      </trkpt>
      <trkpt lat="47.05586" lon="6.61986">
        <ele>758.80774</ele>
        <time>2020-07-11T14:43:30Z</time>
      </trkpt>
      <trkpt lat="47.05605" lon="6.61936">
        <ele>757.1028</ele>
        <time>2020-07-11T14:43:35Z</time>
      </trkpt>
      <trkpt lat="47.05621" lon="6.6188">
        <ele>754.7328</ele>
        <time>2020-07-11T14:43:40Z</time>
      </trkpt>
      <trkpt lat="47.0568" lon="6.61813">
        <ele>750.6377</ele>
        <time>2020-07-11T14:43:50Z</time>
      </trkpt>
      <trkpt lat="47.05699" lon="6.61777">
        <ele>748.31213</ele>
        <time>2020-07-11T14:43:54Z</time>
      </trkpt>
      <trkpt lat="47.05703" lon="6.61739">
        <ele>747.3647</ele>
        <time>2020-07-11T14:44:05Z</time>
      </trkpt>
      <trkpt lat="47.05689" lon="6.61703">
        <ele>745.8013</ele>
        <time>2020-07-11T14:44:10Z</time>
      </trkpt>
      <trkpt lat="47.05666" lon="6.61638">
        <ele>746.05347</ele>
        <time>2020-07-11T14:44:19Z</time>
      </trkpt>
      <trkpt lat="47.05655" lon="6.61596">
        <ele>746.6184</ele>
        <time>2020-07-11T14:44:25Z</time>
      </trkpt>
      <trkpt lat="47.05661" lon="6.61564">
        <ele>747.08325</ele>
        <time>2020-07-11T14:44:30Z</time>
      </trkpt>
      <trkpt lat="47.05663" lon="6.61492">
        <ele>748.23395</ele>
        <time>2020-07-11T14:44:40Z</time>
      </trkpt>
      <trkpt lat="47.05682" lon="6.61427">
        <ele>748.6957</ele>
        <time>2020-07-11T14:44:49Z</time>
      </trkpt>
      <trkpt lat="47.05691" lon="6.61392">
        <ele>749.2638</ele>
        <time>2020-07-11T14:44:54Z</time>
      </trkpt>
      <trkpt lat="47.05702" lon="6.61358">
        <ele>749.73914</ele>
        <time>2020-07-11T14:44:59Z</time>
      </trkpt>
      <trkpt lat="47.05711" lon="6.61327">
        <ele>750.71277</ele>
        <time>2020-07-11T14:45:04Z</time>
      </trkpt>
      <trkpt lat="47.05722" lon="6.61299">
        <ele>751.7709</ele>
        <time>2020-07-11T14:45:09Z</time>
      </trkpt>
      <trkpt lat="47.05736" lon="6.61274">
        <ele>751.2694</ele>
        <time>2020-07-11T14:45:14Z</time>
      </trkpt>
      <trkpt lat="47.05748" lon="6.61244">
        <ele>753.98627</ele>
        <time>2020-07-11T14:45:20Z</time>
      </trkpt>
      <trkpt lat="47.0575" lon="6.61182">
        <ele>755.09143</ele>
        <time>2020-07-11T14:45:30Z</time>
      </trkpt>
      <trkpt lat="47.0575" lon="6.61154">
        <ele>755.1999</ele>
        <time>2020-07-11T14:45:35Z</time>
      </trkpt>
      <trkpt lat="47.05736" lon="6.61136">
        <ele>754.8297</ele>
        <time>2020-07-11T14:45:40Z</time>
      </trkpt>
      <trkpt lat="47.0568" lon="6.61114">
        <ele>752.06067</ele>
        <time>2020-07-11T14:45:49Z</time>
      </trkpt>
      <trkpt lat="47.05648" lon="6.61086">
        <ele>750.817</ele>
        <time>2020-07-11T14:45:54Z</time>
      </trkpt>
      <trkpt lat="47.05623" lon="6.61046">
        <ele>749.8663</ele>
        <time>2020-07-11T14:45:59Z</time>
      </trkpt>
      <trkpt lat="47.05596" lon="6.61004">
        <ele>748.39966</ele>
        <time>2020-07-11T14:46:04Z</time>
      </trkpt>
      <trkpt lat="47.05569" lon="6.60962">
        <ele>747.4043</ele>
        <time>2020-07-11T14:46:09Z</time>
      </trkpt>
      <trkpt lat="47.05537" lon="6.60918">
        <ele>747.08844</ele>
        <time>2020-07-11T14:46:15Z</time>
      </trkpt>
      <trkpt lat="47.05508" lon="6.60899">
        <ele>747.2031</ele>
        <time>2020-07-11T14:46:20Z</time>
      </trkpt>
      <trkpt lat="47.0549" lon="6.60888">
        <ele>746.62775</ele>
        <time>2020-07-11T14:46:29Z</time>
      </trkpt>
      <trkpt lat="47.05485" lon="6.6088">
        <ele>746.22754</ele>
        <time>2020-07-11T14:46:34Z</time>
      </trkpt>
      <trkpt lat="47.05483" lon="6.60844">
        <ele>747.69507</ele>
        <time>2020-07-11T14:46:39Z</time>
      </trkpt>
      <trkpt lat="47.05492" lon="6.60803">
        <ele>747.80035</ele>
        <time>2020-07-11T14:46:44Z</time>
      </trkpt>
      <trkpt lat="47.05501" lon="6.60763">
        <ele>749.3159</ele>
        <time>2020-07-11T14:46:49Z</time>
      </trkpt>
      <trkpt lat="47.05511" lon="6.60726">
        <ele>750.228</ele>
        <time>2020-07-11T14:46:54Z</time>
      </trkpt>
      <trkpt lat="47.0552" lon="6.60695">
        <ele>751.78754</ele>
        <time>2020-07-11T14:46:59Z</time>
      </trkpt>
      <trkpt lat="47.05528" lon="6.60665">
        <ele>753.6047</ele>
        <time>2020-07-11T14:47:04Z</time>
      </trkpt>
      <trkpt lat="47.05518" lon="6.60625">
        <ele>752.78</ele>
        <time>2020-07-11T14:47:09Z</time>
      </trkpt>
      <trkpt lat="47.05511" lon="6.60577">
        <ele>751.85736</ele>
        <time>2020-07-11T14:47:14Z</time>
      </trkpt>
      <trkpt lat="47.05502" lon="6.60525">
        <ele>750.10504</ele>
        <time>2020-07-11T14:47:19Z</time>
      </trkpt>
      <trkpt lat="47.05493" lon="6.6048">
        <ele>748.57477</ele>
        <time>2020-07-11T14:47:24Z</time>
      </trkpt>
      <trkpt lat="47.05485" lon="6.60433">
        <ele>747.5179</ele>
        <time>2020-07-11T14:47:29Z</time>
      </trkpt>
      <trkpt lat="47.05474" lon="6.60387">
        <ele>745.9409</ele>
        <time>2020-07-11T14:47:34Z</time>
      </trkpt>
      <trkpt lat="47.0546" lon="6.60341">
        <ele>746.4287</ele>
        <time>2020-07-11T14:47:39Z</time>
      </trkpt>
      <trkpt lat="47.05447" lon="6.60296">
        <ele>746.2328</ele>
        <time>2020-07-11T14:47:44Z</time>
      </trkpt>
      <trkpt lat="47.05432" lon="6.60243">
        <ele>746.0035</ele>
        <time>2020-07-11T14:47:50Z</time>
      </trkpt>
      <trkpt lat="47.05422" lon="6.60197">
        <ele>745.5251</ele>
        <time>2020-07-11T14:47:55Z</time>
      </trkpt>
      <trkpt lat="47.05412" lon="6.6012">
        <ele>745.81274</ele>
        <time>2020-07-11T14:48:05Z</time>
      </trkpt>
      <trkpt lat="47.05392" lon="6.60048">
        <ele>746.3776</ele>
        <time>2020-07-11T14:48:14Z</time>
      </trkpt>
      <trkpt lat="47.05394" lon="6.60005">
        <ele>746.9821</ele>
        <time>2020-07-11T14:48:19Z</time>
      </trkpt>
      <trkpt lat="47.05397" lon="6.59961">
        <ele>746.7935</ele>
        <time>2020-07-11T14:48:24Z</time>
      </trkpt>
      <trkpt lat="47.05396" lon="6.59914">
        <ele>746.3505</ele>
        <time>2020-07-11T14:48:29Z</time>
      </trkpt>
      <trkpt lat="47.054" lon="6.59884">
        <ele>746.71844</ele>
        <time>2020-07-11T14:48:35Z</time>
      </trkpt>
    </trkseg>
  </trk>
</gpx>